Provisional Data: West Creek near Weber City, PA


Please select a monitoring station.
Please select start date.
Please select start date.

Toggle Unit: C/F Toggle Unit: C/F
Sample Time Temperature (C) Temperature (F) Specific Conductivity (mS/cm) pH   Turbidity (NTU+) DO (mg/L)
12/23/2022 12:00:00 AM 0.02 32.036 0.083 10.74 3.44 13.96
12/23/2022 12:15:00 AM 0.02 32.036 0.083 10.74 4.09 13.94
12/23/2022 12:30:00 AM 0.03 32.054 0.084 10.73 4.04 13.91
12/23/2022 12:45:00 AM 0.04 32.072 0.086 10.75 4.39 13.89
12/23/2022 1:00:00 AM 0.06 32.108 0.089 10.74 4.86 13.84
12/23/2022 1:15:00 AM 0.08 32.144 0.093 10.69 4.53 13.77
12/23/2022 1:30:00 AM 0.1 32.18 0.097 10.68 4.98 13.72
12/23/2022 1:45:00 AM 0.1 32.18 0.097 10.69 5.29 13.7
12/23/2022 2:00:00 AM 0.11 32.198 0.099 10.7 5.13 13.69
12/23/2022 2:15:00 AM 0.1 32.18 0.096 10.72 6.78 13.7
12/23/2022 2:30:00 AM 0.08 32.144 0.094 10.71 6.77 13.7
12/23/2022 2:45:00 AM 0.07 32.126 0.087 10.7 6.37 13.74
12/23/2022 3:00:00 AM 0.06 32.108 0.085 10.76 6.29 13.75
12/23/2022 3:15:00 AM 0.07 32.126 0.084 10.72 6.57 13.74
12/23/2022 3:30:00 AM 0.08 32.144 0.085 10.69 6.37 13.73
12/23/2022 3:45:00 AM 0.09 32.162 0.085 10.73 6.35 13.71
12/23/2022 4:00:00 AM 0.08 32.144 0.085 10.71 6.99 13.69
12/23/2022 4:15:00 AM 0.1 32.18 0.085 10.7 7.17 13.68
12/23/2022 4:30:00 AM 0.11 32.198 0.085 10.71 7.11 13.67
12/23/2022 4:45:00 AM 0.11 32.198 0.085 10.72 7.98 13.65
12/23/2022 5:00:00 AM 0.12 32.216 0.086 10.71 7.51 13.65
12/23/2022 5:15:00 AM 0.11 32.198 0.085 10.72 8.74 13.64
12/23/2022 5:30:00 AM 0.12 32.216 0.086 10.7 9.84 13.62
12/23/2022 5:45:00 AM 0.14 32.252 0.086 10.68 9.99 13.6
12/23/2022 6:00:00 AM 0.16 32.288 0.086 10.7 11.24 13.58
12/23/2022 6:15:00 AM 0.17 32.306 0.088 10.71 13.02 13.54
12/23/2022 6:30:00 AM 0.25 32.45 0.09 10.7 15.6 13.51
12/23/2022 6:45:00 AM 0.28 32.504 0.09 10.67 14.39 13.5
12/23/2022 7:00:00 AM 0.28 32.504 0.09 10.69 16.16 13.51
12/23/2022 7:15:00 AM 0.33 32.594 0.09 10.66 16.77 13.52
12/23/2022 7:30:00 AM 0.35 32.63 0.089 10.65 16.8 13.53
12/23/2022 7:45:00 AM 0.39 32.702 0.088 10.65 15.44 13.54
12/23/2022 8:00:00 AM 0.42 32.756 0.086 10.66 16.05 13.54
12/23/2022 8:15:00 AM 0.46 32.828 0.085 10.65 19.1 13.54
12/23/2022 8:30:00 AM 0.44 32.792 0.084 10.63 17.91 13.54
12/23/2022 8:45:00 AM 0.43 32.774 0.084 10.69 17.44 13.55
12/23/2022 9:00:00 AM 0.43 32.774 0.083 10.68 18.16 13.56
12/23/2022 9:15:00 AM 0.42 32.756 0.083 10.68 16.48 13.58
12/23/2022 9:30:00 AM 0.41 32.738 0.083 10.67 15.08 13.6
12/23/2022 9:45:00 AM 0.4 32.72 0.084 10.66 15.55 13.63
12/23/2022 10:00:00 AM 0.39 32.702 0.086 10.67 13.92 13.65
12/23/2022 10:15:00 AM 0.36 32.648 0.087 10.66 14.13 13.67
12/23/2022 10:30:00 AM 0.32 32.576 0.09 10.69 15.33 13.69
12/23/2022 10:45:00 AM 0.29 32.522 0.092 10.69 15.63 13.71
12/23/2022 11:00:00 AM 0.25 32.45 0.095 10.7 15.23 13.74
12/23/2022 11:15:00 AM 0.21 32.378 0.097 10.72 16.29 13.76
12/23/2022 11:30:00 AM 0.19 32.342 0.1 10.73 17.03 13.78
12/23/2022 11:45:00 AM 0.15 32.27 0.102 10.71 17.99 13.8
12/23/2022 12:00:00 PM 0.11 32.198 0.103 10.72 18.43 13.82
12/23/2022 12:15:00 PM 0.08 32.144 0.105 10.73 18.11 13.84
12/23/2022 12:30:00 PM 0.04 32.072 0.105 10.73 16.54 13.86
12/23/2022 12:45:00 PM 0.04 32.072 0.106 10.74 18.46 13.88
12/23/2022 1:00:00 PM 0.03 32.054 0.107 10.73 17.88 13.9
12/23/2022 1:15:00 PM 0 32 0.107 10.73 18.41 13.92
12/23/2022 1:30:00 PM -0.01 31.982 0.108 10.75 16.94 13.94
12/23/2022 1:45:00 PM -0.02 31.964 0.108 10.74 18.27 13.95
12/23/2022 2:00:00 PM -0.03 31.946 0.108 10.88 17.21 13.97
12/23/2022 2:15:00 PM -0.04 31.928 0.109 10.76 16.57 13.99
12/23/2022 2:30:00 PM -0.04 31.928 0.109 10.86 16.45 14
12/23/2022 2:45:00 PM -0.05 31.91 0.109 10.88 15.6 14.01
12/23/2022 3:00:00 PM -0.05 31.91 0.11 10.89 15.19 14.03
12/23/2022 3:15:00 PM -0.05 31.91 0.11 10.89 14.68 14.03
12/23/2022 3:30:00 PM -0.05 31.91 0.11 10.76 13.54 14.04
12/23/2022 3:45:00 PM -0.05 31.91 0.11 10.73 12.56 14.05
12/23/2022 4:00:00 PM -0.05 31.91 0.111 10.74 12.25 14.05
12/23/2022 4:15:00 PM -0.04 31.928 0.111 10.74 10.38 14.06
12/23/2022 4:30:00 PM -0.04 31.928 0.111 10.77 10.76 14.07
12/23/2022 4:45:00 PM -0.04 31.928 0.111 10.77 10.95 14.07
12/23/2022 5:00:00 PM -0.04 31.928 0.111 10.74 10.5 14.06
12/23/2022 5:15:00 PM -0.04 31.928 0.111 10.74 10.62 14.06
12/23/2022 5:30:00 PM -0.04 31.928 0.111 10.73 10.09 14.06
12/23/2022 5:45:00 PM -0.04 31.928 0.11 10.74 9.9 14.06
12/23/2022 6:00:00 PM -0.04 31.928 0.11 10.74 9.37 14.06
12/23/2022 6:15:00 PM -0.04 31.928 0.11 10.75 9.57 14.06
12/23/2022 6:30:00 PM -0.04 31.928 0.109 10.74 9.37 14.06
12/23/2022 6:45:00 PM -0.04 31.928 0.109 10.74 9.03 14.07
12/23/2022 7:00:00 PM -0.04 31.928 0.108 10.76 9.86 14.07
12/23/2022 7:15:00 PM -0.04 31.928 0.108 10.75 9.35 14.07
12/23/2022 7:30:00 PM -0.04 31.928 0.108 10.74 9.07 14.07
12/23/2022 7:45:00 PM -0.04 31.928 0.107 10.73 9.98 14.07
12/23/2022 8:00:00 PM -0.04 31.928 0.107 10.8 9.55 14.08
12/23/2022 8:15:00 PM -0.04 31.928 0.107 10.79 8.83 14.08
12/23/2022 8:30:00 PM -0.04 31.928 0.106 10.78 8.76 14.08
12/23/2022 8:45:00 PM -0.04 31.928 0.106 10.75 9.04 14.08
12/23/2022 9:00:00 PM -0.04 31.928 0.106 10.74 9.6 14.08
12/23/2022 9:15:00 PM -0.04 31.928 0.106 10.77 8.9 14.08
12/23/2022 9:30:00 PM -0.04 31.928 0.105 10.77 8.99 14.08
12/23/2022 9:45:00 PM -0.04 31.928 0.105 10.76 8.74 14.08
12/23/2022 10:00:00 PM -0.04 31.928 0.105 10.76 8.32 14.08
12/23/2022 10:15:00 PM -0.04 31.928 0.105 10.74 9.23 14.08
12/23/2022 10:30:00 PM -0.04 31.928 0.104 10.77 8.69 14.08
12/23/2022 10:45:00 PM -0.04 31.928 0.104 10.77 8.3 14.09
12/23/2022 11:00:00 PM -0.04 31.928 0.104 10.77 8.36 14.09
12/23/2022 11:15:00 PM -0.04 31.928 0.103 10.77 8.27 14.09
12/23/2022 11:30:00 PM -0.04 31.928 0.103 10.75 8.2 14.1
12/23/2022 11:45:00 PM -0.04 31.928 0.102 10.78 8.11 14.1
12/24/2022 12:00:00 AM -0.04 31.928 0.102 10.79 7.83 14.11
12/24/2022 12:15:00 AM -0.04 31.928 0.101 10.84 8.14 14.1
12/24/2022 12:30:00 AM -0.04 31.928 0.101 10.81 7.92 14.1
12/24/2022 12:45:00 AM -0.04 31.928 0.101 10.82 7.89 14.1
12/24/2022 1:00:00 AM -0.04 31.928 0.1 10.8 6.96 14.1
12/24/2022 1:15:00 AM -0.04 31.928 0.1 10.8 6.66 14.1
12/24/2022 1:30:00 AM -0.04 31.928 0.1 10.79 10.69 14.09
12/24/2022 1:45:00 AM -0.04 31.928 0.1 10.79 7.25 14.1
12/24/2022 2:00:00 AM -0.04 31.928 0.099 10.77 7.23 14.1
12/24/2022 2:15:00 AM -0.04 31.928 0.099 10.75 31.97 14.1
12/24/2022 2:30:00 AM -0.04 31.928 0.099 10.76 7.69 14.1
12/24/2022 2:45:00 AM -0.04 31.928 0.099 10.75 7.47 14.1
12/24/2022 3:00:00 AM -0.04 31.928 0.099 10.75 7.71 14.1
12/24/2022 3:15:00 AM -0.04 31.928 0.098 10.75 7.03 14.1
12/24/2022 3:30:00 AM -0.04 31.928 0.098 10.75 7.05 14.1
12/24/2022 3:45:00 AM -0.04 31.928 0.098 10.75 6.74 14.09
12/24/2022 4:00:00 AM -0.04 31.928 0.098 10.76 6.65 14.08
12/24/2022 4:15:00 AM -0.04 31.928 0.098 10.77 6.47 14.09
12/24/2022 4:30:00 AM -0.04 31.928 0.097 10.78 6.85 14.09
12/24/2022 4:45:00 AM -0.04 31.928 0.097 10.78 6.52 14.09
12/24/2022 5:00:00 AM -0.04 31.928 0.097 10.74 6.5 14.09
12/24/2022 5:15:00 AM -0.04 31.928 0.097 10.73 6.5 14.09
12/24/2022 5:30:00 AM -0.04 31.928 0.096 10.72 6.4 14.09
12/24/2022 5:45:00 AM -0.04 31.928 0.096 10.74 6.36 14.08
12/24/2022 6:00:00 AM -0.04 31.928 0.096 10.73 6.37 14.07
12/24/2022 6:15:00 AM -0.04 31.928 0.096 10.73 6.33 14.06
12/24/2022 6:30:00 AM -0.04 31.928 0.096 10.72 6.44 14.05
12/24/2022 6:45:00 AM -0.04 31.928 0.095 10.73 6.81 14.06
12/24/2022 7:00:00 AM -0.04 31.928 0.095 10.75 6.57 14.06
12/24/2022 7:15:00 AM -0.04 31.928 0.094 10.74 6.22 14.07
12/24/2022 7:30:00 AM -0.04 31.928 0.094 10.73 6.33 14.06
12/24/2022 7:45:00 AM -0.04 31.928 0.094 10.72 5.86 14.06
12/24/2022 8:00:00 AM -0.04 31.928 0.093 10.73 5.85 14.07
12/24/2022 8:15:00 AM -0.04 31.928 0.093 10.73 5.78 14.08
12/24/2022 8:30:00 AM -0.04 31.928 0.093 10.74 5.7 14.09
12/24/2022 8:45:00 AM -0.04 31.928 0.092 10.74 5.67 14.1
12/24/2022 9:00:00 AM -0.04 31.928 0.092 10.76 5.68 14.11
12/24/2022 9:15:00 AM -0.04 31.928 0.092 10.73 5.6 14.13
12/24/2022 9:30:00 AM -0.04 31.928 0.092 10.75 5.64 14.13
12/24/2022 9:45:00 AM -0.04 31.928 0.091 10.75 5.62 14.15
12/24/2022 10:00:00 AM -0.04 31.928 0.091 10.76 5.67 14.16
12/24/2022 10:15:00 AM -0.04 31.928 0.091 10.75 5.53 14.16
12/24/2022 10:30:00 AM -0.04 31.928 0.09 10.74 5.57 14.18
12/24/2022 10:45:00 AM -0.04 31.928 0.09 10.74 5.38 14.18
12/24/2022 11:00:00 AM -0.04 31.928 0.088 10.76 6.31 14.21
12/24/2022 11:15:00 AM -0.04 31.928 0.088 10.75 6.67 14.21
12/24/2022 11:30:00 AM -0.04 31.928 0.087 10.77 6.86 14.22
12/24/2022 11:45:00 AM -0.04 31.928 0.087 10.76 6.8 14.24
12/24/2022 12:00:00 PM -0.04 31.928 0.086 10.8 5.92 14.23
12/24/2022 12:15:00 PM -0.04 31.928 0.086 10.79 5.73 14.23
12/24/2022 12:30:00 PM -0.04 31.928 0.086 10.76 5.79 14.24
12/24/2022 12:45:00 PM -0.04 31.928 0.085 10.76 5.75 14.24
12/24/2022 1:00:00 PM -0.04 31.928 0.085 10.8 5.55 14.23
12/24/2022 1:15:00 PM -0.04 31.928 0.085 10.75 5.56 14.23
12/24/2022 1:30:00 PM -0.04 31.928 0.085 10.76 5.61 14.24
12/24/2022 1:45:00 PM -0.04 31.928 0.084 10.76 5.48 14.24
12/24/2022 2:00:00 PM -0.04 31.928 0.084 10.76 5.75 14.24
12/24/2022 2:15:00 PM -0.04 31.928 0.084 10.76 5.79 14.24
12/24/2022 2:30:00 PM -0.04 31.928 0.085 10.75 5.22 14.22
12/24/2022 2:45:00 PM -0.04 31.928 0.083 10.74 5.91 14.25
12/24/2022 3:00:00 PM -0.04 31.928 0.083 10.75 5.6 14.25
12/24/2022 3:15:00 PM -0.04 31.928 0.083 10.74 5.31 14.25
12/24/2022 3:30:00 PM -0.04 31.928 0.083 10.74 5.37 14.24
12/24/2022 3:45:00 PM -0.04 31.928 0.082 10.75 5.8 14.25
12/24/2022 4:00:00 PM -0.04 31.928 0.082 10.75 5.35 14.25
12/24/2022 4:15:00 PM -0.04 31.928 0.082 10.74 6 14.24
12/24/2022 4:30:00 PM -0.04 31.928 0.081 10.76 5.62 14.23
12/24/2022 4:45:00 PM -0.04 31.928 0.081 10.74 5.29 14.23
12/24/2022 5:00:00 PM -0.04 31.928 0.081 10.74 5.47 14.21
12/24/2022 5:15:00 PM -0.04 31.928 0.081 10.75 5.31 14.2
12/24/2022 5:30:00 PM -0.04 31.928 0.08 10.78 5.38 14.19
12/24/2022 5:45:00 PM -0.04 31.928 0.08 10.75 5.4 14.19
12/24/2022 6:00:00 PM -0.04 31.928 0.08 10.75 5.3 14.18
12/24/2022 6:15:00 PM -0.04 31.928 0.08 10.78 5.36 14.17
12/24/2022 6:30:00 PM -0.04 31.928 0.079 10.77 5.29 14.16
12/24/2022 6:45:00 PM -0.04 31.928 0.079 10.78 5.29 14.15
12/24/2022 7:00:00 PM -0.04 31.928 0.079 10.75 5.12 14.15
12/24/2022 7:15:00 PM -0.04 31.928 0.079 10.75 5.27 14.15
12/24/2022 7:30:00 PM -0.04 31.928 0.079 10.78 5.3 14.14
12/24/2022 7:45:00 PM -0.04 31.928 0.078 10.78 5.34 14.14
12/24/2022 8:00:00 PM -0.04 31.928 0.078 10.76 5.24 14.14
12/24/2022 8:15:00 PM -0.04 31.928 0.078 10.79 5.22 14.13
12/24/2022 8:30:00 PM -0.04 31.928 0.078 10.75 5.08 14.14
12/24/2022 8:45:00 PM -0.04 31.928 0.078 10.81 5.61 14.13
12/24/2022 9:00:00 PM -0.04 31.928 0.078 10.78 5.05 14.13
12/24/2022 9:15:00 PM -0.04 31.928 0.078 10.76 5.17 14.13
12/24/2022 9:30:00 PM -0.04 31.928 0.078 10.75 5.19 14.13
12/24/2022 9:45:00 PM -0.04 31.928 0.077 10.75 5.1 14.13
12/24/2022 10:00:00 PM -0.04 31.928 0.077 10.78 5.07 14.13
12/24/2022 10:15:00 PM -0.04 31.928 0.077 10.77 4.99 14.13
12/24/2022 10:30:00 PM -0.04 31.928 0.077 10.78 5.01 14.13
12/24/2022 10:45:00 PM -0.04 31.928 0.077 10.78 4.98 14.13
12/24/2022 11:00:00 PM -0.04 31.928 0.077 10.77 4.95 14.13
12/24/2022 11:15:00 PM -0.04 31.928 0.076 10.76 5.01 14.13
12/24/2022 11:30:00 PM -0.04 31.928 0.076 10.73 5.14 14.13
12/24/2022 11:45:00 PM -0.04 31.928 0.076 10.75 5.05 14.13
12/25/2022 12:00:00 AM -0.04 31.928 0.076 10.74 5.02 14.12
12/25/2022 12:15:00 AM -0.04 31.928 0.076 10.76 4.98 14.12
12/25/2022 12:30:00 AM -0.04 31.928 0.076 10.76 5.13 14.12
12/25/2022 12:45:00 AM -0.04 31.928 0.076 10.75 5.04 14.12
12/25/2022 1:00:00 AM -0.04 31.928 0.076 10.74 5.04 14.12
12/25/2022 1:15:00 AM -0.04 31.928 0.076 10.75 5.04 14.11
12/25/2022 1:30:00 AM -0.04 31.928 0.075 10.78 4.87 14.11
12/25/2022 1:45:00 AM -0.04 31.928 0.075 10.78 5.01 14.11
12/25/2022 2:00:00 AM -0.04 31.928 0.075 10.77 5 14.11
12/25/2022 2:15:00 AM -0.04 31.928 0.075 10.77 4.96 14.1
12/25/2022 2:30:00 AM -0.04 31.928 0.075 10.79 4.99 14.1
12/25/2022 2:45:00 AM -0.04 31.928 0.075 10.79 4.92 14.1
12/25/2022 3:00:00 AM -0.04 31.928 0.075 10.78 4.72 14.1
12/25/2022 3:15:00 AM -0.04 31.928 0.075 10.79 4.8 14.11
12/25/2022 3:30:00 AM -0.04 31.928 0.075 10.78 4.74 14.11
12/25/2022 3:45:00 AM -0.04 31.928 0.075 10.77 5.14 14.1
12/25/2022 4:00:00 AM -0.04 31.928 0.074 10.77 4.77 14.1
12/25/2022 4:15:00 AM -0.04 31.928 0.074 10.76 4.75 14.1
12/25/2022 4:30:00 AM -0.04 31.928 0.074 10.74 4.91 14.1
12/25/2022 4:45:00 AM -0.04 31.928 0.074 10.83 4.89 14.11
12/25/2022 5:00:00 AM -0.04 31.928 0.074 10.83 4.77 14.11
12/25/2022 5:15:00 AM -0.04 31.928 0.074 10.82 4.82 14.11
12/25/2022 5:30:00 AM -0.04 31.928 0.074 10.81 4.77 14.11
12/25/2022 5:45:00 AM -0.04 31.928 0.074 10.81 4.71 14.11
12/25/2022 6:00:00 AM -0.04 31.928 0.073 10.87 4.75 14.11
12/25/2022 6:15:00 AM -0.04 31.928 0.073 10.83 4.79 14.12
12/25/2022 6:30:00 AM -0.04 31.928 0.074 10.85 4.79 14.12
12/25/2022 6:45:00 AM -0.04 31.928 0.074 10.85 4.76 14.11
12/25/2022 7:00:00 AM -0.04 31.928 0.073 10.82 4.72 14.11
12/25/2022 7:15:00 AM -0.04 31.928 0.073 10.83 4.71 14.12
12/25/2022 7:30:00 AM -0.04 31.928 0.073 10.82 4.63 14.12
12/25/2022 7:45:00 AM -0.04 31.928 0.073 10.9 4.65 14.12
12/25/2022 8:00:00 AM -0.04 31.928 0.073 10.88 4.65 14.13
12/25/2022 8:15:00 AM -0.04 31.928 0.073 10.88 4.73 14.13
12/25/2022 8:30:00 AM -0.04 31.928 0.073 10.83 4.67 14.14
12/25/2022 8:45:00 AM -0.04 31.928 0.073 10.88 4.73 14.16
12/25/2022 9:00:00 AM -0.04 31.928 0.072 10.85 4.74 14.17
12/25/2022 9:15:00 AM -0.04 31.928 0.072 10.87 4.66 14.18
12/25/2022 9:30:00 AM -0.04 31.928 0.072 10.87 5.01 14.2
12/25/2022 9:45:00 AM -0.04 31.928 0.072 10.81 4.92 14.21
12/25/2022 10:00:00 AM -0.04 31.928 0.072 10.8 4.67 14.22
12/25/2022 10:15:00 AM -0.04 31.928 0.072 10.8 4.74 14.24
12/25/2022 10:30:00 AM -0.04 31.928 0.071 10.81 4.66 14.25
12/25/2022 10:45:00 AM -0.04 31.928 0.071 10.84 4.64 14.25
12/25/2022 11:00:00 AM -0.04 31.928 0.071 10.81 4.76 14.26
12/25/2022 11:15:00 AM -0.04 31.928 0.071 10.82 4.83 14.27
12/25/2022 11:30:00 AM -0.04 31.928 0.07 10.82 4.69 14.28
12/25/2022 11:45:00 AM -0.04 31.928 0.07 10.85 4.76 14.29
12/25/2022 12:00:00 PM -0.04 31.928 0.07 10.82 4.71 14.29
12/25/2022 12:15:00 PM -0.04 31.928 0.07 10.79 4.87 14.28
12/25/2022 12:30:00 PM -0.04 31.928 0.07 10.79 4.84 14.28
12/25/2022 12:45:00 PM -0.04 31.928 0.07 10.79 4.72 14.3
12/25/2022 1:00:00 PM -0.04 31.928 0.069 10.77 4.85 14.3
12/25/2022 1:15:00 PM -0.04 31.928 0.069 10.79 4.93 14.3
12/25/2022 1:30:00 PM -0.04 31.928 0.069 10.78 6.15 14.3
12/25/2022 1:45:00 PM -0.04 31.928 0.069 10.79 4.77 14.31
12/25/2022 2:00:00 PM -0.04 31.928 0.069 10.78 4.91 14.31
12/25/2022 2:15:00 PM -0.04 31.928 0.068 10.79 4.72 14.31
12/25/2022 2:30:00 PM -0.04 31.928 0.068 10.78 4.7 14.32
12/25/2022 2:45:00 PM -0.04 31.928 0.069 10.78 4.76 14.31
12/25/2022 3:00:00 PM -0.04 31.928 0.068 10.87 4.83 14.32
12/25/2022 3:15:00 PM -0.04 31.928 0.068 10.9 4.73 14.32
12/25/2022 3:30:00 PM -0.04 31.928 0.068 10.82 4.83 14.32
12/25/2022 3:45:00 PM -0.04 31.928 0.068 10.79 4.8 14.32
12/25/2022 4:00:00 PM -0.04 31.928 0.068 10.79 4.68 14.31
12/25/2022 4:15:00 PM -0.04 31.928 0.068 10.78 4.61 14.32
12/25/2022 4:30:00 PM -0.04 31.928 0.068 10.78 4.8 14.31
12/25/2022 4:45:00 PM -0.04 31.928 0.068 10.78 4.71 14.3
12/25/2022 5:00:00 PM -0.04 31.928 0.068 10.77 4.76 14.29
12/25/2022 5:15:00 PM -0.04 31.928 0.068 10.78 4.67 14.27
12/25/2022 5:30:00 PM -0.04 31.928 0.068 10.76 4.69 14.26
12/25/2022 5:45:00 PM -0.04 31.928 0.068 10.79 4.74 14.25
12/25/2022 6:00:00 PM -0.04 31.928 0.068 10.78 4.8 14.24
12/25/2022 6:15:00 PM -0.04 31.928 0.068 10.78 4.92 14.24
12/25/2022 6:30:00 PM -0.04 31.928 0.068 10.78 4.81 14.24
12/25/2022 6:45:00 PM -0.04 31.928 0.068 10.84 4.81 14.24
12/25/2022 7:00:00 PM -0.04 31.928 0.068 10.79 4.87 14.24
12/25/2022 7:15:00 PM -0.04 31.928 0.068 10.86 4.97 14.24
12/25/2022 7:30:00 PM -0.04 31.928 0.068 10.83 4.88 14.24
12/25/2022 7:45:00 PM -0.04 31.928 0.068 10.84 5 14.23
12/25/2022 8:00:00 PM -0.04 31.928 0.068 10.81 4.87 14.24
12/25/2022 8:15:00 PM -0.04 31.928 0.068 10.79 4.91 14.23
12/25/2022 8:30:00 PM -0.04 31.928 0.068 10.78 4.95 14.24
12/25/2022 8:45:00 PM -0.04 31.928 0.068 10.81 4.9 14.23
12/25/2022 9:00:00 PM -0.04 31.928 0.068 10.84 4.86 14.23
12/25/2022 9:15:00 PM -0.04 31.928 0.068 10.83 4.88 14.24
12/25/2022 9:30:00 PM -0.04 31.928 0.068 10.83 4.86 14.24
12/25/2022 9:45:00 PM -0.04 31.928 0.069 10.83 4.94 14.23
12/25/2022 10:00:00 PM -0.04 31.928 0.069 10.84 4.97 14.24
12/25/2022 10:15:00 PM -0.04 31.928 0.069 10.85 5.22 14.24
12/25/2022 10:30:00 PM -0.04 31.928 0.069 10.82 5.08 14.24
12/25/2022 10:45:00 PM -0.04 31.928 0.069 10.84 4.89 14.24
12/25/2022 11:00:00 PM -0.04 31.928 0.069 10.85 4.86 14.25
12/25/2022 11:15:00 PM -0.03 31.946 0.069 10.93 4.63 14.24
12/25/2022 11:30:00 PM -0.03 31.946 0.069 10.91 4.68 14.24
12/25/2022 11:45:00 PM -0.03 31.946 0.069 10.8 4.53 14.24
12/26/2022 12:00:00 AM -0.03 31.946 0.069 10.87 4.5 14.24
12/26/2022 12:15:00 AM -0.03 31.946 0.069 10.86 4.39 14.25
12/26/2022 12:30:00 AM -0.03 31.946 0.069 10.8 4.28 14.25
12/26/2022 12:45:00 AM -0.03 31.946 0.069 10.81 4.44 14.25
12/26/2022 1:00:00 AM -0.03 31.946 0.069 10.85 4.35 14.25
12/26/2022 1:15:00 AM -0.03 31.946 0.069 10.79 4.34 14.25
12/26/2022 1:30:00 AM -0.03 31.946 0.07 10.78 4.16 14.25
12/26/2022 1:45:00 AM -0.03 31.946 0.069 10.82 4.14 14.25
12/26/2022 2:00:00 AM -0.03 31.946 0.07 10.79 4.07 14.25
12/26/2022 2:15:00 AM -0.03 31.946 0.07 10.81 3.87 14.25
12/26/2022 2:30:00 AM -0.03 31.946 0.07 10.76 3.98 14.26
12/26/2022 2:45:00 AM -0.03 31.946 0.07 10.76 4.04 14.26
12/26/2022 3:00:00 AM -0.03 31.946 0.07 10.76 3.83 14.26
12/26/2022 3:15:00 AM -0.03 31.946 0.07 10.82 3.65 14.26
12/26/2022 3:30:00 AM -0.03 31.946 0.07 10.83 3.51 14.26
12/26/2022 3:45:00 AM -0.03 31.946 0.07 10.79 3.35 14.26
12/26/2022 4:00:00 AM -0.03 31.946 0.07 10.79 3.31 14.27
12/26/2022 4:15:00 AM -0.03 31.946 0.07 10.8 2.89 14.27
12/26/2022 4:30:00 AM -0.03 31.946 0.07 10.84 2.68 14.26
12/26/2022 4:45:00 AM -0.03 31.946 0.07 10.79 2.74 14.26
12/26/2022 5:00:00 AM -0.03 31.946 0.07 10.77 2.66 14.26
12/26/2022 5:15:00 AM -0.03 31.946 0.07 10.85 2.51 14.26
12/26/2022 5:30:00 AM -0.03 31.946 0.071 10.9 2.53 14.26
12/26/2022 5:45:00 AM -0.03 31.946 0.071 10.87 2.67 14.26
12/26/2022 6:00:00 AM -0.02 31.964 0.071 10.8 2.63 14.26
12/26/2022 6:15:00 AM -0.02 31.964 0.071 10.77 2.54 14.26
12/26/2022 6:30:00 AM -0.02 31.964 0.071 10.79 2.53 14.26
12/26/2022 6:45:00 AM -0.02 31.964 0.07 10.79 2.55 14.27
12/26/2022 7:00:00 AM -0.02 31.964 0.071 10.77 2.71 14.27
12/26/2022 7:15:00 AM -0.02 31.964 0.071 10.77 2.66 14.27
12/26/2022 7:30:00 AM -0.02 31.964 0.071 10.79 2.64 14.26
12/26/2022 7:45:00 AM -0.02 31.964 0.071 10.82 2.62 14.26
12/26/2022 8:00:00 AM -0.02 31.964 0.071 10.79 2.64 14.27
12/26/2022 8:15:00 AM -0.02 31.964 0.072 10.77 2.69 14.27
12/26/2022 8:30:00 AM -0.02 31.964 0.072 10.76 2.57 14.28
12/26/2022 8:45:00 AM -0.01 31.982 0.072 10.77 2.57 14.28
12/26/2022 9:00:00 AM -0.01 31.982 0.072 10.75 2.57 14.28
12/26/2022 9:15:00 AM -0.01 31.982 0.073 10.76 2.66 14.28
12/26/2022 9:30:00 AM -0.01 31.982 0.072 10.83 2.53 14.29
12/26/2022 9:45:00 AM -0.01 31.982 0.072 10.78 2.55 14.34
12/26/2022 10:00:00 AM -0.01 31.982 0.071 10.79 2.52 14.35
12/26/2022 10:15:00 AM -0.01 31.982 0.071 10.79 2.61 14.36
12/26/2022 10:30:00 AM 0 32 0.073 10.78 2.46 14.35
12/26/2022 10:45:00 AM 0 32 0.073 10.78 2.64 14.33
12/26/2022 11:00:00 AM 0 32 0.072 10.8 2.52 14.36
12/26/2022 11:15:00 AM 0 32 0.072 10.78 2.4 14.36
12/26/2022 11:30:00 AM 0.01 32.018 0.073 10.77 2.55 14.34
12/26/2022 11:45:00 AM 0.01 32.018 0.072 10.79 2.49 14.34
12/26/2022 12:00:00 PM 0.01 32.018 0.074 10.77 2.53 14.31
12/26/2022 12:15:00 PM 0.01 32.018 0.073 10.78 2.52 14.32
12/26/2022 12:30:00 PM 0.03 32.054 0.079 10.72 2.4 14.24
12/26/2022 12:45:00 PM 0.03 32.054 0.079 10.75 2.5 14.21
12/26/2022 1:00:00 PM 0.03 32.054 0.079 10.77 2.6 14.22
12/26/2022 1:15:00 PM 0.05 32.09 0.084 10.72 2.37 14.12
12/26/2022 1:30:00 PM 0.05 32.09 0.083 10.71 2.43 14.13
12/26/2022 1:45:00 PM 0.05 32.09 0.082 10.72 2.37 14.14
12/26/2022 2:00:00 PM 0.05 32.09 0.083 10.74 2.49 14.14
12/26/2022 2:15:00 PM 0.05 32.09 0.083 10.73 2.39 14.14
12/26/2022 2:30:00 PM 0.05 32.09 0.082 10.78 2.38 14.13
12/26/2022 2:45:00 PM 0.05 32.09 0.084 10.74 2.49 14.12
12/26/2022 3:00:00 PM 0.05 32.09 0.083 10.75 2.27 14.13
12/26/2022 3:15:00 PM 0.02 32.036 0.076 10.75 2.55 14.25
12/26/2022 3:30:00 PM 0.01 32.018 0.073 10.75 2.7 14.29
12/26/2022 3:45:00 PM 0.01 32.018 0.073 10.75 2.52 14.31
12/26/2022 4:00:00 PM 0 32 0.071 10.79 2.66 14.33
12/26/2022 4:15:00 PM 0 32 0.072 10.83 2.95 14.31
12/26/2022 4:30:00 PM 0 32 0.072 10.79 2.5 14.29
12/26/2022 4:45:00 PM 0 32 0.071 10.81 2.59 14.29
12/26/2022 5:00:00 PM 0 32 0.071 10.9 2.4 14.29
12/26/2022 5:15:00 PM 0 32 0.071 10.9 2.34 14.27
12/26/2022 5:30:00 PM 0 32 0.07 11.17 2.44 14.27
12/26/2022 5:45:00 PM 0 32 0.07 11.19 2.5 14.27
12/26/2022 6:00:00 PM 0 32 0.07 11.15 2.26 14.27
12/26/2022 6:15:00 PM 0 32 0.07 11.91 2.53 14.25
12/26/2022 6:30:00 PM 0.02 32.036 0.072 11.89 2.45 14.19
12/26/2022 6:45:00 PM 0.04 32.072 0.075 11.87 2.38 14.16
12/26/2022 7:00:00 PM 0.05 32.09 0.076 11.89 2.44 14.13
12/26/2022 7:15:00 PM 0.02 32.036 0.072 11.91 2.6 14.19
12/26/2022 7:30:00 PM 0.04 32.072 0.074 11.9 2.28 14.13
12/26/2022 7:45:00 PM 0 32 0.07 11.94 2.33 14.24
12/26/2022 8:00:00 PM 0.04 32.072 0.075 11.9 2.59 14.13
12/26/2022 8:15:00 PM 0.01 32.018 0.07 11.94 2.34 14.21
12/26/2022 8:30:00 PM -0.01 31.982 0.069 11.94 2.33 14.28
12/26/2022 8:45:00 PM -0.01 31.982 0.069 11.95 2.37 14.28
12/26/2022 9:00:00 PM -0.01 31.982 0.069 11.93 2.38 14.28
12/26/2022 9:15:00 PM -0.01 31.982 0.069 11.96 2.31 14.26
12/26/2022 9:30:00 PM -0.01 31.982 0.069 11.95 2.38 14.27
12/26/2022 9:45:00 PM -0.01 31.982 0.069 11.96 2.41 14.28
12/26/2022 10:00:00 PM -0.01 31.982 0.069 11.95 2.33 14.26
12/26/2022 10:15:00 PM -0.01 31.982 0.069 11.96 2.41 14.25
12/26/2022 10:30:00 PM -0.01 31.982 0.069 11.96 2.33 14.26
12/26/2022 10:45:00 PM 0 32 0.069 11.96 2.43 14.25
12/26/2022 11:00:00 PM -0.01 31.982 0.069 11.98 2.22 14.26
12/26/2022 11:15:00 PM -0.01 31.982 0.069 11.98 2.32 14.27
12/26/2022 11:30:00 PM -0.01 31.982 0.069 11.99 2.41 14.26
12/26/2022 11:45:00 PM -0.01 31.982 0.069 12 2.28 14.27
12/27/2022 12:00:00 AM -0.01 31.982 0.068 11.99 2.4 14.28
12/27/2022 12:15:00 AM -0.01 31.982 0.068 12 2.5 14.28
12/27/2022 12:30:00 AM -0.02 31.964 0.068 11.99 2.4 14.28
12/27/2022 12:45:00 AM -0.02 31.964 0.068 12 2.42 14.28
12/27/2022 1:00:00 AM -0.01 31.982 0.069 11.99 2.23 14.27
12/27/2022 1:15:00 AM -0.02 31.964 0.068 11.98 2.43 14.28
12/27/2022 1:30:00 AM -0.02 31.964 0.068 12.01 2.38 14.28
12/27/2022 1:45:00 AM -0.02 31.964 0.068 12.02 2.32 14.28
12/27/2022 2:00:00 AM -0.02 31.964 0.068 12.05 2.47 14.29
12/27/2022 2:15:00 AM -0.02 31.964 0.067 12.03 2.29 14.3
12/27/2022 2:30:00 AM -0.02 31.964 0.067 12.03 2.27 14.3
12/27/2022 2:45:00 AM -0.02 31.964 0.068 12.04 2.44 14.3
12/27/2022 3:00:00 AM -0.02 31.964 0.067 12.03 2.47 14.29
12/27/2022 3:15:00 AM -0.02 31.964 0.068 12.01 2.49 14.29
12/27/2022 3:30:00 AM -0.02 31.964 0.067 12.03 2.42 14.31
12/27/2022 3:45:00 AM -0.02 31.964 0.068 12.02 2.55 14.3
12/27/2022 4:00:00 AM -0.02 31.964 0.068 12.04 2.32 14.31
12/27/2022 4:15:00 AM -0.02 31.964 0.068 12.07 2.47 14.31
12/27/2022 4:30:00 AM -0.02 31.964 0.067 12.07 2.43 14.31
12/27/2022 4:45:00 AM -0.02 31.964 0.067 12.08 2.42 14.31
12/27/2022 5:00:00 AM -0.02 31.964 0.067 12.08 2.46 14.32
12/27/2022 5:15:00 AM -0.02 31.964 0.067 12.1 2.45 14.32
12/27/2022 5:30:00 AM -0.02 31.964 0.068 12.11 2.39 14.31
12/27/2022 5:45:00 AM -0.02 31.964 0.067 12.1 2.39 14.32
12/27/2022 6:00:00 AM -0.02 31.964 0.068 12.1 2.52 14.33
12/27/2022 6:15:00 AM -0.02 31.964 0.067 12.08 2.39 14.32
12/27/2022 6:30:00 AM -0.02 31.964 0.066 12.09 2.42 14.32
12/27/2022 6:45:00 AM -0.02 31.964 0.067 12.11 2.37 14.33
12/27/2022 7:00:00 AM -0.01 31.982 0.069 12.1 2.33 14.27
12/27/2022 7:15:00 AM -0.01 31.982 0.069 12.12 2.29 14.27
12/27/2022 7:30:00 AM -0.01 31.982 0.069 12.1 2.33 14.28
12/27/2022 7:45:00 AM -0.01 31.982 0.069 12.09 2.35 14.27
12/27/2022 8:00:00 AM 0 32 0.07 12.11 2.44 14.26
12/27/2022 8:15:00 AM 0.04 32.072 0.074 12.07 2.26 14.15
12/27/2022 8:30:00 AM 0.04 32.072 0.074 12.06 2.23 14.16
12/27/2022 8:45:00 AM 0.04 32.072 0.073 12.1 2.26 14.2
12/27/2022 9:00:00 AM 0.04 32.072 0.073 12.09 2.21 14.21
12/27/2022 9:15:00 AM 0.03 32.054 0.072 12.06 2.25 14.24
12/27/2022 9:30:00 AM 0.03 32.054 0.072 12.08 2.13 14.25
12/27/2022 9:45:00 AM 0.03 32.054 0.072 12.05 2.25 14.26
12/27/2022 10:00:00 AM 0.02 32.036 0.072 12.08 2.32 14.27
12/27/2022 10:15:00 AM 0.03 32.054 0.073 12.08 2.35 14.27
12/27/2022 10:30:00 AM 0.04 32.072 0.073 12.08 2.54 14.28
12/27/2022 10:45:00 AM 0.04 32.072 0.073 12.08 2.49 14.29
12/27/2022 11:00:00 AM 0.04 32.072 0.072 12.07 2.67 14.31
12/27/2022 11:15:00 AM 0.03 32.054 0.072 12.09 2.57 14.31
12/27/2022 11:30:00 AM 0.03 32.054 0.072 12.07 2.61 14.32
12/27/2022 11:45:00 AM 0.03 32.054 0.072 12.08 2.58 14.33
12/27/2022 12:00:00 PM 0.03 32.054 0.071 12.09 2.71 14.34
12/27/2022 12:15:00 PM 0.04 32.072 0.072 12.08 2.62 14.34
12/27/2022 12:30:00 PM 0.04 32.072 0.073 12.04 2.5 14.32
12/27/2022 12:45:00 PM 0.03 32.054 0.072 12.07 2.46 14.34
12/27/2022 1:00:00 PM 0.03 32.054 0.071 12.08 2.47 14.36
12/27/2022 1:15:00 PM 0.03 32.054 0.071 12.07 2.73 14.35
12/27/2022 1:30:00 PM 0.03 32.054 0.072 12.05 2.49 14.34
12/27/2022 1:45:00 PM 0.03 32.054 0.072 12.1 2.55 14.35
12/27/2022 2:00:00 PM 0.03 32.054 0.072 12.1 2.54 14.34
12/27/2022 2:15:00 PM 0.03 32.054 0.071 12.09 2.5 14.35
12/27/2022 2:30:00 PM 0.03 32.054 0.072 12.1 2.49 14.35
12/27/2022 2:45:00 PM 0.02 32.036 0.071 12.11 2.5 14.36
12/27/2022 3:00:00 PM 0.02 32.036 0.071 12.1 2.41 14.35
12/27/2022 3:15:00 PM 0.02 32.036 0.071 12.1 2.4 14.35
12/27/2022 3:30:00 PM 0.02 32.036 0.071 12.09 2.44 14.34
12/27/2022 3:45:00 PM 0.01 32.018 0.071 12.1 2.51 14.34
12/27/2022 4:00:00 PM 0.01 32.018 0.07 12.11 2.4 14.35
12/27/2022 4:15:00 PM 0.01 32.018 0.071 12.09 2.41 14.33
12/27/2022 4:30:00 PM 0.01 32.018 0.071 12.11 2.41 14.32
12/27/2022 4:45:00 PM 0.01 32.018 0.07 12.12 2.28 14.32
12/27/2022 5:00:00 PM 0.01 32.018 0.07 12.95 2.37 14.31
12/27/2022 5:15:00 PM 0.01 32.018 0.07 12.92 2.31 14.3
12/27/2022 5:30:00 PM 0.01 32.018 0.07 12.91 2.37 14.28
12/27/2022 5:45:00 PM 0.01 32.018 0.07 12.9 2.31 14.27
12/27/2022 6:00:00 PM 0.01 32.018 0.07 12.9 2.4 14.27
12/27/2022 6:15:00 PM 0.01 32.018 0.07 12.89 2.45 14.26
12/27/2022 6:30:00 PM 0.01 32.018 0.07 12.89 2.52 14.26
12/27/2022 6:45:00 PM 0.01 32.018 0.07 12.89 2.31 14.26
12/27/2022 7:00:00 PM 0.01 32.018 0.07 12.89 2.53 14.25
12/27/2022 7:15:00 PM 0.01 32.018 0.07 12.88 2.53 14.25
12/27/2022 7:30:00 PM 0.01 32.018 0.07 12.88 2.36 14.25
12/27/2022 7:45:00 PM 0.01 32.018 0.07 12.88 2.45 14.25
12/27/2022 8:00:00 PM 0.01 32.018 0.07 12.89 2.38 14.23
12/27/2022 8:15:00 PM 0.01 32.018 0.07 12.89 2.36 14.23
12/27/2022 8:30:00 PM 0.01 32.018 0.071 12.9 2.75 14.22
12/27/2022 8:45:00 PM 0.01 32.018 0.07 12.89 2.33 14.22
12/27/2022 9:00:00 PM 0.01 32.018 0.07 12.9 2.36 14.23
12/27/2022 9:15:00 PM 0.01 32.018 0.07 12.9 2.37 14.22
12/27/2022 9:30:00 PM 0.01 32.018 0.07 12.9 2.43 14.21
12/27/2022 9:45:00 PM 0.01 32.018 0.07 12.9 2.35 14.21
12/27/2022 10:00:00 PM 0.01 32.018 0.07 12.9 2.55 14.21
12/27/2022 10:15:00 PM 0.01 32.018 0.07 12.89 2.29 14.21
12/27/2022 10:30:00 PM 0.01 32.018 0.07 12.89 2.32 14.2
12/27/2022 10:45:00 PM 0.01 32.018 0.07 12.93 2.37 14.21
12/27/2022 11:00:00 PM 0.01 32.018 0.07 12.95 2.38 14.21
12/27/2022 11:15:00 PM 0 32 0.07 12.97 2.4 14.21
12/27/2022 11:30:00 PM 0 32 0.07 13.02 2.57 14.22
12/27/2022 11:45:00 PM 0 32 0.069 13.03 2.33 14.22
12/28/2022 12:00:00 AM 0 32 0.069 13.03 2.34 14.22
12/28/2022 12:15:00 AM 0 32 0.069 13.03 2.41 14.22
12/28/2022 12:30:00 AM 0 32 0.069 13.03 2.41 14.22
12/28/2022 12:45:00 AM 0 32 0.069 13.03 2.48 14.22
12/28/2022 1:00:00 AM 0 32 0.069 13.03 2.49 14.21
12/28/2022 1:15:00 AM 0 32 0.069 13.03 2.4 14.21
12/28/2022 1:30:00 AM 0 32 0.069 13.02 2.36 14.2
12/28/2022 1:45:00 AM 0 32 0.069 13.02 2.48 14.21
12/28/2022 2:00:00 AM 0.01 32.018 0.07 13.01 2.36 14.2
12/28/2022 2:15:00 AM 0 32 0.069 13.01 2.39 14.21
12/28/2022 2:30:00 AM 0 32 0.069 13.01 2.39 14.2
12/28/2022 2:45:00 AM 0 32 0.07 13 2.31 14.2
12/28/2022 3:00:00 AM 0 32 0.07 13 2.25 14.2
12/28/2022 3:15:00 AM 0 32 0.07 13 2.32 14.2
12/28/2022 3:30:00 AM 0 32 0.069 13 2.26 14.21
12/28/2022 3:45:00 AM 0 32 0.069 13 2.28 14.22
12/28/2022 4:00:00 AM 0 32 0.07 13 2.29 14.2
12/28/2022 4:15:00 AM 0 32 0.07 12.99 2.23 14.21
12/28/2022 4:30:00 AM -0.01 31.982 0.069 12.99 2.41 14.23
12/28/2022 4:45:00 AM 0 32 0.069 12.98 2.35 14.21
12/28/2022 5:00:00 AM 0 32 0.07 12.99 2.37 14.22
12/28/2022 5:15:00 AM -0.01 31.982 0.07 12.99 2.29 14.23
12/28/2022 5:30:00 AM -0.01 31.982 0.069 13 2.34 14.22
12/28/2022 5:45:00 AM -0.01 31.982 0.069 13.01 2.25 14.24
12/28/2022 6:00:00 AM -0.01 31.982 0.069 13 2.34 14.24
12/28/2022 6:15:00 AM -0.01 31.982 0.069 13.01 2.26 14.25
12/28/2022 6:30:00 AM -0.01 31.982 0.069 13 2.2 14.24
12/28/2022 6:45:00 AM -0.01 31.982 0.069 13.02 2.3 14.25
12/28/2022 7:00:00 AM -0.01 31.982 0.069 13.02 2.21 14.25
12/28/2022 7:15:00 AM -0.01 31.982 0.069 13.01 2.38 14.25
12/28/2022 7:30:00 AM -0.01 31.982 0.069 13 2.17 14.26
12/28/2022 7:45:00 AM -0.02 31.964 0.069 13.01 2.29 14.27
12/28/2022 8:00:00 AM -0.01 31.982 0.069 13 2.29 14.28
12/28/2022 8:15:00 AM -0.01 31.982 0.069 13.01 2.24 14.3
12/28/2022 8:30:00 AM -0.01 31.982 0.069 13.01 2.25 14.31
12/28/2022 8:45:00 AM -0.01 31.982 0.069 13 2.23 14.33
12/28/2022 9:00:00 AM 0 32 0.07 13 2.23 14.34
12/28/2022 9:15:00 AM 0 32 0.069 13.01 2.24 14.36
12/28/2022 9:30:00 AM 0 32 0.069 13.01 2.38 14.37
12/28/2022 9:45:00 AM 0.01 32.018 0.069 13 2.29 14.38
12/28/2022 10:00:00 AM 0.04 32.072 0.07 12.99 2.25 14.37
12/28/2022 10:15:00 AM 0.02 32.036 0.07 13 2.11 14.39
12/28/2022 10:30:00 AM 0.04 32.072 0.07 12.99 2.19 14.38
12/28/2022 10:45:00 AM 0.04 32.072 0.071 12.99 2.14 14.38
12/28/2022 11:00:00 AM 0.05 32.09 0.071 12.99 2.19 14.38
12/28/2022 11:15:00 AM 0.05 32.09 0.073 12.99 2.46 14.35
12/28/2022 11:30:00 AM 0.06 32.108 0.074 12.99 2.18 14.34
12/28/2022 11:45:00 AM 0.05 32.09 0.073 13.01 2.21 14.33
12/28/2022 12:00:00 PM 0.06 32.108 0.073 13.03 2.12 14.34
12/28/2022 12:15:00 PM 0.07 32.126 0.073 13.03 2.3 14.33
12/28/2022 12:30:00 PM 0.07 32.126 0.073 13.53 2.44 14.34
12/28/2022 12:45:00 PM 0.08 32.144 0.073 13.28 2.3 14.34
12/28/2022 1:00:00 PM 0.07 32.126 0.072 13.25 2.33 14.33
12/28/2022 1:15:00 PM 0.08 32.144 0.072 13.22 2.41 14.33
12/28/2022 1:30:00 PM 0.07 32.126 0.072 13.21 2.68 14.34
12/28/2022 1:45:00 PM 0.06 32.108 0.071 13.21 2.43 14.34
12/28/2022 2:00:00 PM 0.05 32.09 0.071 13.2 2.53 14.34
12/28/2022 2:15:00 PM 0.04 32.072 0.071 13.2 2.67 14.34
12/28/2022 2:30:00 PM 0.04 32.072 0.071 13.2 2.64 14.34
12/28/2022 2:45:00 PM 0.03 32.054 0.07 13.2 3.44 14.34
12/28/2022 3:00:00 PM 0.02 32.036 0.071 13.2 2.66 14.35
12/28/2022 3:15:00 PM 0.03 32.054 0.071 13.19 2.99 14.33
12/28/2022 3:30:00 PM 0.02 32.036 0.07 13.19 3.07 14.33
12/28/2022 3:45:00 PM 0.02 32.036 0.07 13.19 2.74 14.33
12/28/2022 4:00:00 PM 0.02 32.036 0.07 13.2 2.82 14.33
12/28/2022 4:15:00 PM 0.01 32.018 0.07 13.19 2.84 14.32
12/28/2022 4:30:00 PM 0.01 32.018 0.07 13.19 2.78 14.3
12/28/2022 4:45:00 PM 0.01 32.018 0.069 13.19 3.02 14.29
12/28/2022 5:00:00 PM 0.01 32.018 0.069 13.19 2.7 14.28
12/28/2022 5:15:00 PM 0.01 32.018 0.07 13.19 2.7 14.25
12/28/2022 5:30:00 PM 0.01 32.018 0.07 13.18 2.78 14.24
12/28/2022 5:45:00 PM 0.01 32.018 0.069 13.19 2.83 14.23
12/28/2022 6:00:00 PM 0.01 32.018 0.07 13.19 2.78 14.22
12/28/2022 6:15:00 PM 0.01 32.018 0.07 13.19 2.62 14.21
12/28/2022 6:30:00 PM 0.01 32.018 0.07 13.19 2.78 14.21
12/28/2022 6:45:00 PM 0.01 32.018 0.069 13.19 2.6 14.2
12/28/2022 7:00:00 PM 0.01 32.018 0.07 13.19 2.51 14.19
12/28/2022 7:15:00 PM 0.01 32.018 0.07 13.19 2.59 14.19
12/28/2022 7:30:00 PM 0.01 32.018 0.07 13.19 2.71 14.18
12/28/2022 7:45:00 PM 0.01 32.018 0.07 13.19 2.83 14.19
12/28/2022 8:00:00 PM 0.01 32.018 0.07 13.19 2.45 14.19
12/28/2022 8:15:00 PM 0.01 32.018 0.069 13.19 2.66 14.18
12/28/2022 8:30:00 PM 0.01 32.018 0.07 13.19 2.52 14.2
12/28/2022 8:45:00 PM 0.01 32.018 0.07 13.19 2.57 14.19
12/28/2022 9:00:00 PM 0.01 32.018 0.07 13.19 2.42 14.19
12/28/2022 9:15:00 PM 0.01 32.018 0.07 13.19 2.54 14.19
12/28/2022 9:30:00 PM 0.01 32.018 0.07 13.19 2.48 14.2
12/28/2022 9:45:00 PM 0 32 0.07 13.19 2.43 14.2
12/28/2022 10:00:00 PM 0 32 0.07 13.19 2.48 14.2
12/28/2022 10:15:00 PM 0 32 0.069 13.19 2.54 14.21
12/28/2022 10:30:00 PM 0 32 0.07 13.19 2.94 14.21
12/28/2022 10:45:00 PM 0 32 0.07 13.2 2.38 14.21
12/28/2022 11:00:00 PM 0 32 0.07 13.2 2.35 14.22
12/28/2022 11:15:00 PM 0 32 0.07 13.2 2.55 14.22
12/28/2022 11:30:00 PM 0 32 0.07 13.21 2.37 14.22
12/28/2022 11:45:00 PM 0 32 0.07 13.22 2.46 14.22
12/29/2022 12:00:00 AM 0 32 0.07 13.22 2.49 14.23
12/29/2022 12:15:00 AM 0 32 0.07 13.21 2.36 14.22
12/29/2022 12:30:00 AM 0 32 0.07 13.21 2.4 14.23
12/29/2022 12:45:00 AM 0 32 0.07 13.21 2.38 14.23
12/29/2022 1:00:00 AM 0 32 0.07 13.21 2.47 14.23
12/29/2022 1:15:00 AM 0 32 0.07 13.22 2.33 14.24
12/29/2022 1:30:00 AM 0 32 0.07 13.21 2.32 14.25
12/29/2022 1:45:00 AM 0 32 0.071 13.21 2.59 14.25
12/29/2022 2:00:00 AM -0.01 31.982 0.07 13.21 2.29 14.26
12/29/2022 2:15:00 AM 0 32 0.07 13.21 2.39 14.26
12/29/2022 2:30:00 AM -0.01 31.982 0.07 13.21 2.28 14.26
12/29/2022 2:45:00 AM -0.01 31.982 0.07 13.21 2.35 14.27
12/29/2022 3:00:00 AM -0.01 31.982 0.07 13.22 2.24 14.27
12/29/2022 3:15:00 AM -0.01 31.982 0.07 13.23 2.28 14.28
12/29/2022 3:30:00 AM -0.01 31.982 0.071 13.24 2.31 14.27
12/29/2022 3:45:00 AM -0.01 31.982 0.071 13.26 2.31 14.27
12/29/2022 4:00:00 AM -0.01 31.982 0.07 13.29 2.29 14.27
12/29/2022 4:15:00 AM 0 32 0.071 13.29 2.3 14.27
12/29/2022 4:30:00 AM -0.01 31.982 0.071 13.29 2.25 14.28
12/29/2022 4:45:00 AM -0.01 31.982 0.071 13.29 2.38 14.29
12/29/2022 5:00:00 AM 0 32 0.072 13.29 2.2 14.27
12/29/2022 5:15:00 AM -0.01 31.982 0.072 13.29 2.2 14.28
12/29/2022 5:30:00 AM -0.01 31.982 0.072 13.3 2.22 14.28
12/29/2022 5:45:00 AM -0.01 31.982 0.072 13.3 2.2 14.29
12/29/2022 6:00:00 AM 0 32 0.072 13.3 2.16 14.28
12/29/2022 6:15:00 AM -0.01 31.982 0.072 13.29 2.21 14.29
12/29/2022 6:30:00 AM 0 32 0.072 13.3 2.2 14.29
12/29/2022 6:45:00 AM 0 32 0.073 13.3 2.37 14.29
12/29/2022 7:00:00 AM 0 32 0.072 13.3 2.12 14.29
12/29/2022 7:15:00 AM 0 32 0.072 13.3 2.15 14.29
12/29/2022 7:30:00 AM 0 32 0.072 13.3 2.21 14.29
12/29/2022 7:45:00 AM 0 32 0.073 13.3 2.13 14.29
12/29/2022 8:00:00 AM 0 32 0.073 13.3 2.13 14.31
12/29/2022 8:15:00 AM 0 32 0.072 13.3 2.12 14.32
12/29/2022 8:30:00 AM 0 32 0.073 13.31 2.11 14.33
12/29/2022 8:45:00 AM 0 32 0.071 13.31 2.12 14.35
12/29/2022 9:00:00 AM 0.01 32.018 0.073 13.31 2.05 14.37
12/29/2022 9:15:00 AM 0.01 32.018 0.073 13.3 2.1 14.38
12/29/2022 9:30:00 AM 0.02 32.036 0.072 13.3 2.09 14.39
12/29/2022 9:45:00 AM 0.03 32.054 0.073 13.3 2.1 14.4
12/29/2022 10:00:00 AM 0.03 32.054 0.073 13.3 2.11 14.44
12/29/2022 10:15:00 AM 0.04 32.072 0.073 13.29 2.06 14.43
12/29/2022 10:30:00 AM 0.04 32.072 0.072 13.3 2.17 14.44
12/29/2022 10:45:00 AM 0.04 32.072 0.072 13.3 2.28 14.47
12/29/2022 11:00:00 AM 0.05 32.09 0.072 13.3 2.02 14.48
12/29/2022 11:15:00 AM 0.05 32.09 0.072 13.3 2.24 14.48
12/29/2022 11:30:00 AM 0.07 32.126 0.072 13.3 2.14 14.49
12/29/2022 11:45:00 AM 0.1 32.18 0.072 13.29 2.2 14.49
12/29/2022 12:00:00 PM 0.1 32.18 0.073 13.29 2.22 14.49
12/29/2022 12:15:00 PM 0.09 32.162 0.073 13.29 2.14 14.48
12/29/2022 12:30:00 PM 0.09 32.162 0.074 13.29 2.19 14.48
12/29/2022 12:45:00 PM 0.07 32.126 0.073 13.3 2.22 14.48
12/29/2022 1:00:00 PM 0.07 32.126 0.073 13.3 2.36 14.48
12/29/2022 1:15:00 PM 0.05 32.09 0.071 13.3 2.28 14.48
12/29/2022 1:30:00 PM 0.06 32.108 0.071 13.29 2.42 14.47
12/29/2022 1:45:00 PM 0.07 32.126 0.07 13.3 2.54 14.46
12/29/2022 2:00:00 PM 0.06 32.108 0.07 13.3 2.61 14.45
12/29/2022 2:15:00 PM 0.05 32.09 0.07 13.3 2.83 14.45
12/29/2022 2:30:00 PM 0.04 32.072 0.07 13.3 3.07 14.43
12/29/2022 2:45:00 PM 0.03 32.054 0.069 13.3 2.7 14.43
12/29/2022 3:00:00 PM 0.03 32.054 0.069 13.3 2.69 14.43
12/29/2022 3:15:00 PM 0.03 32.054 0.069 13.3 2.64 14.43
12/29/2022 3:30:00 PM 0.02 32.036 0.069 13.31 3.27 14.42
12/29/2022 3:45:00 PM 0.01 32.018 0.068 13.31 2.99 14.41
12/29/2022 4:00:00 PM 0.02 32.036 0.069 13.31 3.35 14.39
12/29/2022 4:15:00 PM 0.02 32.036 0.069 13.31 3.13 14.37
12/29/2022 4:30:00 PM 0.01 32.018 0.069 13.31 3.44 14.35
12/29/2022 4:45:00 PM 0.02 32.036 0.069 13.31 2.93 14.32
12/29/2022 5:00:00 PM 0.02 32.036 0.069 13.3 2.98 14.29
12/29/2022 5:15:00 PM 0 32 0.069 13.31 4.73 14.27
12/29/2022 5:30:00 PM 0.01 32.018 0.069 13.3 3.25 14.24
12/29/2022 5:45:00 PM 0.01 32.018 0.069 13.3 3.21 14.22
12/29/2022 6:00:00 PM 0.02 32.036 0.069 13.3 3.3 14.21
12/29/2022 6:15:00 PM 0.02 32.036 0.069 13.3 3.47 14.2
12/29/2022 6:30:00 PM 0.02 32.036 0.069 13.3 3.19 14.18
12/29/2022 6:45:00 PM 0.02 32.036 0.069 13.29 3.16 14.18
12/29/2022 7:00:00 PM 0.02 32.036 0.069 13.29 3.53 14.16
12/29/2022 7:15:00 PM 0.03 32.054 0.07 13.29 3.26 14.15
12/29/2022 7:30:00 PM 0.02 32.036 0.07 13.28 3.17 14.15
12/29/2022 7:45:00 PM 0.03 32.054 0.07 13.27 3.11 14.14
12/29/2022 8:00:00 PM 0.03 32.054 0.07 13.27 3.06 14.13
12/29/2022 8:15:00 PM 0.03 32.054 0.07 13.27 3.17 14.13
12/29/2022 8:30:00 PM 0.03 32.054 0.071 13.27 3.28 14.12
12/29/2022 8:45:00 PM 0.03 32.054 0.07 13.26 3.73 14.12
12/29/2022 9:00:00 PM 0.03 32.054 0.07 13.26 3.21 14.12
12/29/2022 9:15:00 PM 0.03 32.054 0.07 13.26 3.3 14.12
12/29/2022 9:30:00 PM 0.03 32.054 0.07 13.26 3.32 14.12
12/29/2022 9:45:00 PM 0.02 32.036 0.07 13.26 3.8 14.11
12/29/2022 10:00:00 PM 0.03 32.054 0.07 13.26 3.43 14.12
12/29/2022 10:15:00 PM 0.03 32.054 0.07 13.26 3.48 14.12
12/29/2022 10:30:00 PM 0.03 32.054 0.071 13.26 3.56 14.12
12/29/2022 10:45:00 PM 0.03 32.054 0.071 13.26 3.29 14.12
12/29/2022 11:00:00 PM 0.04 32.072 0.071 13.26 3.46 14.11
12/29/2022 11:15:00 PM 0.04 32.072 0.071 13.27 3.66 14.12
12/29/2022 11:30:00 PM 0.03 32.054 0.071 13.27 3.95 14.11
12/29/2022 11:45:00 PM 0.03 32.054 0.071 13.27 3.88 14.11
12/30/2022 12:00:00 AM 0.04 32.072 0.071 13.27 4.08 14.11
12/30/2022 12:15:00 AM 0.03 32.054 0.071 13.27 3.89 14.12
12/30/2022 12:30:00 AM 0.03 32.054 0.07 13.27 3.93 14.12
12/30/2022 12:45:00 AM 0.02 32.036 0.07 13.27 4.48 14.12
12/30/2022 1:00:00 AM 0.03 32.054 0.071 13.27 4.3 14.12
12/30/2022 1:15:00 AM 0.03 32.054 0.07 13.27 4.07 14.12
12/30/2022 1:30:00 AM 0.03 32.054 0.07 13.27 4.25 14.12
12/30/2022 1:45:00 AM 0.03 32.054 0.07 13.27 4.14 14.12
12/30/2022 2:00:00 AM 0.03 32.054 0.07 13.27 4.26 14.12
12/30/2022 2:15:00 AM 0.03 32.054 0.07 13.27 4.42 14.12
12/30/2022 2:30:00 AM 0.03 32.054 0.07 13.27 4.1 14.11
12/30/2022 2:45:00 AM 0.03 32.054 0.07 13.27 4.05 14.11
12/30/2022 3:00:00 AM 0.02 32.036 0.07 13.28 4.75 14.12
12/30/2022 3:15:00 AM 0.02 32.036 0.07 13.28 4.92 14.11
12/30/2022 3:30:00 AM 0.03 32.054 0.07 13.28 5.09 14.12
12/30/2022 3:45:00 AM 0.04 32.072 0.07 13.28 4.94 14.12
12/30/2022 4:00:00 AM 0.03 32.054 0.07 13.28 5.19 14.12
12/30/2022 4:15:00 AM 0.04 32.072 0.07 13.28 4.51 14.11
12/30/2022 4:30:00 AM 0.05 32.09 0.07 13.28 8.96 14.11
12/30/2022 4:45:00 AM 0.04 32.072 0.07 13.27 5.3 14.11
12/30/2022 5:00:00 AM 0.04 32.072 0.07 13.27 6.69 14.11
12/30/2022 5:15:00 AM 0.05 32.09 0.071 13.28 5.28 14.12
12/30/2022 5:30:00 AM 0.06 32.108 0.07 13.3 4.53 14.11
12/30/2022 5:45:00 AM 0.08 32.144 0.07 13.29 4.72 14.11
12/30/2022 6:00:00 AM 0.09 32.162 0.071 13.3 4.29 14.11
12/30/2022 6:15:00 AM 0.08 32.144 0.071 13.29 4.31 14.11
12/30/2022 6:30:00 AM 0.1 32.18 0.071 13.3 4.37 14.1
12/30/2022 6:45:00 AM 0.11 32.198 0.071 13.3 4.09 14.1
12/30/2022 7:00:00 AM 0.12 32.216 0.071 13.3 4.43 14.1
12/30/2022 7:15:00 AM 0.12 32.216 0.071 13.3 3.88 14.1
12/30/2022 7:30:00 AM 0.13 32.234 0.071 13.3 4.26 14.1
12/30/2022 7:45:00 AM 0.14 32.252 0.071 13.3 3.82 14.1
12/30/2022 8:00:00 AM 0.15 32.27 0.071 13.3 4.01 14.1
12/30/2022 8:15:00 AM 0.15 32.27 0.071 13.31 5.41 14.1
12/30/2022 8:30:00 AM 0.16 32.288 0.071 13.31 3.8 14.1
12/30/2022 8:45:00 AM 0.17 32.306 0.071 13.32 3.95 14.11
12/30/2022 9:00:00 AM 0.19 32.342 0.071 13.33 4.66 14.14
12/30/2022 9:15:00 AM 0.21 32.378 0.071 13.34 3.73 14.15
12/30/2022 9:30:00 AM 0.24 32.432 0.071 13.32 3.42 14.17
12/30/2022 9:45:00 AM 0.27 32.486 0.072 13.32 3.3 14.18
12/30/2022 10:00:00 AM 0.29 32.522 0.072 13.31 3.21 14.19
12/30/2022 10:15:00 AM 0.31 32.558 0.072 13.31 3.32 14.2
12/30/2022 10:30:00 AM 0.36 32.648 0.072 13.29 3.25 14.21
12/30/2022 10:45:00 AM 0.41 32.738 0.072 13.28 2.99 14.22
12/30/2022 11:00:00 AM 0.42 32.756 0.073 13.27 3.24 14.2
12/30/2022 11:15:00 AM 0.48 32.864 0.072 13.26 3.08 14.23
12/30/2022 11:30:00 AM 0.52 32.936 0.072 13.26 3.14 14.23
12/30/2022 11:45:00 AM 0.56 33.008 0.072 13.26 2.99 14.23
12/30/2022 12:00:00 PM 0.59 33.062 0.072 13.25 3.18 14.21
12/30/2022 12:15:00 PM 0.55 32.99 0.073 13.26 3.62 14.19
12/30/2022 12:30:00 PM 0.6 33.08 0.073 13.25 3.38 14.18
12/30/2022 12:45:00 PM 0.61 33.098 0.074 13.24 3.36 14.17
12/30/2022 1:00:00 PM 0.65 33.17 0.074 13.23 3.55 14.16
12/30/2022 1:15:00 PM 0.69 33.242 0.074 13.22 3.24 14.16
12/30/2022 1:30:00 PM 0.72 33.296 0.074 13.22 3.31 14.14
12/30/2022 1:45:00 PM 0.77 33.386 0.075 13.22 3.34 14.14
12/30/2022 2:00:00 PM 0.78 33.404 0.075 13.22 3.71 14.12
12/30/2022 2:15:00 PM 0.81 33.458 0.075 13.21 3.56 14.11
12/30/2022 2:30:00 PM 0.86 33.548 0.076 13.21 3.31 14.1
12/30/2022 2:45:00 PM 0.89 33.602 0.076 13.13 3.27 14.08
12/30/2022 3:00:00 PM 0.87 33.566 0.077 13.13 3.47 14.05
12/30/2022 3:15:00 PM 0.89 33.602 0.077 13.13 3.55 14.04
12/30/2022 3:30:00 PM 0.87 33.566 0.078 13.13 3.52 14.01
12/30/2022 3:45:00 PM 0.88 33.584 0.078 13.14 3.61 14
12/30/2022 4:00:00 PM 0.88 33.584 0.079 13.14 3.65 13.99
12/30/2022 4:15:00 PM 0.89 33.602 0.079 13.14 3.66 13.98
12/30/2022 4:30:00 PM 0.91 33.638 0.08 13.14 3.57 13.97
12/30/2022 4:45:00 PM 0.89 33.602 0.081 13.15 3.72 13.95
12/30/2022 5:00:00 PM 0.88 33.584 0.081 13.15 3.67 13.93
12/30/2022 5:15:00 PM 0.86 33.548 0.082 13.15 3.95 13.92
12/30/2022 5:30:00 PM 0.85 33.53 0.082 13.15 4.06 13.91
12/30/2022 5:45:00 PM 0.81 33.458 0.083 13.16 3.98 13.9
12/30/2022 6:00:00 PM 0.77 33.386 0.083 13.17 3.99 13.9
12/30/2022 6:15:00 PM 0.72 33.296 0.084 13.18 4.18 13.9
12/30/2022 6:30:00 PM 0.66 33.188 0.084 13.19 4.22 13.91
12/30/2022 6:45:00 PM 0.59 33.062 0.085 13.2 4.67 13.92
12/30/2022 7:00:00 PM 0.52 32.936 0.085 13.21 5.16 13.94
12/30/2022 7:15:00 PM 0.45 32.81 0.086 13.22 6.4 13.95
12/30/2022 7:30:00 PM 0.4 32.72 0.086 13.39 5.89 13.97
12/30/2022 7:45:00 PM 0.35 32.63 0.086 13.43 7.25 14
12/30/2022 8:00:00 PM 0.31 32.558 0.086 13.44 6.68 14.03
12/30/2022 8:15:00 PM 0.27 32.486 0.087 13.45 8.26 14.05
12/30/2022 8:30:00 PM 0.23 32.414 0.087 13.46 8.22 14.07
12/30/2022 8:45:00 PM 0.21 32.378 0.088 13.49 8.42 14.1
12/30/2022 9:00:00 PM 0.18 32.324 0.088 13.49 8.59 14.12
12/30/2022 9:15:00 PM 0.16 32.288 0.089 13.5 8.58 14.13
12/30/2022 9:30:00 PM 0.15 32.27 0.089 13.5 9.07 14.15
12/30/2022 9:45:00 PM 0.14 32.252 0.089 13.5 8.95 14.16
12/30/2022 10:00:00 PM 0.12 32.216 0.09 13.5 9.66 14.17
12/30/2022 10:15:00 PM 0.12 32.216 0.09 13.5 10.92 14.18
12/30/2022 10:30:00 PM 0.12 32.216 0.091 13.5 10.2 14.18
12/30/2022 10:45:00 PM 0.12 32.216 0.091 13.5 10.38 14.19
12/30/2022 11:00:00 PM 0.12 32.216 0.092 13.5 10.3 14.19
12/30/2022 11:15:00 PM 0.13 32.234 0.093 13.5 10.74 14.19
12/30/2022 11:30:00 PM 0.14 32.252 0.094 13.5 10.74 14.19
12/30/2022 11:45:00 PM 0.15 32.27 0.096 13.51 11.27 14.18
12/31/2022 12:00:00 AM 0.16 32.288 0.097 13.52 11.16 14.18
12/31/2022 12:15:00 AM 0.17 32.306 0.097 13.51 13.13 14.18
12/31/2022 12:30:00 AM 0.18 32.324 0.098 13.51 15.28 14.17
12/31/2022 12:45:00 AM 0.19 32.342 0.098 13.51 12.91 14.16
12/31/2022 1:00:00 AM 0.21 32.378 0.098 13.51 16.24 14.16
12/31/2022 1:15:00 AM 0.22 32.396 0.098 13.51 17.63 14.15
12/31/2022 1:30:00 AM 0.24 32.432 0.098 13.51 17.79 14.14
12/31/2022 1:45:00 AM 0.25 32.45 0.098 13.51 18.55 14.12
12/31/2022 2:00:00 AM 0.27 32.486 0.097 13.51 19.03 14.12
12/31/2022 2:15:00 AM 0.28 32.504 0.097 13.51 18.27 14.11
12/31/2022 2:30:00 AM 0.3 32.54 0.097 13.51 18.47 14.1
12/31/2022 2:45:00 AM 0.32 32.576 0.097 13.5 18.85 14.09
12/31/2022 3:00:00 AM 0.33 32.594 0.097 13.5 19.22 14.08
12/31/2022 3:15:00 AM 0.35 32.63 0.097 13.5 19.91 14.07
12/31/2022 3:30:00 AM 0.37 32.666 0.097 13.5 19.46 14.06
12/31/2022 3:45:00 AM 0.38 32.684 0.097 13.5 18.24 14.05
12/31/2022 4:00:00 AM 0.4 32.72 0.097 13.5 18.01 14.05
12/31/2022 4:15:00 AM 0.42 32.756 0.096 13.5 17.48 14.04
12/31/2022 4:30:00 AM 0.44 32.792 0.097 13.49 17.66 14.03
12/31/2022 4:45:00 AM 0.45 32.81 0.097 13.49 17.58 14.03
12/31/2022 5:00:00 AM 0.47 32.846 0.097 13.49 17.48 14.02
12/31/2022 5:15:00 AM 0.49 32.882 0.097 13.48 15.71 14.01
12/31/2022 5:30:00 AM 0.5 32.9 0.097 13.48 15.97 14
12/31/2022 5:45:00 AM 0.52 32.936 0.097 13.41 16.47 13.99
12/31/2022 6:00:00 AM 0.54 32.972 0.097 13.4 13.97 13.99
12/31/2022 6:15:00 AM 0.56 33.008 0.097 13.4 14.52 13.97
12/31/2022 6:30:00 AM 0.59 33.062 0.097 13.4 14.65 13.97
12/31/2022 6:45:00 AM 0.61 33.098 0.097 13.34 13.61 13.96
12/31/2022 7:00:00 AM 0.63 33.134 0.097 13.34 13.62 13.95
12/31/2022 7:15:00 AM 0.65 33.17 0.097 13.34 12.04 13.94
12/31/2022 7:30:00 AM 0.68 33.224 0.098 13.34 12.1 13.93
12/31/2022 7:45:00 AM 0.7 33.26 0.098 13.33 12.19 13.93
12/31/2022 8:00:00 AM 0.73 33.314 0.098 13.33 11.13 13.92
12/31/2022 8:15:00 AM 0.75 33.35 0.098 13.33 10.54 13.92
12/31/2022 8:30:00 AM 0.78 33.404 0.098 13.32 9.91 13.92
12/31/2022 8:45:00 AM 0.81 33.458 0.098 13.32 9.71 13.92
12/31/2022 9:00:00 AM 0.84 33.512 0.098 13.31 9.57 13.92
12/31/2022 9:15:00 AM 0.88 33.584 0.098 13.31 9.11 13.91
12/31/2022 9:30:00 AM 0.93 33.674 0.098 13.3 8.94 13.93
12/31/2022 9:45:00 AM 0.98 33.764 0.098 13.3 8.46 13.93
12/31/2022 10:00:00 AM 1.03 33.854 0.098 13.29 8.23 13.93
12/31/2022 10:15:00 AM 1.09 33.962 0.098 13.28 7.75 13.93
12/31/2022 10:30:00 AM 1.15 34.07 0.098 13.27 7.84 13.92
12/31/2022 10:45:00 AM 1.22 34.196 0.097 13.21 7.65 13.91
12/31/2022 11:00:00 AM 1.29 34.322 0.097 13.21 7.43 13.9
12/31/2022 11:15:00 AM 1.36 34.448 0.097 13.2 7.02 13.89
12/31/2022 11:30:00 AM 1.42 34.556 0.096 13.18 6.98 13.88
12/31/2022 11:45:00 AM 1.49 34.682 0.095 13.16 6.74 13.86
12/31/2022 12:00:00 PM 1.54 34.772 0.095 13.16 6.6 13.83
12/31/2022 12:15:00 PM 1.58 34.844 0.094 13.16 6.48 13.8
12/31/2022 12:30:00 PM 1.63 34.934 0.093 13.16 6.6 13.77
12/31/2022 12:45:00 PM 1.67 35.006 0.093 13.16 6.18 13.75
12/31/2022 1:00:00 PM 1.71 35.078 0.092 13.15 6.11 13.72
12/31/2022 1:15:00 PM 1.76 35.168 0.091 13.15 6.14 13.7
12/31/2022 1:30:00 PM 1.8 35.24 0.09 13.14 5.93 13.68
12/31/2022 1:45:00 PM 1.84 35.312 0.09 13.14 5.76 13.66
12/31/2022 2:00:00 PM 1.88 35.384 0.089 13.13 6.06 13.63
12/31/2022 2:15:00 PM 1.92 35.456 0.088 13.13 5.82 13.6
12/31/2022 2:30:00 PM 1.95 35.51 0.088 13.13 5.69 13.57
12/31/2022 2:45:00 PM 1.99 35.582 0.087 13.12 5.9 13.54
12/31/2022 3:00:00 PM 2.04 35.672 0.086 13.12 5.92 13.52
12/31/2022 3:15:00 PM 2.07 35.726 0.086 13.12 5.51 13.49
12/31/2022 3:30:00 PM 2.11 35.798 0.086 13.11 5.78 13.46
12/31/2022 3:45:00 PM 2.15 35.87 0.085 13.11 5.63 13.43
12/31/2022 4:00:00 PM 2.17 35.906 0.085 13.11 5.4 13.4
12/31/2022 4:15:00 PM 2.21 35.978 0.085 13.11 5.76 13.37
12/31/2022 4:30:00 PM 2.24 36.032 0.085 13.11 5.48 13.34
12/31/2022 4:45:00 PM 2.27 36.086 0.084 13.1 5.48 13.32
12/31/2022 5:00:00 PM 2.28 36.104 0.084 13.1 5.54 13.29
12/31/2022 5:15:00 PM 2.29 36.122 0.084 13.1 5.91 13.27
12/31/2022 5:30:00 PM 2.31 36.158 0.084 13.09 5.7 13.25
12/31/2022 5:45:00 PM 2.33 36.194 0.083 13.09 6.04 13.22
12/31/2022 6:00:00 PM 2.35 36.23 0.083 13.09 6.11 13.21
12/31/2022 6:15:00 PM 2.37 36.266 0.082 13.09 6.54 13.2
12/31/2022 6:30:00 PM 2.37 36.266 0.082 13.08 6.3 13.19
12/31/2022 6:45:00 PM 2.38 36.284 0.081 13.08 6.62 13.18
12/31/2022 7:00:00 PM 2.38 36.284 0.08 13.08 6.13 13.18
12/31/2022 7:15:00 PM 2.38 36.284 0.08 13.08 6.64 13.17
12/31/2022 7:30:00 PM 2.36 36.248 0.079 13.09 7.44 13.17
12/31/2022 7:45:00 PM 2.34 36.212 0.079 13.09 7.36 13.16
12/31/2022 8:00:00 PM 2.29 36.122 0.078 13.09 10.01 13.15
12/31/2022 8:15:00 PM 2.25 36.05 0.077 13.1 10.57 13.16
12/31/2022 8:30:00 PM 2.23 36.014 0.076 13.1 12.68 13.16
12/31/2022 8:45:00 PM 2.24 36.032 0.076 13.1 13.65 13.16
12/31/2022 9:00:00 PM 2.25 36.05 0.076 13.1 14.36 13.16
12/31/2022 9:15:00 PM 2.27 36.086 0.075 13.09 14.03 13.17
12/31/2022 9:30:00 PM 2.3 36.14 0.075 13.09 14.24 13.17
12/31/2022 9:45:00 PM 2.34 36.212 0.075 13.08 14.61 13.17
12/31/2022 10:00:00 PM 2.37 36.266 0.075 13.08 15.12 13.16
12/31/2022 10:15:00 PM 2.4 36.32 0.075 13.07 15.43 13.16
12/31/2022 10:30:00 PM 2.42 36.356 0.074 13.07 14.59 13.16
12/31/2022 10:45:00 PM 2.44 36.392 0.074 13.07 14.22 13.17
12/31/2022 11:00:00 PM 2.44 36.392 0.074 13.07 14.52 13.17
12/31/2022 11:15:00 PM 2.45 36.41 0.074 13.06 15.3 13.17
12/31/2022 11:30:00 PM 2.45 36.41 0.074 13.06 14.92 13.18
12/31/2022 11:45:00 PM 2.45 36.41 0.074 13.06 15.22 13.19
1/1/2023 12:00:00 AM 2.45 36.41 0.075 13.06 15.16 13.19
1/1/2023 12:15:00 AM 2.45 36.41 0.075 13.07 16.15 13.2
1/1/2023 12:30:00 AM 2.44 36.392 0.076 13.06 19.17 13.2
1/1/2023 12:45:00 AM 2.43 36.374 0.076 13.06 18.9 13.21
1/1/2023 1:00:00 AM 2.43 36.374 0.077 13.07 20.75 13.21
1/1/2023 1:15:00 AM 2.42 36.356 0.077 13.07 21.39 13.22
1/1/2023 1:30:00 AM 2.42 36.356 0.077 13.08 21.33 13.22
1/1/2023 1:45:00 AM 2.43 36.374 0.077 13.07 25.6 13.21
1/1/2023 2:00:00 AM 2.44 36.392 0.077 13.08 30.66 13.21
1/1/2023 2:15:00 AM 2.46 36.428 0.077 13.08 25.26 13.2
1/1/2023 2:30:00 AM 2.47 36.446 0.077 13.07 29.82 13.2
1/1/2023 2:45:00 AM 2.5 36.5 0.077 13.07 25.58 13.18
1/1/2023 3:00:00 AM 2.52 36.536 0.077 13.07 28.55 13.18
1/1/2023 3:15:00 AM 2.55 36.59 0.077 13.07 27.63 13.17
1/1/2023 3:30:00 AM 2.57 36.626 0.077 13.06 28.59 13.16
1/1/2023 3:45:00 AM 2.59 36.662 0.078 13.06 26.61 13.16
1/1/2023 4:00:00 AM 2.6 36.68 0.078 13.06 25.63 13.16
1/1/2023 4:15:00 AM 2.59 36.662 0.078 13.06 25.25 13.16
1/1/2023 4:30:00 AM 2.61 36.698 0.078 13.07 22.63 13.16
1/1/2023 4:45:00 AM 2.61 36.698 0.078 13.06 23.46 13.16
1/1/2023 5:00:00 AM 2.61 36.698 0.077 13.06 26.3 13.17
1/1/2023 5:15:00 AM 2.63 36.734 0.077 13.06 23.9 13.16
1/1/2023 5:30:00 AM 2.64 36.752 0.077 13.06 23.39 13.16
1/1/2023 5:45:00 AM 2.66 36.788 0.077 13.06 26.91 13.16
1/1/2023 6:00:00 AM 2.69 36.842 0.077 13.06 23.26 13.15
1/1/2023 6:15:00 AM 2.71 36.878 0.077 13.05 23.03 13.14
1/1/2023 6:30:00 AM 2.74 36.932 0.077 13.05 22.72 13.13
1/1/2023 6:45:00 AM 2.76 36.968 0.077 13.05 23.26 13.12
1/1/2023 7:00:00 AM 2.79 37.022 0.077 13.05 23.67 13.11
1/1/2023 7:15:00 AM 2.81 37.058 0.077 13.04 22.49 13.1
1/1/2023 7:30:00 AM 2.84 37.112 0.077 13.04 20.41 13.1
1/1/2023 7:45:00 AM 2.87 37.166 0.077 13.04 21.73 13.09
1/1/2023 8:00:00 AM 2.91 37.238 0.077 13.03 19.59 13.09
1/1/2023 8:15:00 AM 2.94 37.292 0.077 13.03 19.97 13.08
1/1/2023 8:30:00 AM 2.97 37.346 0.077 13.03 18.76 13.07
1/1/2023 8:45:00 AM 3 37.4 0.077 13.03 17.61 13.07
1/1/2023 9:00:00 AM 3.04 37.472 0.076 13.02 16.51 13.07
1/1/2023 9:15:00 AM 3.08 37.544 0.076 13.02 16.86 13.07
1/1/2023 9:30:00 AM 3.12 37.616 0.076 13.02 16.48 13.07
1/1/2023 9:45:00 AM 3.17 37.706 0.076 13.01 16.01 13.07
1/1/2023 10:00:00 AM 3.22 37.796 0.075 13 16.06 13.07
1/1/2023 10:15:00 AM 3.28 37.904 0.075 13 14.96 13.07
1/1/2023 10:30:00 AM 3.34 38.012 0.074 12.99 13.83 13.06
1/1/2023 10:45:00 AM 3.4 38.12 0.074 12.99 14 13.06
1/1/2023 11:00:00 AM 3.46 38.228 0.074 12.98 14.69 13.06
1/1/2023 11:15:00 AM 3.52 38.336 0.073 12.98 14.15 13.06
1/1/2023 11:30:00 AM 3.59 38.462 0.073 12.97 13.75 13.04
1/1/2023 11:45:00 AM 3.66 38.588 0.073 12.97 13.13 13.03
1/1/2023 12:00:00 PM 3.71 38.678 0.072 12.96 12.91 13.02
1/1/2023 12:15:00 PM 3.73 38.714 0.072 12.96 12.39 13.01
1/1/2023 12:30:00 PM 3.78 38.804 0.071 12.96 12.75 13
1/1/2023 12:45:00 PM 3.83 38.894 0.071 12.95 12.48 12.97
1/1/2023 1:00:00 PM 3.89 39.002 0.07 12.95 12.45 12.96
1/1/2023 1:15:00 PM 3.95 39.11 0.07 12.94 12.57 12.94
1/1/2023 1:30:00 PM 3.99 39.182 0.07 12.95 12.08 12.94
1/1/2023 1:45:00 PM 4.02 39.236 0.069 12.95 12.02 12.92
1/1/2023 2:00:00 PM 4.05 39.29 0.069 12.96 12.05 12.9
1/1/2023 2:15:00 PM 4.1 39.38 0.068 12.97 11.7 12.89
1/1/2023 2:30:00 PM 4.15 39.47 0.068 12.99 11.94 12.87
1/1/2023 2:45:00 PM 4.2 39.56 0.067 13 13.15 12.85
1/1/2023 3:00:00 PM 4.23 39.614 0.067 13 12.26 12.83
1/1/2023 3:15:00 PM 4.25 39.65 0.067 13 11.55 12.81
1/1/2023 3:30:00 PM 4.26 39.668 0.066 13.01 12 12.79
1/1/2023 3:45:00 PM 4.28 39.704 0.066 13 11.92 12.77
1/1/2023 4:00:00 PM 4.29 39.722 0.065 13 11.64 12.75
1/1/2023 4:15:00 PM 4.3 39.74 0.065 13 11.53 12.73
1/1/2023 4:30:00 PM 4.32 39.776 0.065 13 11.32 12.71
1/1/2023 4:45:00 PM 4.33 39.794 0.064 12.99 13.34 12.69
1/1/2023 5:00:00 PM 4.34 39.812 0.064 13 11.11 12.67
1/1/2023 5:15:00 PM 4.35 39.83 0.064 12.99 12.08 12.65
1/1/2023 5:30:00 PM 4.36 39.848 0.064 12.99 11.47 12.64
1/1/2023 5:45:00 PM 4.37 39.866 0.063 12.99 12.02 12.63
1/1/2023 6:00:00 PM 4.37 39.866 0.063 12.99 12.05 12.62
1/1/2023 6:15:00 PM 4.37 39.866 0.063 12.99 13.83 12.62
1/1/2023 6:30:00 PM 4.38 39.884 0.062 12.99 12.59 12.61
1/1/2023 6:45:00 PM 4.39 39.902 0.062 12.99 11.84 12.6
1/1/2023 7:00:00 PM 4.39 39.902 0.062 12.98 12.76 12.6
1/1/2023 7:15:00 PM 4.4 39.92 0.062 12.98 12.59 12.59
1/1/2023 7:30:00 PM 4.4 39.92 0.061 12.99 12.73 12.59
1/1/2023 7:45:00 PM 4.41 39.938 0.061 12.98 13.97 12.59
1/1/2023 8:00:00 PM 4.41 39.938 0.061 12.98 13.1 12.58
1/1/2023 8:15:00 PM 4.42 39.956 0.061 12.99 13.88 12.59
1/1/2023 8:30:00 PM 4.42 39.956 0.061 12.99 15.05 12.58
1/1/2023 8:45:00 PM 4.42 39.956 0.06 12.99 15.32 12.58
1/1/2023 9:00:00 PM 4.43 39.974 0.06 12.99 13.92 12.58
1/1/2023 9:15:00 PM 4.43 39.974 0.06 12.99 14.04 12.58
1/1/2023 9:30:00 PM 4.43 39.974 0.06 12.99 13.58 12.58
1/1/2023 9:45:00 PM 4.43 39.974 0.06 12.99 14.98 12.58
1/1/2023 10:00:00 PM 4.43 39.974 0.06 12.99 14.26 12.58
1/1/2023 10:15:00 PM 4.43 39.974 0.06 12.99 14.47 12.58
1/1/2023 10:30:00 PM 4.43 39.974 0.06 13 13.64 12.58
1/1/2023 10:45:00 PM 4.44 39.992 0.06 13 14.12 12.57
1/1/2023 11:00:00 PM 4.44 39.992 0.06 13 14.45 12.58
1/1/2023 11:15:00 PM 4.43 39.974 0.06 13 14.64 12.57
1/1/2023 11:30:00 PM 4.43 39.974 0.06 12.99 13.75 12.58
1/1/2023 11:45:00 PM 4.43 39.974 0.06 13 15.18 12.58
1/2/2023 12:00:00 AM 4.43 39.974 0.06 13 14.24 12.58
1/2/2023 12:15:00 AM 4.43 39.974 0.059 13 12.76 12.58
1/2/2023 12:30:00 AM 4.43 39.974 0.059 13 13.68 12.58
1/2/2023 12:45:00 AM 4.43 39.974 0.059 13 14.33 12.58
1/2/2023 1:00:00 AM 4.43 39.974 0.059 13 12.71 12.58
1/2/2023 1:15:00 AM 4.43 39.974 0.059 13 13.27 12.58
1/2/2023 1:30:00 AM 4.43 39.974 0.059 13 13.79 12.58
1/2/2023 1:45:00 AM 4.43 39.974 0.059 13 13.8 12.59
1/2/2023 2:00:00 AM 4.43 39.974 0.059 13 12.9 12.58
1/2/2023 2:15:00 AM 4.43 39.974 0.059 13 13.22 12.59
1/2/2023 2:30:00 AM 4.43 39.974 0.059 13 12.96 12.59
1/2/2023 2:45:00 AM 4.44 39.992 0.059 13 14.12 12.59
1/2/2023 3:00:00 AM 4.44 39.992 0.059 13.01 14.19 12.59
1/2/2023 3:15:00 AM 4.44 39.992 0.059 13.01 13.1 12.59
1/2/2023 3:30:00 AM 4.44 39.992 0.059 13 13.16 12.59
1/2/2023 3:45:00 AM 4.44 39.992 0.059 13.01 12.42 12.59
1/2/2023 4:00:00 AM 4.44 39.992 0.059 13.01 12.85 12.59
1/2/2023 4:15:00 AM 4.44 39.992 0.059 13.01 12.46 12.59
1/2/2023 4:30:00 AM 4.44 39.992 0.059 13.01 11.98 12.59
1/2/2023 4:45:00 AM 4.44 39.992 0.059 13 12.35 12.59
1/2/2023 5:00:00 AM 4.44 39.992 0.059 13 12.01 12.59
1/2/2023 5:15:00 AM 4.44 39.992 0.058 13 11.64 12.59
1/2/2023 5:30:00 AM 4.45 40.01 0.058 13 11.58 12.59
1/2/2023 5:45:00 AM 4.45 40.01 0.058 13 11.69 12.59
1/2/2023 6:00:00 AM 4.45 40.01 0.058 12.99 11.04 12.59
1/2/2023 6:15:00 AM 4.45 40.01 0.058 12.99 11.94 12.59
1/2/2023 6:30:00 AM 4.45 40.01 0.058 12.99 10.72 12.6
1/2/2023 6:45:00 AM 4.44 39.992 0.058 12.99 11.25 12.59
1/2/2023 7:00:00 AM 4.44 39.992 0.058 12.99 10.69 12.6
1/2/2023 7:15:00 AM 4.43 39.974 0.058 12.99 11.02 12.6
1/2/2023 7:30:00 AM 4.42 39.956 0.058 12.99 11 12.6
1/2/2023 7:45:00 AM 4.42 39.956 0.058 12.99 10.56 12.6
1/2/2023 8:00:00 AM 4.42 39.956 0.058 12.99 10.43 12.61
1/2/2023 8:15:00 AM 4.43 39.974 0.058 12.99 11.08 12.61
1/2/2023 8:30:00 AM 4.44 39.992 0.058 12.99 10.23 12.62
1/2/2023 8:45:00 AM 4.45 40.01 0.058 12.99 10.17 12.63
1/2/2023 9:00:00 AM 4.48 40.064 0.058 12.99 10.08 12.64
1/2/2023 9:15:00 AM 4.5 40.1 0.058 12.98 9.68 12.65
1/2/2023 9:30:00 AM 4.53 40.154 0.058 12.98 9.69 12.66
1/2/2023 9:45:00 AM 4.56 40.208 0.058 12.97 9.43 12.67
1/2/2023 10:00:00 AM 4.6 40.28 0.058 12.96 9.88 12.69
1/2/2023 10:15:00 AM 4.64 40.352 0.057 12.96 9.35 12.69
1/2/2023 10:30:00 AM 4.68 40.424 0.057 12.95 10.14 12.7
1/2/2023 10:45:00 AM 4.71 40.478 0.057 12.95 9.27 12.7
1/2/2023 11:00:00 AM 4.75 40.55 0.057 12.95 9.26 12.69
1/2/2023 11:15:00 AM 4.79 40.622 0.057 12.94 8.73 12.7
1/2/2023 11:30:00 AM 4.84 40.712 0.057 12.94 8.78 12.68
1/2/2023 11:45:00 AM 4.89 40.802 0.057 12.93 8.27 12.68
1/2/2023 12:00:00 PM 4.93 40.874 0.057 12.93 8.05 12.68
1/2/2023 12:15:00 PM 4.97 40.946 0.057 12.92 8.67 12.66
1/2/2023 12:30:00 PM 5.01 41.018 0.057 12.91 8.1 12.65
1/2/2023 12:45:00 PM 5.06 41.108 0.057 12.91 8.75 12.64
1/2/2023 1:00:00 PM 5.09 41.162 0.057 12.9 8.08 12.63
1/2/2023 1:15:00 PM 5.12 41.216 0.057 12.9 9.14 12.61
1/2/2023 1:30:00 PM 5.15 41.27 0.057 12.9 8.88 12.59
1/2/2023 1:45:00 PM 5.17 41.306 0.056 12.9 8.25 12.58
1/2/2023 2:00:00 PM 5.19 41.342 0.056 12.89 8.56 12.56
1/2/2023 2:15:00 PM 5.21 41.378 0.056 12.89 7.78 12.54
1/2/2023 2:30:00 PM 5.23 41.414 0.056 12.88 9.65 12.54
1/2/2023 2:45:00 PM 5.26 41.468 0.056 12.87 8.09 12.53
1/2/2023 3:00:00 PM 5.28 41.504 0.056 12.86 8.64 12.52
1/2/2023 3:15:00 PM 5.3 41.54 0.056 12.84 8.23 12.5
1/2/2023 3:30:00 PM 5.33 41.594 0.056 12.84 8.57 12.49
1/2/2023 3:45:00 PM 5.35 41.63 0.056 12.83 10.39 12.47
1/2/2023 4:00:00 PM 5.37 41.666 0.056 12.82 8.31 12.45
1/2/2023 4:15:00 PM 5.38 41.684 0.056 12.82 8 12.43
1/2/2023 4:30:00 PM 5.39 41.702 0.056 12.81 8.02 12.41
1/2/2023 4:45:00 PM 5.39 41.702 0.056 12.81 7.83 12.4
1/2/2023 5:00:00 PM 5.4 41.72 0.056 12.81 7.77 12.38
1/2/2023 5:15:00 PM 5.4 41.72 0.056 12.81 8.39 12.36
1/2/2023 5:30:00 PM 5.41 41.738 0.056 12.81 8.05 12.35
1/2/2023 5:45:00 PM 5.41 41.738 0.056 12.81 8.19 12.34
1/2/2023 6:00:00 PM 5.42 41.756 0.056 12.81 8.73 12.33
1/2/2023 6:15:00 PM 5.42 41.756 0.056 12.8 8.84 12.33
1/2/2023 6:30:00 PM 5.42 41.756 0.056 12.81 8.51 12.32
1/2/2023 6:45:00 PM 5.43 41.774 0.056 12.8 8.58 12.31
1/2/2023 7:00:00 PM 5.43 41.774 0.056 12.8 8.58 12.31
1/2/2023 7:15:00 PM 5.43 41.774 0.056 12.8 8.58 12.31
1/2/2023 7:30:00 PM 5.43 41.774 0.056 12.8 9.08 12.3
1/2/2023 7:45:00 PM 5.43 41.774 0.056 12.8 8.7 12.29
1/2/2023 8:00:00 PM 5.43 41.774 0.056 12.8 8.12 12.3
1/2/2023 8:15:00 PM 5.43 41.774 0.056 12.79 8.19 12.29
1/2/2023 8:30:00 PM 5.42 41.756 0.056 12.79 8.18 12.29
1/2/2023 8:45:00 PM 5.42 41.756 0.056 12.8 8.12 12.29
1/2/2023 9:00:00 PM 5.42 41.756 0.056 12.8 8.39 12.29
1/2/2023 9:15:00 PM 5.42 41.756 0.056 12.8 8.61 12.29
1/2/2023 9:30:00 PM 5.42 41.756 0.056 12.79 8.46 12.29
1/2/2023 9:45:00 PM 5.41 41.738 0.056 12.8 8.32 12.29
1/2/2023 10:00:00 PM 5.41 41.738 0.056 12.79 8.5 12.29
1/2/2023 10:15:00 PM 5.41 41.738 0.056 12.8 8.44 12.28
1/2/2023 10:30:00 PM 5.4 41.72 0.056 12.8 8.75 12.29
1/2/2023 10:45:00 PM 5.4 41.72 0.056 12.8 8.57 12.29
1/2/2023 11:00:00 PM 5.4 41.72 0.057 12.8 8.52 12.29
1/2/2023 11:15:00 PM 5.39 41.702 0.057 12.8 8.27 12.29
1/2/2023 11:30:00 PM 5.39 41.702 0.057 12.8 8.31 12.29
1/2/2023 11:45:00 PM 5.38 41.684 0.057 12.8 8.47 12.29
1/3/2023 12:00:00 AM 5.38 41.684 0.057 12.8 7.93 12.29
1/3/2023 12:15:00 AM 5.38 41.684 0.057 12.8 7.91 12.29
1/3/2023 12:30:00 AM 5.37 41.666 0.057 12.8 8.08 12.29
1/3/2023 12:45:00 AM 5.37 41.666 0.057 12.81 7.91 12.29
1/3/2023 1:00:00 AM 5.36 41.648 0.057 12.81 7.87 12.29
1/3/2023 1:15:00 AM 5.35 41.63 0.057 12.81 8.26 12.29
1/3/2023 1:30:00 AM 5.35 41.63 0.057 12.81 7.92 12.28
1/3/2023 1:45:00 AM 5.35 41.63 0.057 12.81 7.86 12.28
1/3/2023 2:00:00 AM 5.34 41.612 0.057 12.81 8.03 12.29
1/3/2023 2:15:00 AM 5.34 41.612 0.057 12.81 7.61 12.29
1/3/2023 2:30:00 AM 5.33 41.594 0.057 12.81 8.05 12.29
1/3/2023 2:45:00 AM 5.33 41.594 0.057 12.81 7.58 12.29
1/3/2023 3:00:00 AM 5.33 41.594 0.057 12.8 7.87 12.29
1/3/2023 3:15:00 AM 5.32 41.576 0.057 12.81 8.32 12.29
1/3/2023 3:30:00 AM 5.31 41.558 0.057 12.81 8 12.29
1/3/2023 3:45:00 AM 5.31 41.558 0.057 12.81 8.34 12.29
1/3/2023 4:00:00 AM 5.31 41.558 0.057 12.82 7.41 12.3
1/3/2023 4:15:00 AM 5.3 41.54 0.057 12.81 7.24 12.29
1/3/2023 4:30:00 AM 5.3 41.54 0.057 12.82 7.34 12.29
1/3/2023 4:45:00 AM 5.3 41.54 0.057 12.81 7.93 12.29
1/3/2023 5:00:00 AM 5.29 41.522 0.057 12.82 7.96 12.29
1/3/2023 5:15:00 AM 5.29 41.522 0.057 12.82 7.38 12.29
1/3/2023 5:30:00 AM 5.28 41.504 0.057 12.82 7.56 12.28
1/3/2023 5:45:00 AM 5.28 41.504 0.057 12.82 7.41 12.28
1/3/2023 6:00:00 AM 5.28 41.504 0.057 12.81 7.5 12.28
1/3/2023 6:15:00 AM 5.28 41.504 0.057 12.82 7.13 12.28
1/3/2023 6:30:00 AM 5.28 41.504 0.057 12.81 7.46 12.28
1/3/2023 6:45:00 AM 5.27 41.486 0.057 12.81 7.12 12.27
1/3/2023 7:00:00 AM 5.27 41.486 0.057 12.82 7 12.28
1/3/2023 7:15:00 AM 5.27 41.486 0.057 12.81 7.09 12.27
1/3/2023 7:30:00 AM 5.27 41.486 0.057 12.82 7.96 12.28
1/3/2023 7:45:00 AM 5.27 41.486 0.057 12.81 7.8 12.28
1/3/2023 8:00:00 AM 5.27 41.486 0.056 12.81 8.58 12.27
1/3/2023 8:15:00 AM 5.27 41.486 0.056 12.81 9.41 12.28
1/3/2023 8:30:00 AM 5.26 41.468 0.056 12.81 9.33 12.27
1/3/2023 8:45:00 AM 5.27 41.486 0.056 12.81 9.24 12.27
1/3/2023 9:00:00 AM 5.26 41.468 0.057 12.81 10.98 12.27
1/3/2023 9:15:00 AM 5.26 41.468 0.057 12.81 12.83 12.27
1/3/2023 9:30:00 AM 5.26 41.468 0.057 12.81 15.27 12.27
1/3/2023 9:45:00 AM 5.25 41.45 0.057 12.81 17.47 12.27
1/3/2023 10:00:00 AM 5.25 41.45 0.057 12.8 16.67 12.28
1/3/2023 10:15:00 AM 5.26 41.468 0.057 12.8 15.44 12.28
1/3/2023 10:30:00 AM 5.26 41.468 0.057 12.8 14.94 12.28
1/3/2023 10:45:00 AM 5.27 41.486 0.057 12.79 15.28 12.27
1/3/2023 11:00:00 AM 5.28 41.504 0.057 12.79 24.72 12.27
1/3/2023 11:15:00 AM 5.29 41.522 0.057 12.79 16.31 12.27
1/3/2023 11:30:00 AM 5.3 41.54 0.058 12.79 23.33 12.26
1/3/2023 11:45:00 AM 5.31 41.558 0.058 12.78 23.01 12.26
1/3/2023 12:00:00 PM 5.32 41.576 0.058 12.78 27.32 12.25
1/3/2023 12:15:00 PM 5.33 41.594 0.059 12.77 25.77 12.25
1/3/2023 12:30:00 PM 5.35 41.63 0.059 12.77 30.44 12.24
1/3/2023 12:45:00 PM 5.36 41.648 0.059 12.77 29.99 12.23
1/3/2023 1:00:00 PM 5.38 41.684 0.06 12.76 67.85 12.23
1/3/2023 1:15:00 PM 5.39 41.702 0.06 12.76 63.8 12.21
1/3/2023 1:30:00 PM 5.4 41.72 0.06 12.76 123.31 12.2
1/3/2023 1:45:00 PM 5.39 41.702 0.06 12.75 57.93 12.19
1/3/2023 2:00:00 PM 5.38 41.684 0.06 12.76 72.27 12.19
1/3/2023 2:15:00 PM 5.36 41.648 0.059 12.7 77.66 12.18
1/3/2023 2:30:00 PM 5.34 41.612 0.059 12.74 92.66 12.18
1/3/2023 2:45:00 PM 5.33 41.594 0.058 12.73 96.87 12.19
1/3/2023 3:00:00 PM 5.3 41.54 0.058 12.71 105.76 12.19
1/3/2023 3:15:00 PM 5.26 41.468 0.058 12.71 106.27 12.2
1/3/2023 3:30:00 PM 5.2 41.36 0.059 12.7 114.05 12.21
1/3/2023 3:45:00 PM 5.12 41.216 0.06 12.71 119.35 12.23
1/3/2023 4:00:00 PM 5.04 41.072 0.062 12.73 122.34 12.27
1/3/2023 4:15:00 PM 4.96 40.928 0.064 12.76 128.78 12.29
1/3/2023 4:30:00 PM 4.9 40.82 0.065 12.76 133.3 12.3
1/3/2023 4:45:00 PM 4.87 40.766 0.065 12.79 130.45 12.31
1/3/2023 5:00:00 PM 4.86 40.748 0.066 12.78 125.32 12.32
1/3/2023 5:15:00 PM 4.87 40.766 0.066 12.77 128.27 12.32
1/3/2023 5:30:00 PM 4.89 40.802 0.066 12.78 120.4 12.32
1/3/2023 5:45:00 PM 4.92 40.856 0.066 12.8 111 12.31
1/3/2023 6:00:00 PM 4.94 40.892 0.067 12.8 104.87 12.31
1/3/2023 6:15:00 PM 4.97 40.946 0.067 12.78 99.41 12.3
1/3/2023 6:30:00 PM 5 41 0.067 12.79 90.17 12.29
1/3/2023 6:45:00 PM 5.03 41.054 0.067 12.78 88.28 12.27
1/3/2023 7:00:00 PM 5.06 41.108 0.068 12.79 80.12 12.26
1/3/2023 7:15:00 PM 5.1 41.18 0.068 12.75 76.77 12.25
1/3/2023 7:30:00 PM 5.14 41.252 0.068 12.76 71.77 12.23
1/3/2023 7:45:00 PM 5.17 41.306 0.068 12.75 67.66 12.22
1/3/2023 8:00:00 PM 5.21 41.378 0.068 12.74 62.7 12.21
1/3/2023 8:15:00 PM 5.25 41.45 0.068 12.72 58.93 12.2
1/3/2023 8:30:00 PM 5.29 41.522 0.067 12.71 58.13 12.18
1/3/2023 8:45:00 PM 5.33 41.594 0.067 12.72 52.73 12.17
1/3/2023 9:00:00 PM 5.37 41.666 0.066 12.72 54.02 12.15
1/3/2023 9:15:00 PM 5.42 41.756 0.066 12.72 49.46 12.14
1/3/2023 9:30:00 PM 5.46 41.828 0.065 12.72 47.22 12.13
1/3/2023 9:45:00 PM 5.5 41.9 0.065 12.73 44.48 12.11
1/3/2023 10:00:00 PM 5.53 41.954 0.064 12.72 43.65 12.1
1/3/2023 10:15:00 PM 5.57 42.026 0.064 12.71 41.64 12.09
1/3/2023 10:30:00 PM 5.61 42.098 0.064 12.71 41.28 12.07
1/3/2023 10:45:00 PM 5.65 42.17 0.063 12.71 39.16 12.06
1/3/2023 11:00:00 PM 5.69 42.242 0.063 12.7 37.4 12.05
1/3/2023 11:15:00 PM 5.73 42.314 0.062 12.69 35.42 12.04
1/3/2023 11:30:00 PM 5.77 42.386 0.062 12.68 34.85 12.03
1/3/2023 11:45:00 PM 5.81 42.458 0.062 12.68 33.54 12.01
1/4/2023 12:00:00 AM 5.85 42.53 0.062 12.64 33.75 12
1/4/2023 12:15:00 AM 5.89 42.602 0.061 12.64 31.63 11.99
1/4/2023 12:30:00 AM 5.92 42.656 0.061 12.62 35.89 11.98
1/4/2023 12:45:00 AM 5.96 42.728 0.061 12.63 32.51 11.97
1/4/2023 1:00:00 AM 5.99 42.782 0.06 12.62 28.67 11.96
1/4/2023 1:15:00 AM 6.02 42.836 0.06 12.59 25.63 11.95
1/4/2023 1:30:00 AM 6.05 42.89 0.06 12.61 28.17 11.94
1/4/2023 1:45:00 AM 6.08 42.944 0.06 12.65 33.27 11.93
1/4/2023 2:00:00 AM 6.1 42.98 0.059 12.62 31.86 11.93
1/4/2023 2:15:00 AM 6.13 43.034 0.059 12.58 30.16 11.92
1/4/2023 2:30:00 AM 6.16 43.088 0.059 12.62 26.89 11.91
1/4/2023 2:45:00 AM 6.18 43.124 0.059 12.63 20.11 11.91
1/4/2023 3:00:00 AM 6.21 43.178 0.058 12.65 25.46 11.9
1/4/2023 3:15:00 AM 6.23 43.214 0.058 12.63 25.52 11.9
1/4/2023 3:30:00 AM 6.26 43.268 0.058 12.63 47.14 11.89
1/4/2023 3:45:00 AM 6.28 43.304 0.058 12.64 24.69 11.88
1/4/2023 4:00:00 AM 6.3 43.34 0.057 12.63 23.04 11.88
1/4/2023 4:15:00 AM 6.33 43.394 0.057 12.59 29.31 11.87
1/4/2023 4:30:00 AM 6.35 43.43 0.057 12.6 22.39 11.86
1/4/2023 4:45:00 AM 6.37 43.466 0.057 12.63 21.31 11.86
1/4/2023 5:00:00 AM 6.39 43.502 0.057 12.62 23.52 11.85
1/4/2023 5:15:00 AM 6.41 43.538 0.056 12.62 18.56 11.85
1/4/2023 5:30:00 AM 6.42 43.556 0.056 12.59 20.63 11.85
1/4/2023 5:45:00 AM 6.44 43.592 0.056 12.61 20.4 11.84
1/4/2023 6:00:00 AM 6.46 43.628 0.056 12.6 19.29 11.83
1/4/2023 6:15:00 AM 6.48 43.664 0.056 12.61 20.5 11.83
1/4/2023 6:30:00 AM 6.49 43.682 0.056 12.6 17.36 11.83
1/4/2023 6:45:00 AM 6.51 43.718 0.056 12.58 16.97 11.83
1/4/2023 7:00:00 AM 6.53 43.754 0.055 12.6 16.94 11.82
1/4/2023 7:15:00 AM 6.55 43.79 0.055 12.58 18.64 11.82
1/4/2023 7:30:00 AM 6.56 43.808 0.055 12.59 17.94 11.81
1/4/2023 7:45:00 AM 6.58 43.844 0.055 12.58 37.16 11.81
1/4/2023 8:00:00 AM 6.6 43.88 0.055 12.58 19.55 11.81
1/4/2023 8:15:00 AM 6.61 43.898 0.055 12.6 17.29 11.8
1/4/2023 8:30:00 AM 6.63 43.934 0.055 12.62 15.81 11.8
1/4/2023 8:45:00 AM 6.65 43.97 0.054 12.62 15.59 11.8
1/4/2023 9:00:00 AM 6.68 44.024 0.054 12.62 15.42 11.81
1/4/2023 9:15:00 AM 6.71 44.078 0.054 12.62 15.24 11.81
1/4/2023 9:30:00 AM 6.74 44.132 0.054 12.62 14.27 11.81
1/4/2023 9:45:00 AM 6.77 44.186 0.054 12.62 14.75 11.81
1/4/2023 10:00:00 AM 6.8 44.24 0.054 12.61 14.91 11.81
1/4/2023 10:15:00 AM 6.84 44.312 0.054 12.61 15.72 11.82
1/4/2023 10:30:00 AM 6.88 44.384 0.054 12.6 15.99 11.83
1/4/2023 10:45:00 AM 6.91 44.438 0.054 12.6 14.06 11.82
1/4/2023 11:00:00 AM 6.95 44.51 0.054 12.6 14.39 11.82
1/4/2023 11:15:00 AM 6.98 44.564 0.053 12.59 14.3 11.82
1/4/2023 11:30:00 AM 7.02 44.636 0.054 12.6 13.72 11.81
1/4/2023 11:45:00 AM 7.06 44.708 0.053 12.6 14.53 11.8
1/4/2023 12:00:00 PM 7.1 44.78 0.053 12.6 12.8 11.8
1/4/2023 12:15:00 PM 7.13 44.834 0.053 12.6 13.33 11.78
1/4/2023 12:30:00 PM 7.16 44.888 0.053 12.6 12.85 11.78
1/4/2023 12:45:00 PM 7.19 44.942 0.053 12.6 13.12 11.76
1/4/2023 1:00:00 PM 7.22 44.996 0.053 12.6 12.56 11.75
1/4/2023 1:15:00 PM 7.25 45.05 0.053 12.6 12.8 11.75
1/4/2023 1:30:00 PM 7.26 45.068 0.053 12.59 12.24 11.72
1/4/2023 1:45:00 PM 7.28 45.104 0.053 12.59 12.84 11.7
1/4/2023 2:00:00 PM 7.31 45.158 0.053 12.59 12.14 11.69
1/4/2023 2:15:00 PM 7.33 45.194 0.053 12.58 13.08 11.67
1/4/2023 2:30:00 PM 7.35 45.23 0.053 12.58 12.57 11.66
1/4/2023 2:45:00 PM 7.37 45.266 0.053 12.59 12.93 11.65
1/4/2023 3:00:00 PM 7.4 45.32 0.053 12.58 12.53 11.64
1/4/2023 3:15:00 PM 7.41 45.338 0.053 12.59 14.57 11.64
1/4/2023 3:30:00 PM 7.42 45.356 0.052 12.59 11.75 11.63
1/4/2023 3:45:00 PM 7.44 45.392 0.052 12.59 12.83 11.61
1/4/2023 4:00:00 PM 7.44 45.392 0.052 12.59 13.04 11.61
1/4/2023 4:15:00 PM 7.45 45.41 0.052 12.59 14.58 11.6
1/4/2023 4:30:00 PM 7.46 45.428 0.052 12.6 11.81 11.59
1/4/2023 4:45:00 PM 7.46 45.428 0.052 12.6 13.22 11.58
1/4/2023 5:00:00 PM 7.47 45.446 0.052 12.6 12.25 11.56
1/4/2023 5:15:00 PM 7.47 45.446 0.052 12.6 12.57 11.55
1/4/2023 5:30:00 PM 7.47 45.446 0.052 12.6 13.16 11.55
1/4/2023 5:45:00 PM 7.47 45.446 0.052 12.59 12.96 11.54
1/4/2023 6:00:00 PM 7.47 45.446 0.052 12.59 13.88 11.53
1/4/2023 6:15:00 PM 7.47 45.446 0.052 12.59 12.82 11.53
1/4/2023 6:30:00 PM 7.48 45.464 0.052 12.59 13.5 11.52
1/4/2023 6:45:00 PM 7.49 45.482 0.052 12.59 12.59 11.52
1/4/2023 7:00:00 PM 7.49 45.482 0.052 12.59 12.85 11.52
1/4/2023 7:15:00 PM 7.5 45.5 0.052 12.59 11.71 11.5
1/4/2023 7:30:00 PM 7.5 45.5 0.052 12.59 12.61 11.51
1/4/2023 7:45:00 PM 7.51 45.518 0.052 12.59 12.32 11.5
1/4/2023 8:00:00 PM 7.52 45.536 0.052 12.59 11.96 11.49
1/4/2023 8:15:00 PM 7.52 45.536 0.052 12.59 12.23 11.49
1/4/2023 8:30:00 PM 7.53 45.554 0.052 12.58 12.39 11.48
1/4/2023 8:45:00 PM 7.53 45.554 0.052 12.58 12.01 11.5
1/4/2023 9:00:00 PM 7.52 45.536 0.052 12.59 11.5 11.49
1/4/2023 9:15:00 PM 7.51 45.518 0.052 12.59 12.71 11.49
1/4/2023 9:30:00 PM 7.5 45.5 0.052 12.59 11.93 11.49
1/4/2023 9:45:00 PM 7.49 45.482 0.052 12.59 11.66 11.51
1/4/2023 10:00:00 PM 7.48 45.464 0.052 12.59 11.62 11.5
1/4/2023 10:15:00 PM 7.47 45.446 0.052 12.59 11.69 11.5
1/4/2023 10:30:00 PM 7.46 45.428 0.052 12.59 12.19 11.51
1/4/2023 10:45:00 PM 7.47 45.446 0.052 12.59 12.24 11.51
1/4/2023 11:00:00 PM 7.47 45.446 0.052 12.6 12.25 11.52
1/4/2023 11:15:00 PM 7.45 45.41 0.052 12.59 11.42 11.52
1/4/2023 11:30:00 PM 7.45 45.41 0.052 12.59 11.98 11.52
1/4/2023 11:45:00 PM 7.45 45.41 0.052 12.59 11.87 11.53
1/5/2023 12:00:00 AM 7.44 45.392 0.052 12.58 11.16 11.53
1/5/2023 12:15:00 AM 7.43 45.374 0.052 12.59 11.64 11.55
1/5/2023 12:30:00 AM 7.41 45.338 0.052 12.6 11.86 11.54
1/5/2023 12:45:00 AM 7.37 45.266 0.052 12.6 11.52 11.56
1/5/2023 1:00:00 AM 7.34 45.212 0.052 12.61 11.38 11.57
1/5/2023 1:15:00 AM 7.3 45.14 0.052 12.62 11.55 11.57
1/5/2023 1:30:00 AM 7.26 45.068 0.052 12.63 11.15 11.58
1/5/2023 1:45:00 AM 7.23 45.014 0.052 12.64 10.84 11.59
1/5/2023 2:00:00 AM 7.19 44.942 0.052 12.65 11.98 11.6
1/5/2023 2:15:00 AM 7.15 44.87 0.052 12.66 11.59 11.61
1/5/2023 2:30:00 AM 7.11 44.798 0.052 12.66 11.77 11.63
1/5/2023 2:45:00 AM 7.07 44.726 0.052 12.67 12.28 11.63
1/5/2023 3:00:00 AM 7.03 44.654 0.052 12.67 12.34 11.65
1/5/2023 3:15:00 AM 6.99 44.582 0.052 12.67 11 11.67
1/5/2023 3:30:00 AM 6.94 44.492 0.052 12.68 10.94 11.68
1/5/2023 3:45:00 AM 6.9 44.42 0.052 12.69 11.05 11.69
1/5/2023 4:00:00 AM 6.85 44.33 0.052 12.69 12.01 11.71
1/5/2023 4:15:00 AM 6.81 44.258 0.053 12.69 10.65 11.72
1/5/2023 4:30:00 AM 6.77 44.186 0.052 12.69 11.41 11.73
1/5/2023 4:45:00 AM 6.73 44.114 0.053 12.69 10.94 11.74
1/5/2023 5:00:00 AM 6.69 44.042 0.052 12.69 12.15 11.75
1/5/2023 5:15:00 AM 6.65 43.97 0.053 12.7 11.07 11.77
1/5/2023 5:30:00 AM 6.61 43.898 0.053 12.7 10.47 11.78
1/5/2023 5:45:00 AM 6.58 43.844 0.053 12.71 10.7 11.79
1/5/2023 6:00:00 AM 6.55 43.79 0.053 12.72 10.99 11.81
1/5/2023 6:15:00 AM 6.53 43.754 0.053 12.72 11.79 11.82
1/5/2023 6:30:00 AM 6.5 43.7 0.053 12.72 10.65 11.83
1/5/2023 6:45:00 AM 6.47 43.646 0.053 12.73 10.55 11.84
1/5/2023 7:00:00 AM 6.45 43.61 0.053 12.73 11.98 11.84
1/5/2023 7:15:00 AM 6.41 43.538 0.053 12.73 11.47 11.85
1/5/2023 7:30:00 AM 6.39 43.502 0.053 12.74 10.68 11.86
1/5/2023 7:45:00 AM 6.36 43.448 0.053 12.74 10.59 11.88
1/5/2023 8:00:00 AM 6.34 43.412 0.053 12.74 10.01 11.89
1/5/2023 8:15:00 AM 6.32 43.376 0.053 12.74 10.49 11.91
1/5/2023 8:30:00 AM 6.3 43.34 0.053 12.74 10.69 11.93
1/5/2023 8:45:00 AM 6.29 43.322 0.053 12.74 10.52 11.95
1/5/2023 9:00:00 AM 6.29 43.322 0.053 12.75 10.36 11.97
1/5/2023 9:15:00 AM 6.28 43.304 0.053 12.74 10.42 11.99
1/5/2023 9:30:00 AM 6.27 43.286 0.053 12.74 9.82 12
1/5/2023 9:45:00 AM 6.26 43.268 0.053 12.75 13.41 12.02
1/5/2023 10:00:00 AM 6.25 43.25 0.053 12.75 9.14 12.03
1/5/2023 10:15:00 AM 6.24 43.232 0.053 12.75 9.88 12.05
1/5/2023 10:30:00 AM 6.25 43.25 0.053 12.75 9.06 12.07
1/5/2023 10:45:00 AM 6.26 43.268 0.053 12.75 9.29 12.08
1/5/2023 11:00:00 AM 6.27 43.286 0.053 12.75 10.29 12.09
1/5/2023 11:15:00 AM 6.28 43.304 0.053 12.75 9.03 12.1
1/5/2023 11:30:00 AM 6.3 43.34 0.053 12.74 10.05 12.11
1/5/2023 11:45:00 AM 6.32 43.376 0.053 12.74 10.8 12.12
1/5/2023 12:00:00 PM 6.35 43.43 0.053 12.74 9.03 12.13
1/5/2023 12:15:00 PM 6.37 43.466 0.053 12.73 8.82 12.13
1/5/2023 12:30:00 PM 6.38 43.484 0.053 12.73 9.06 12.12
1/5/2023 12:45:00 PM 6.39 43.502 0.053 12.73 9.66 12.11
1/5/2023 1:00:00 PM 6.39 43.502 0.053 12.73 10.01 12.11
1/5/2023 1:15:00 PM 6.4 43.52 0.053 12.72 8.81 12.11
1/5/2023 1:30:00 PM 6.4 43.52 0.053 12.73 9.75 12.1
1/5/2023 1:45:00 PM 6.4 43.52 0.053 12.72 9.5 12.1
1/5/2023 2:00:00 PM 6.42 43.556 0.054 12.72 9.51 12.1
1/5/2023 2:15:00 PM 6.46 43.628 0.053 12.72 8.55 12.1
1/5/2023 2:30:00 PM 6.49 43.682 0.053 12.71 8.34 12.09
1/5/2023 2:45:00 PM 6.53 43.754 0.053 12.71 8.55 12.08
1/5/2023 3:00:00 PM 6.58 43.844 0.053 12.7 8.33 12.06
1/5/2023 3:15:00 PM 6.62 43.916 0.053 12.7 9.3 12.05
1/5/2023 3:30:00 PM 6.64 43.952 0.053 12.7 10.15 12.04
1/5/2023 3:45:00 PM 6.65 43.97 0.053 12.69 8.78 12.03
1/5/2023 4:00:00 PM 6.65 43.97 0.053 12.69 8.7 12.02
1/5/2023 4:15:00 PM 6.62 43.916 0.052 12.74 8.8 12
1/5/2023 4:30:00 PM 6.58 43.844 0.053 12.78 8.35 12
1/5/2023 4:45:00 PM 6.53 43.754 0.053 12.8 8.32 12
1/5/2023 5:00:00 PM 6.47 43.646 0.053 12.81 8.2 11.99
1/5/2023 5:15:00 PM 6.41 43.538 0.053 12.82 9.53 11.98
1/5/2023 5:30:00 PM 6.35 43.43 0.053 12.83 8.52 11.98
1/5/2023 5:45:00 PM 6.31 43.358 0.053 12.84 10.61 11.98
1/5/2023 6:00:00 PM 6.28 43.304 0.053 12.84 8.95 11.98
1/5/2023 6:15:00 PM 6.24 43.232 0.053 12.85 8.31 11.97
1/5/2023 6:30:00 PM 6.22 43.196 0.053 12.85 8.51 11.98
1/5/2023 6:45:00 PM 6.19 43.142 0.053 12.85 8.35 11.98
1/5/2023 7:00:00 PM 6.17 43.106 0.053 12.84 9.29 11.98
1/5/2023 7:15:00 PM 6.14 43.052 0.053 12.83 8.03 11.97
1/5/2023 7:30:00 PM 6.11 42.998 0.053 12.83 8.42 11.98
1/5/2023 7:45:00 PM 6.08 42.944 0.053 12.83 8.76 11.98
1/5/2023 8:00:00 PM 6.05 42.89 0.053 12.83 9.11 11.99
1/5/2023 8:15:00 PM 6.02 42.836 0.053 12.83 9.31 11.99
1/5/2023 8:30:00 PM 6 42.8 0.053 12.83 8.5 12
1/5/2023 8:45:00 PM 5.97 42.746 0.053 12.83 7.92 12
1/5/2023 9:00:00 PM 5.95 42.71 0.053 12.83 8.44 12.02
1/5/2023 9:15:00 PM 5.92 42.656 0.053 12.83 7.94 12.02
1/5/2023 9:30:00 PM 5.9 42.62 0.053 12.83 9.12 12.03
1/5/2023 9:45:00 PM 5.87 42.566 0.053 12.83 8.96 12.03
1/5/2023 10:00:00 PM 5.85 42.53 0.053 12.84 8.05 12.04
1/5/2023 10:15:00 PM 5.82 42.476 0.053 12.84 8.67 12.05
1/5/2023 10:30:00 PM 5.79 42.422 0.054 12.84 8.14 12.06
1/5/2023 10:45:00 PM 5.76 42.368 0.054 12.85 8.23 12.07
1/5/2023 11:00:00 PM 5.73 42.314 0.053 12.85 8.94 12.08
1/5/2023 11:15:00 PM 5.69 42.242 0.054 12.85 7.92 12.09
1/5/2023 11:30:00 PM 5.64 42.152 0.054 12.86 8.39 12.1
1/5/2023 11:45:00 PM 5.61 42.098 0.054 12.86 7.53 12.11
1/6/2023 12:00:00 AM 5.57 42.026 0.054 12.87 8.35 12.13
1/6/2023 12:15:00 AM 5.53 41.954 0.054 12.87 8.02 12.13
1/6/2023 12:30:00 AM 5.49 41.882 0.054 12.88 8.09 12.14
1/6/2023 12:45:00 AM 5.46 41.828 0.054 12.88 8.34 12.15
1/6/2023 1:00:00 AM 5.43 41.774 0.054 12.88 7.85 12.16
1/6/2023 1:15:00 AM 5.41 41.738 0.054 12.88 7.88 12.17
1/6/2023 1:30:00 AM 5.38 41.684 0.054 12.88 8.57 12.18
1/6/2023 1:45:00 AM 5.35 41.63 0.054 12.89 8.05 12.19
1/6/2023 2:00:00 AM 5.32 41.576 0.054 12.9 7.55 12.2
1/6/2023 2:15:00 AM 5.3 41.54 0.054 12.9 7.51 12.21
1/6/2023 2:30:00 AM 5.27 41.486 0.054 12.9 7.67 12.22
1/6/2023 2:45:00 AM 5.25 41.45 0.054 12.9 7.86 12.24
1/6/2023 3:00:00 AM 5.22 41.396 0.054 12.9 8.25 12.24
1/6/2023 3:15:00 AM 5.2 41.36 0.054 12.89 7.82 12.25
1/6/2023 3:30:00 AM 5.17 41.306 0.054 12.9 7.81 12.26
1/6/2023 3:45:00 AM 5.14 41.252 0.054 12.91 7.68 12.26
1/6/2023 4:00:00 AM 5.11 41.198 0.054 12.91 8.39 12.27
1/6/2023 4:15:00 AM 5.09 41.162 0.054 12.91 7.59 12.28
1/6/2023 4:30:00 AM 5.06 41.108 0.054 12.9 7.37 12.29
1/6/2023 4:45:00 AM 5.03 41.054 0.054 12.91 7.53 12.3
1/6/2023 5:00:00 AM 5.02 41.036 0.054 12.9 7.69 12.3
1/6/2023 5:15:00 AM 4.99 40.982 0.054 12.9 7.9 12.32
1/6/2023 5:30:00 AM 4.97 40.946 0.054 12.9 7.23 12.33
1/6/2023 5:45:00 AM 4.95 40.91 0.054 12.91 7.43 12.33
1/6/2023 6:00:00 AM 4.94 40.892 0.054 12.91 8.12 12.34
1/6/2023 6:15:00 AM 4.92 40.856 0.054 12.94 7.56 12.35
1/6/2023 6:30:00 AM 4.9 40.82 0.054 12.92 7.73 12.36
1/6/2023 6:45:00 AM 4.89 40.802 0.054 12.92 8.38 12.36
1/6/2023 7:00:00 AM 4.87 40.766 0.054 12.92 7.4 12.37
1/6/2023 7:15:00 AM 4.86 40.748 0.054 12.92 6.89 12.38
1/6/2023 7:30:00 AM 4.84 40.712 0.054 12.92 7.09 12.38
1/6/2023 7:45:00 AM 4.83 40.694 0.054 12.92 7.66 12.39
1/6/2023 8:00:00 AM 4.82 40.676 0.055 12.91 6.94 12.4
1/6/2023 8:15:00 AM 4.81 40.658 0.054 12.92 7.02 12.41
1/6/2023 8:30:00 AM 4.8 40.64 0.055 12.92 7.16 12.41
1/6/2023 8:45:00 AM 4.79 40.622 0.055 12.91 6.84 12.43
1/6/2023 9:00:00 AM 4.78 40.604 0.055 12.91 6.48 12.44
1/6/2023 9:15:00 AM 4.77 40.586 0.055 12.91 7.08 12.45
1/6/2023 9:30:00 AM 4.75 40.55 0.055 12.91 7.32 12.45
1/6/2023 9:45:00 AM 4.74 40.532 0.055 12.91 6.49 12.48
1/6/2023 10:00:00 AM 4.74 40.532 0.055 12.9 6.67 12.5
1/6/2023 10:15:00 AM 4.74 40.532 0.055 12.9 6.53 12.52
1/6/2023 10:30:00 AM 4.76 40.568 0.055 12.9 6.48 12.54
1/6/2023 10:45:00 AM 4.79 40.622 0.055 12.9 6.76 12.56
1/6/2023 11:00:00 AM 4.83 40.694 0.055 12.89 6 12.57
1/6/2023 11:15:00 AM 4.87 40.766 0.055 12.9 6.51 12.58
1/6/2023 11:30:00 AM 4.89 40.802 0.055 12.89 6.56 12.59
1/6/2023 11:45:00 AM 4.91 40.838 0.055 12.89 6.18 12.6
1/6/2023 12:00:00 PM 4.91 40.838 0.055 12.88 6.32 12.6
1/6/2023 12:15:00 PM 4.94 40.892 0.055 12.88 6.27 12.6
1/6/2023 12:30:00 PM 4.97 40.946 0.055 12.88 6.64 12.61
1/6/2023 12:45:00 PM 5 41 0.055 12.87 5.89 12.61
1/6/2023 1:00:00 PM 5.03 41.054 0.055 12.86 6.12 12.6
1/6/2023 1:15:00 PM 5.06 41.108 0.055 12.86 6.89 12.6
1/6/2023 1:30:00 PM 5.08 41.144 0.055 12.86 6.27 12.6
1/6/2023 1:45:00 PM 5.1 41.18 0.055 12.86 2041.83 12.59
1/6/2023 2:00:00 PM 5.12 41.216 0.053 12.85 6.4 12.59
1/6/2023 2:15:00 PM 5.13 41.234 0.055 12.85 6.23 12.58
1/6/2023 2:30:00 PM 5.14 41.252 0.048 12.85 7.15 12.57
1/6/2023 2:45:00 PM 5.13 41.234 0.055 12.85 6.1 12.56
1/6/2023 3:00:00 PM 5.12 41.216 0.055 12.85 6.1 12.54
1/6/2023 3:15:00 PM 5.12 41.216 0.055 12.85 6.23 12.54
1/6/2023 3:30:00 PM 5.11 41.198 0.055 12.85 6.57 12.53
1/6/2023 3:45:00 PM 5.1 41.18 0.055 12.85 6.13 12.52
1/6/2023 4:00:00 PM 5.09 41.162 0.055 12.85 6.39 12.51
1/6/2023 4:15:00 PM 5.08 41.144 0.055 12.86 6.5 12.51
1/6/2023 4:30:00 PM 5.07 41.126 0.055 12.85 6.41 12.5
1/6/2023 4:45:00 PM 5.05 41.09 0.055 12.85 6.9 12.48
1/6/2023 5:00:00 PM 5.04 41.072 0.055 12.85 6.38 12.48
1/6/2023 5:15:00 PM 5.02 41.036 0.055 12.85 6.07 12.47
1/6/2023 5:30:00 PM 5 41 0.055 12.85 6.57 12.46
1/6/2023 5:45:00 PM 4.99 40.982 0.056 12.85 6.23 12.45
1/6/2023 6:00:00 PM 4.96 40.928 0.056 12.86 6.52 12.46
1/6/2023 6:15:00 PM 4.94 40.892 0.056 12.86 6.6 12.45
1/6/2023 6:30:00 PM 4.92 40.856 0.056 12.86 6.65 12.46
1/6/2023 6:45:00 PM 4.91 40.838 0.056 12.86 6.64 12.46
1/6/2023 7:00:00 PM 4.89 40.802 0.056 12.86 7.39 12.46
1/6/2023 7:15:00 PM 4.87 40.766 0.056 12.86 6.34 12.46
1/6/2023 7:30:00 PM 4.86 40.748 0.056 12.86 6.69 12.47
1/6/2023 7:45:00 PM 4.84 40.712 0.056 12.86 6.05 12.46
1/6/2023 8:00:00 PM 4.81 40.658 0.056 12.87 6.22 12.48
1/6/2023 8:15:00 PM 4.8 40.64 0.056 12.87 6.15 12.48
1/6/2023 8:30:00 PM 4.79 40.622 0.056 12.87 6.57 12.48
1/6/2023 8:45:00 PM 4.76 40.568 0.056 12.87 8.59 12.49
1/6/2023 9:00:00 PM 4.75 40.55 0.056 12.87 6.12 12.49
1/6/2023 9:15:00 PM 4.73 40.514 0.056 12.87 6.38 12.49
1/6/2023 9:30:00 PM 4.72 40.496 0.056 12.87 6.35 12.5
1/6/2023 9:45:00 PM 4.7 40.46 0.056 12.89 6.06 12.51
1/6/2023 10:00:00 PM 4.68 40.424 0.057 12.89 6.09 12.52
1/6/2023 10:15:00 PM 4.66 40.388 0.057 12.88 6.44 12.52
1/6/2023 10:30:00 PM 4.65 40.37 0.057 12.88 6.6 12.53
1/6/2023 10:45:00 PM 4.63 40.334 0.057 12.88 6.12 12.52
1/6/2023 11:00:00 PM 4.61 40.298 0.057 12.89 6.31 12.53
1/6/2023 11:15:00 PM 4.6 40.28 0.057 12.89 5.84 12.54
1/6/2023 11:30:00 PM 4.59 40.262 0.057 12.89 6.29 12.54
1/6/2023 11:45:00 PM 4.57 40.226 0.057 12.89 5.94 12.55
1/7/2023 12:00:00 AM 4.56 40.208 0.057 12.89 5.83 12.56
1/7/2023 12:15:00 AM 4.53 40.154 0.057 12.9 6.01 12.56
1/7/2023 12:30:00 AM 4.52 40.136 0.057 12.9 6.1 12.57
1/7/2023 12:45:00 AM 4.5 40.1 0.057 12.9 5.97 12.58
1/7/2023 1:00:00 AM 4.48 40.064 0.058 12.91 5.96 12.58
1/7/2023 1:15:00 AM 4.46 40.028 0.058 12.93 6.47 12.58
1/7/2023 1:30:00 AM 4.45 40.01 0.058 12.91 6.04 12.59
1/7/2023 1:45:00 AM 4.43 39.974 0.058 12.91 5.82 12.6
1/7/2023 2:00:00 AM 4.42 39.956 0.058 12.92 5.57 12.6
1/7/2023 2:15:00 AM 4.41 39.938 0.058 12.92 5.91 12.61
1/7/2023 2:30:00 AM 4.4 39.92 0.058 12.92 5.88 12.61
1/7/2023 2:45:00 AM 4.38 39.884 0.058 12.92 6.53 12.62
1/7/2023 3:00:00 AM 4.36 39.848 0.059 12.92 5.78 12.63
1/7/2023 3:15:00 AM 4.35 39.83 0.059 12.92 5.66 12.63
1/7/2023 3:30:00 AM 4.34 39.812 0.059 12.93 5.53 12.64
1/7/2023 3:45:00 AM 4.33 39.794 0.059 12.93 5.79 12.64
1/7/2023 4:00:00 AM 4.31 39.758 0.059 12.93 5.51 12.65
1/7/2023 4:15:00 AM 4.31 39.758 0.059 12.93 5.99 12.65
1/7/2023 4:30:00 AM 4.3 39.74 0.059 12.93 6.04 12.65
1/7/2023 4:45:00 AM 4.29 39.722 0.059 12.93 5.93 12.66
1/7/2023 5:00:00 AM 4.28 39.704 0.059 12.93 7.16 12.66
1/7/2023 5:15:00 AM 4.27 39.686 0.059 12.93 6.46 12.66
1/7/2023 5:30:00 AM 4.27 39.686 0.059 12.93 6.17 12.66
1/7/2023 5:45:00 AM 4.26 39.668 0.059 12.93 5.99 12.67
1/7/2023 6:00:00 AM 4.26 39.668 0.059 12.94 6.08 12.67
1/7/2023 6:15:00 AM 4.25 39.65 0.059 12.94 5.47 12.67
1/7/2023 6:30:00 AM 4.25 39.65 0.059 12.96 6.4 12.67
1/7/2023 6:45:00 AM 4.25 39.65 0.059 12.95 6 12.68
1/7/2023 7:00:00 AM 4.24 39.632 0.059 12.94 6.05 12.68
1/7/2023 7:15:00 AM 4.24 39.632 0.06 12.93 5.84 12.68
1/7/2023 7:30:00 AM 4.24 39.632 0.059 12.94 5.77 12.69
1/7/2023 7:45:00 AM 4.24 39.632 0.06 12.93 5.54 12.69
1/7/2023 8:00:00 AM 4.24 39.632 0.06 12.93 5.73 12.69
1/7/2023 8:15:00 AM 4.24 39.632 0.06 12.93 5.39 12.7
1/7/2023 8:30:00 AM 4.24 39.632 0.06 12.94 5.29 12.71
1/7/2023 8:45:00 AM 4.24 39.632 0.06 12.94 5.36 12.72
1/7/2023 9:00:00 AM 4.24 39.632 0.06 12.93 5.45 12.73
1/7/2023 9:15:00 AM 4.25 39.65 0.06 12.93 5.55 12.73
1/7/2023 9:30:00 AM 4.25 39.65 0.06 12.94 5.28 12.75
1/7/2023 9:45:00 AM 4.26 39.668 0.06 12.94 5.2 12.76
1/7/2023 10:00:00 AM 4.27 39.686 0.06 12.93 5.3 12.78
1/7/2023 10:15:00 AM 4.28 39.704 0.06 12.93 4.87 12.79
1/7/2023 10:30:00 AM 4.29 39.722 0.06 12.93 5.06 12.8
1/7/2023 10:45:00 AM 4.3 39.74 0.06 12.93 4.85 12.8
1/7/2023 11:00:00 AM 4.31 39.758 0.06 12.93 5.14 12.81
1/7/2023 11:15:00 AM 4.33 39.794 0.06 12.93 5.09 12.83
1/7/2023 11:30:00 AM 4.35 39.83 0.06 12.92 4.91 12.83
1/7/2023 11:45:00 AM 4.36 39.848 0.06 12.92 5.74 12.84
1/7/2023 12:00:00 PM 4.38 39.884 0.06 12.92 5.72 12.84
1/7/2023 12:15:00 PM 4.4 39.92 0.06 12.91 5.11 12.85
1/7/2023 12:30:00 PM 4.44 39.992 0.06 12.91 5.16 12.85
1/7/2023 12:45:00 PM 4.46 40.028 0.06 12.91 4.96 12.85
1/7/2023 1:00:00 PM 4.48 40.064 0.06 12.9 4.78 12.85
1/7/2023 1:15:00 PM 4.49 40.082 0.06 12.9 5.03 12.84
1/7/2023 1:30:00 PM 4.5 40.1 0.06 12.9 5.07 12.83
1/7/2023 1:45:00 PM 4.52 40.136 0.06 12.89 4.91 12.83
1/7/2023 2:00:00 PM 4.54 40.172 0.06 12.89 4.99 12.83
1/7/2023 2:15:00 PM 4.54 40.172 0.06 12.89 4.94 12.83
1/7/2023 2:30:00 PM 4.55 40.19 0.06 12.89 4.83 12.83
1/7/2023 2:45:00 PM 4.56 40.208 0.06 12.89 5.29 12.82
1/7/2023 3:00:00 PM 4.57 40.226 0.06 12.89 4.65 12.81
1/7/2023 3:15:00 PM 4.57 40.226 0.06 12.89 4.85 12.81
1/7/2023 3:30:00 PM 4.58 40.244 0.06 12.89 4.87 12.8
1/7/2023 3:45:00 PM 4.57 40.226 0.06 12.88 4.76 12.79
1/7/2023 4:00:00 PM 4.57 40.226 0.06 12.88 4.92 12.79
1/7/2023 4:15:00 PM 4.56 40.208 0.061 12.89 5.21 12.77
1/7/2023 4:30:00 PM 4.56 40.208 0.061 12.89 4.81 12.78
1/7/2023 4:45:00 PM 4.55 40.19 0.061 12.89 5.09 12.75
1/7/2023 5:00:00 PM 4.54 40.172 0.061 12.89 5.29 12.75
1/7/2023 5:15:00 PM 4.53 40.154 0.061 12.89 4.96 12.73
1/7/2023 5:30:00 PM 4.5 40.1 0.061 12.89 4.97 12.72
1/7/2023 5:45:00 PM 4.49 40.082 0.061 12.89 6.29 12.71
1/7/2023 6:00:00 PM 4.47 40.046 0.061 12.9 5.81 12.7
1/7/2023 6:15:00 PM 4.47 40.046 0.061 12.9 5.65 12.7
1/7/2023 6:30:00 PM 4.46 40.028 0.061 12.89 5.57 12.7
1/7/2023 6:45:00 PM 4.45 40.01 0.061 12.9 5.37 12.68
1/7/2023 7:00:00 PM 4.44 39.992 0.061 12.9 5.07 12.68
1/7/2023 7:15:00 PM 4.43 39.974 0.061 12.9 4.85 12.68
1/7/2023 7:30:00 PM 4.42 39.956 0.061 12.9 5.1 12.69
1/7/2023 7:45:00 PM 4.41 39.938 0.061 12.9 5.14 12.69
1/7/2023 8:00:00 PM 4.4 39.92 0.061 12.9 5.14 12.69
1/7/2023 8:15:00 PM 4.38 39.884 0.061 12.9 5.32 12.69
1/7/2023 8:30:00 PM 4.34 39.812 0.061 12.96 5.05 12.69
1/7/2023 8:45:00 PM 4.32 39.776 0.061 12.91 5.3 12.7
1/7/2023 9:00:00 PM 4.28 39.704 0.061 12.92 5.02 12.71
1/7/2023 9:15:00 PM 4.27 39.686 0.061 12.92 5.24 12.71
1/7/2023 9:30:00 PM 4.29 39.722 0.061 12.92 4.83 12.72
1/7/2023 9:45:00 PM 4.29 39.722 0.061 12.92 5.26 12.73
1/7/2023 10:00:00 PM 4.28 39.704 0.061 12.92 5.09 12.73
1/7/2023 10:15:00 PM 4.26 39.668 0.061 12.92 5.02 12.73
1/7/2023 10:30:00 PM 4.25 39.65 0.062 12.92 5.02 12.74
1/7/2023 10:45:00 PM 4.23 39.614 0.061 12.92 5.01 12.75
1/7/2023 11:00:00 PM 4.22 39.596 0.062 12.93 4.94 12.75
1/7/2023 11:15:00 PM 4.2 39.56 0.062 12.93 4.89 12.75
1/7/2023 11:30:00 PM 4.19 39.542 0.062 12.93 4.83 12.76
1/7/2023 11:45:00 PM 4.18 39.524 0.062 12.93 5.05 12.76
1/8/2023 12:00:00 AM 4.16 39.488 0.062 12.94 4.68 12.77
1/8/2023 12:15:00 AM 4.15 39.47 0.062 12.94 4.96 12.78
1/8/2023 12:30:00 AM 4.13 39.434 0.062 12.95 4.97 12.78
1/8/2023 12:45:00 AM 4.12 39.416 0.062 12.98 5.25 12.79
1/8/2023 1:00:00 AM 4.1 39.38 0.062 12.96 5.15 12.79
1/8/2023 1:15:00 AM 4.08 39.344 0.062 12.96 4.87 12.79
1/8/2023 1:30:00 AM 4.07 39.326 0.062 12.96 4.98 12.8
1/8/2023 1:45:00 AM 4.05 39.29 0.062 12.96 10.69 12.8
1/8/2023 2:00:00 AM 4.04 39.272 0.062 12.97 8.5 12.81
1/8/2023 2:15:00 AM 4.02 39.236 0.062 12.97 4.82 12.82
1/8/2023 2:30:00 AM 4.01 39.218 0.062 12.97 4.83 12.83
1/8/2023 2:45:00 AM 3.99 39.182 0.062 12.98 4.62 12.83
1/8/2023 3:00:00 AM 3.97 39.146 0.062 12.99 4.74 12.84
1/8/2023 3:15:00 AM 3.95 39.11 0.062 13 4.38 12.85
1/8/2023 3:30:00 AM 3.93 39.074 0.062 13.01 4.37 12.85
1/8/2023 3:45:00 AM 3.91 39.038 0.062 13.01 4.11 12.86
1/8/2023 4:00:00 AM 3.89 39.002 0.062 13.04 4.41 12.87
1/8/2023 4:15:00 AM 3.87 38.966 0.063 13.03 4.4 12.87
1/8/2023 4:30:00 AM 3.86 38.948 0.063 13.02 5.52 12.88
1/8/2023 4:45:00 AM 3.83 38.894 0.063 13.02 4.39 12.88
1/8/2023 5:00:00 AM 3.81 38.858 0.063 13.03 4.46 12.89
1/8/2023 5:15:00 AM 3.8 38.84 0.063 13.03 4.19 12.89
1/8/2023 5:30:00 AM 3.78 38.804 0.063 13.03 4.17 12.9
1/8/2023 5:45:00 AM 3.77 38.786 0.063 13.03 4.39 12.9
1/8/2023 6:00:00 AM 3.74 38.732 0.063 13.04 4.22 12.91
1/8/2023 6:15:00 AM 3.73 38.714 0.063 13.04 4.38 12.92
1/8/2023 6:30:00 AM 3.71 38.678 0.063 13.05 4.05 12.93
1/8/2023 6:45:00 AM 3.7 38.66 0.063 13.04 4.15 12.93
1/8/2023 7:00:00 AM 3.68 38.624 0.063 13.05 4.2 12.93
1/8/2023 7:15:00 AM 3.66 38.588 0.063 13.05 4.15 12.94
1/8/2023 7:30:00 AM 3.65 38.57 0.063 13.07 4.67 12.95
1/8/2023 7:45:00 AM 3.63 38.534 0.063 13.07 4.23 12.95
1/8/2023 8:00:00 AM 3.61 38.498 0.063 13.06 4.17 12.96
1/8/2023 8:15:00 AM 3.6 38.48 0.063 13.07 4.03 12.97
1/8/2023 8:30:00 AM 3.58 38.444 0.063 13.07 4.1 12.98
1/8/2023 8:45:00 AM 3.57 38.426 0.063 13.07 3.95 13.01
1/8/2023 9:00:00 AM 3.57 38.426 0.063 13.07 3.85 13.02
1/8/2023 9:15:00 AM 3.57 38.426 0.063 13.07 3.98 13.05
1/8/2023 9:30:00 AM 3.57 38.426 0.063 13.07 3.88 13.07
1/8/2023 9:45:00 AM 3.57 38.426 0.063 13.07 3.87 13.08
1/8/2023 10:00:00 AM 3.57 38.426 0.063 13.08 3.88 13.11
1/8/2023 10:15:00 AM 3.58 38.444 0.063 13.08 3.8 13.12
1/8/2023 10:30:00 AM 3.59 38.462 0.063 13.07 3.96 13.14
1/8/2023 10:45:00 AM 3.61 38.498 0.063 13.07 3.89 13.14
1/8/2023 11:00:00 AM 3.63 38.534 0.063 13.07 3.84 13.16
1/8/2023 11:15:00 AM 3.65 38.57 0.063 13.07 3.73 13.16
1/8/2023 11:30:00 AM 3.67 38.606 0.064 13.06 3.77 13.17
1/8/2023 11:45:00 AM 3.7 38.66 0.064 13.06 3.82 13.16
1/8/2023 12:00:00 PM 3.74 38.732 0.064 13.05 3.69 13.16
1/8/2023 12:15:00 PM 3.77 38.786 0.064 13.05 3.88 13.16
1/8/2023 12:30:00 PM 3.81 38.858 0.064 13.04 3.84 13.16
1/8/2023 12:45:00 PM 3.81 38.858 0.064 13.04 3.74 13.14
1/8/2023 1:00:00 PM 3.84 38.912 0.063 13.04 3.74 13.14
1/8/2023 1:15:00 PM 3.86 38.948 0.063 13.04 4.01 13.13
1/8/2023 1:30:00 PM 3.89 39.002 0.063 13.03 3.76 13.12
1/8/2023 1:45:00 PM 3.93 39.074 0.064 13.03 3.86 13.12
1/8/2023 2:00:00 PM 3.97 39.146 0.063 13.02 3.9 13.1
1/8/2023 2:15:00 PM 3.99 39.182 0.063 13.02 3.84 13.1
1/8/2023 2:30:00 PM 4.01 39.218 0.063 13.01 3.62 13.08
1/8/2023 2:45:00 PM 4.02 39.236 0.063 13.01 3.99 13.07
1/8/2023 3:00:00 PM 4.03 39.254 0.063 13.01 4.1 13.06
1/8/2023 3:15:00 PM 4.02 39.236 0.063 13.01 3.7 13.05
1/8/2023 3:30:00 PM 4.03 39.254 0.063 13.01 3.79 13.03
1/8/2023 3:45:00 PM 4.03 39.254 0.063 13.01 3.72 13.02
1/8/2023 4:00:00 PM 4.02 39.236 0.063 13.01 3.79 13.01
1/8/2023 4:15:00 PM 4.01 39.218 0.064 13.01 3.61 13
1/8/2023 4:30:00 PM 4.01 39.218 0.064 13.01 3.5 12.98
1/8/2023 4:45:00 PM 3.99 39.182 0.064 13.01 3.76 12.96
1/8/2023 5:00:00 PM 3.97 39.146 0.063 13.01 3.65 12.94
1/8/2023 5:15:00 PM 3.96 39.128 0.064 13.01 3.68 12.92
1/8/2023 5:30:00 PM 3.95 39.11 0.064 13.01 3.8 12.9
1/8/2023 5:45:00 PM 3.92 39.056 0.064 13.02 3.87 12.88
1/8/2023 6:00:00 PM 3.88 38.984 0.064 13.02 3.87 12.88
1/8/2023 6:15:00 PM 3.84 38.912 0.064 13.02 3.75 12.87
1/8/2023 6:30:00 PM 3.82 38.876 0.064 13.02 3.75 12.86
1/8/2023 6:45:00 PM 3.79 38.822 0.064 13.03 4.16 12.86
1/8/2023 7:00:00 PM 3.77 38.786 0.064 13.03 4.03 12.86
1/8/2023 7:15:00 PM 3.74 38.732 0.064 13.03 3.85 12.86
1/8/2023 7:30:00 PM 3.72 38.696 0.064 13.03 3.98 12.86
1/8/2023 7:45:00 PM 3.7 38.66 0.064 13.04 3.78 12.86
1/8/2023 8:00:00 PM 3.68 38.624 0.064 13.04 3.91 12.87
1/8/2023 8:15:00 PM 3.66 38.588 0.064 13.05 3.92 12.87
1/8/2023 8:30:00 PM 3.63 38.534 0.064 13.05 3.75 12.87
1/8/2023 8:45:00 PM 3.6 38.48 0.064 13.05 3.85 12.87
1/8/2023 9:00:00 PM 3.57 38.426 0.064 13.06 3.77 12.88
1/8/2023 9:15:00 PM 3.53 38.354 0.064 13.06 3.65 12.88
1/8/2023 9:30:00 PM 3.5 38.3 0.064 13.06 3.78 12.88
1/8/2023 9:45:00 PM 3.46 38.228 0.064 13.07 3.73 12.89
1/8/2023 10:00:00 PM 3.44 38.192 0.064 13.08 3.56 12.9
1/8/2023 10:15:00 PM 3.41 38.138 0.064 13.07 3.66 12.9
1/8/2023 10:30:00 PM 3.37 38.066 0.064 13.07 3.69 12.91
1/8/2023 10:45:00 PM 3.34 38.012 0.064 13.07 3.62 12.92
1/8/2023 11:00:00 PM 3.33 37.994 0.064 13.08 3.61 12.93
1/8/2023 11:15:00 PM 3.32 37.976 0.064 13.08 3.62 12.94
1/8/2023 11:30:00 PM 3.3 37.94 0.064 13.08 3.57 12.95
1/8/2023 11:45:00 PM 3.28 37.904 0.064 13.08 3.77 12.95
1/9/2023 12:00:00 AM 3.27 37.886 0.064 13.08 3.76 12.95
1/9/2023 12:15:00 AM 3.26 37.868 0.064 13.08 3.53 12.96
1/9/2023 12:30:00 AM 3.24 37.832 0.064 13.09 3.55 12.96
1/9/2023 12:45:00 AM 3.23 37.814 0.064 13.09 3.69 12.97
1/9/2023 1:00:00 AM 3.22 37.796 0.064 13.09 3.72 12.97
1/9/2023 1:15:00 AM 3.2 37.76 0.064 13.09 3.59 12.98
1/9/2023 1:30:00 AM 3.19 37.742 0.064 13.09 3.52 12.98
1/9/2023 1:45:00 AM 3.17 37.706 0.064 13.08 3.74 12.98
1/9/2023 2:00:00 AM 3.15 37.67 0.064 13.09 5.57 12.99
1/9/2023 2:15:00 AM 3.12 37.616 0.064 13.09 3.71 12.99
1/9/2023 2:30:00 AM 3.1 37.58 0.064 13.1 3.53 13
1/9/2023 2:45:00 AM 3.07 37.526 0.064 13.11 3.74 13.01
1/9/2023 3:00:00 AM 3.04 37.472 0.064 13.12 3.37 13.01
1/9/2023 3:15:00 AM 3 37.4 0.064 13.12 3.67 13.03
1/9/2023 3:30:00 AM 2.98 37.364 0.064 13.13 3.6 13.03
1/9/2023 3:45:00 AM 2.96 37.328 0.064 13.13 3.65 13.04
1/9/2023 4:00:00 AM 2.95 37.31 0.064 13.12 3.52 13.05
1/9/2023 4:15:00 AM 2.94 37.292 0.065 13.13 3.5 13.05
1/9/2023 4:30:00 AM 2.92 37.256 0.065 13.13 3.52 13.06
1/9/2023 4:45:00 AM 2.92 37.256 0.065 13.13 3.45 13.07
1/9/2023 5:00:00 AM 2.91 37.238 0.065 13.13 3.44 13.07
1/9/2023 5:15:00 AM 2.9 37.22 0.065 13.13 3.25 13.08
1/9/2023 5:30:00 AM 2.89 37.202 0.065 13.13 3.42 13.08
1/9/2023 5:45:00 AM 2.88 37.184 0.065 13.13 3.43 13.09
1/9/2023 6:00:00 AM 2.88 37.184 0.065 13.14 3.52 13.09
1/9/2023 6:15:00 AM 2.87 37.166 0.065 13.14 3.38 13.1
1/9/2023 6:30:00 AM 2.86 37.148 0.065 13.14 3.41 13.11
1/9/2023 6:45:00 AM 2.85 37.13 0.065 13.14 3.41 13.11
1/9/2023 7:00:00 AM 2.83 37.094 0.065 13.15 3.53 13.12
1/9/2023 7:15:00 AM 2.82 37.076 0.065 13.15 3.8 13.12
1/9/2023 7:30:00 AM 2.8 37.04 0.065 13.16 3.83 13.13
1/9/2023 7:45:00 AM 2.78 37.004 0.065 13.16 3.55 13.14
1/9/2023 8:00:00 AM 2.77 36.986 0.065 13.16 3.47 13.14
1/9/2023 8:15:00 AM 2.76 36.968 0.065 13.16 3.37 13.16
1/9/2023 8:30:00 AM 2.74 36.932 0.065 13.16 3.3 13.17
1/9/2023 8:45:00 AM 2.73 36.914 0.065 13.16 3.4 13.2
1/9/2023 9:00:00 AM 2.72 36.896 0.065 13.16 3.33 13.21
1/9/2023 9:15:00 AM 2.71 36.878 0.065 13.16 3.31 13.23
1/9/2023 9:30:00 AM 2.72 36.896 0.065 13.16 3.32 13.26
1/9/2023 9:45:00 AM 2.73 36.914 0.065 13.16 3.5 13.29
1/9/2023 10:00:00 AM 2.74 36.932 0.065 13.16 3.26 13.31
1/9/2023 10:15:00 AM 2.77 36.986 0.065 13.15 3.27 13.32
1/9/2023 10:30:00 AM 2.8 37.04 0.065 13.15 3.24 13.34
1/9/2023 10:45:00 AM 2.86 37.148 0.065 13.14 3.23 13.35
1/9/2023 11:00:00 AM 2.86 37.148 0.065 13.14 3.37 13.36
1/9/2023 11:15:00 AM 2.91 37.238 0.065 13.13 3.23 13.36
1/9/2023 11:30:00 AM 2.94 37.292 0.065 13.13 3.48 13.36
1/9/2023 11:45:00 AM 2.95 37.31 0.065 13.13 3.17 13.35
1/9/2023 12:00:00 PM 2.95 37.31 0.065 13.13 3.18 13.36
1/9/2023 12:15:00 PM 2.96 37.328 0.065 13.13 3.18 13.35
1/9/2023 12:30:00 PM 3 37.4 0.065 13.12 3.33 13.35
1/9/2023 12:45:00 PM 3.04 37.472 0.065 13.12 3.15 13.34
1/9/2023 1:00:00 PM 3.07 37.526 0.065 13.11 3.18 13.33
1/9/2023 1:15:00 PM 3.09 37.562 0.065 13.11 3.3 13.32
1/9/2023 1:30:00 PM 3.11 37.598 0.065 13.11 3.24 13.31
1/9/2023 1:45:00 PM 3.14 37.652 0.065 13.1 3.34 13.29
1/9/2023 2:00:00 PM 3.15 37.67 0.065 13.1 3.14 13.28
1/9/2023 2:15:00 PM 3.17 37.706 0.065 13.1 3.11 13.27
1/9/2023 2:30:00 PM 3.18 37.724 0.065 13.09 3.23 13.25
1/9/2023 2:45:00 PM 3.2 37.76 0.065 13.09 3.14 13.24
1/9/2023 3:00:00 PM 3.21 37.778 0.065 13.09 3.42 13.23
1/9/2023 3:15:00 PM 3.22 37.796 0.065 13.09 3.12 13.21
1/9/2023 3:30:00 PM 3.23 37.814 0.065 13.09 3.21 13.2
1/9/2023 3:45:00 PM 3.23 37.814 0.065 13.09 3.25 13.18
1/9/2023 4:00:00 PM 3.24 37.832 0.065 13.1 3.2 13.16
1/9/2023 4:15:00 PM 3.25 37.85 0.065 13.09 3.33 13.15
1/9/2023 4:30:00 PM 3.25 37.85 0.065 13.1 3.19 13.14
1/9/2023 4:45:00 PM 3.24 37.832 0.065 13.1 3.29 13.14
1/9/2023 5:00:00 PM 3.21 37.778 0.066 13.09 3.06 13.12
1/9/2023 5:15:00 PM 3.18 37.724 0.066 13.1 3.15 13.11
1/9/2023 5:30:00 PM 3.13 37.634 0.066 13.11 3.35 13.1
1/9/2023 5:45:00 PM 3.09 37.562 0.066 13.12 3.45 13.1
1/9/2023 6:00:00 PM 3.04 37.472 0.066 13.12 3.41 13.11
1/9/2023 6:15:00 PM 2.99 37.382 0.066 13.13 3.25 13.11
1/9/2023 6:30:00 PM 2.93 37.274 0.066 13.14 3.33 13.11
1/9/2023 6:45:00 PM 2.88 37.184 0.066 13.14 3.47 13.12
1/9/2023 7:00:00 PM 2.84 37.112 0.066 13.15 3.38 13.13
1/9/2023 7:15:00 PM 2.79 37.022 0.066 13.16 3.3 13.14
1/9/2023 7:30:00 PM 2.75 36.95 0.066 13.17 3.35 13.14
1/9/2023 7:45:00 PM 2.72 36.896 0.066 13.17 3.33 13.15
1/9/2023 8:00:00 PM 2.68 36.824 0.066 13.18 3.28 13.16
1/9/2023 8:15:00 PM 2.65 36.77 0.066 13.19 3.38 13.17
1/9/2023 8:30:00 PM 2.64 36.752 0.066 13.19 3.3 13.18
1/9/2023 8:45:00 PM 2.64 36.752 0.066 13.19 3.23 13.18
1/9/2023 9:00:00 PM 2.61 36.698 0.066 13.19 3.3 13.18
1/9/2023 9:15:00 PM 2.58 36.644 0.066 13.19 3.19 13.19
1/9/2023 9:30:00 PM 2.57 36.626 0.066 13.19 3.34 13.2
1/9/2023 9:45:00 PM 2.59 36.662 0.066 13.19 3.15 13.2
1/9/2023 10:00:00 PM 2.59 36.662 0.066 13.18 3.4 13.21
1/9/2023 10:15:00 PM 2.6 36.68 0.066 13.18 3.36 13.21
1/9/2023 10:30:00 PM 2.59 36.662 0.066 13.18 3.29 13.22
1/9/2023 10:45:00 PM 2.59 36.662 0.066 13.18 3.18 13.23
1/9/2023 11:00:00 PM 2.59 36.662 0.066 13.18 3.33 13.23
1/9/2023 11:15:00 PM 2.58 36.644 0.066 13.17 3.18 13.23
1/9/2023 11:30:00 PM 2.57 36.626 0.066 13.18 3.21 13.24
1/9/2023 11:45:00 PM 2.56 36.608 0.066 13.17 3.26 13.24
1/10/2023 12:00:00 AM 2.56 36.608 0.066 13.17 3.26 13.24
1/10/2023 12:15:00 AM 2.55 36.59 0.066 13.17 3.2 13.25
1/10/2023 12:30:00 AM 2.55 36.59 0.066 13.17 3.17 13.25
1/10/2023 12:45:00 AM 2.54 36.572 0.066 13.17 3.17 13.25
1/10/2023 1:00:00 AM 2.54 36.572 0.066 13.17 3.13 13.25
1/10/2023 1:15:00 AM 2.53 36.554 0.066 13.17 3.28 13.25
1/10/2023 1:30:00 AM 2.53 36.554 0.066 13.17 3.13 13.25
1/10/2023 1:45:00 AM 2.54 36.572 0.066 13.16 3.16 13.25
1/10/2023 2:00:00 AM 2.54 36.572 0.066 13.16 3.2 13.25
1/10/2023 2:15:00 AM 2.54 36.572 0.066 13.16 3.28 13.25
1/10/2023 2:30:00 AM 2.54 36.572 0.066 13.17 3.29 13.25
1/10/2023 2:45:00 AM 2.54 36.572 0.066 13.17 3.25 13.25
1/10/2023 3:00:00 AM 2.54 36.572 0.066 13.17 3.3 13.25
1/10/2023 3:15:00 AM 2.54 36.572 0.066 13.17 3.24 13.25
1/10/2023 3:30:00 AM 2.53 36.554 0.066 13.17 3.1 13.26
1/10/2023 3:45:00 AM 2.53 36.554 0.066 13.17 3.1 13.26
1/10/2023 4:00:00 AM 2.53 36.554 0.066 13.17 3.15 13.26
1/10/2023 4:15:00 AM 2.53 36.554 0.066 13.17 3.19 13.26
1/10/2023 4:30:00 AM 2.53 36.554 0.066 13.17 3.83 13.26
1/10/2023 4:45:00 AM 2.53 36.554 0.066 13.18 3.37 13.26
1/10/2023 5:00:00 AM 2.52 36.536 0.066 13.18 3.03 13.27
1/10/2023 5:15:00 AM 2.52 36.536 0.066 13.18 3.21 13.27
1/10/2023 5:30:00 AM 2.52 36.536 0.066 13.17 3.14 13.26
1/10/2023 5:45:00 AM 2.52 36.536 0.066 13.17 3.19 13.27
1/10/2023 6:00:00 AM 2.52 36.536 0.066 13.18 3.2 13.27
1/10/2023 6:15:00 AM 2.52 36.536 0.066 13.17 3.28 13.27
1/10/2023 6:30:00 AM 2.52 36.536 0.066 13.17 3.29 13.26
1/10/2023 6:45:00 AM 2.52 36.536 0.066 13.17 3.38 13.26
1/10/2023 7:00:00 AM 2.53 36.554 0.067 13.17 3.16 13.26
1/10/2023 7:15:00 AM 2.53 36.554 0.066 13.17 3.21 13.26
1/10/2023 7:30:00 AM 2.53 36.554 0.066 13.18 3.16 13.27
1/10/2023 7:45:00 AM 2.53 36.554 0.067 13.18 3.08 13.26
1/10/2023 8:00:00 AM 2.52 36.536 0.067 13.18 3.21 13.27
1/10/2023 8:15:00 AM 2.52 36.536 0.067 13.19 3.23 13.28
1/10/2023 8:30:00 AM 2.51 36.518 0.067 13.19 2.99 13.29
1/10/2023 8:45:00 AM 2.51 36.518 0.066 13.2 3.28 13.32
1/10/2023 9:00:00 AM 2.51 36.518 0.066 13.2 3.04 13.35
1/10/2023 9:15:00 AM 2.54 36.572 0.066 13.2 3.01 13.37
1/10/2023 9:30:00 AM 2.57 36.626 0.067 13.2 3.08 13.38
1/10/2023 9:45:00 AM 2.61 36.698 0.067 13.2 3.14 13.4
1/10/2023 10:00:00 AM 2.64 36.752 0.067 13.2 2.99 13.41
1/10/2023 10:15:00 AM 2.68 36.824 0.067 13.2 2.94 13.41
1/10/2023 10:30:00 AM 2.71 36.878 0.066 13.19 3.13 13.42
1/10/2023 10:45:00 AM 2.76 36.968 0.066 13.19 2.9 13.42
1/10/2023 11:00:00 AM 2.79 37.022 0.066 13.18 3.08 13.42
1/10/2023 11:15:00 AM 2.83 37.094 0.067 13.18 3.04 13.41
1/10/2023 11:30:00 AM 2.88 37.184 0.066 13.18 2.86 13.41
1/10/2023 11:45:00 AM 2.94 37.292 0.066 13.37 3.04 13.4
1/10/2023 12:00:00 PM 3 37.4 0.066 13.59 2.93 13.39
1/10/2023 12:15:00 PM 3.05 37.49 0.066 13.74 2.9 13.38
1/10/2023 12:30:00 PM 3.11 37.598 0.067 13.86 3.07 13.36
1/10/2023 12:45:00 PM 3.17 37.706 0.066 13.96 3.17 13.35
1/10/2023 1:00:00 PM 3.23 37.814 0.066 14.05 2.96 13.33
1/10/2023 1:15:00 PM 3.28 37.904 0.066 14.12 3.13 13.32
1/10/2023 1:30:00 PM 3.32 37.976 0.066 14.19 3.05 13.29
1/10/2023 1:45:00 PM 3.35 38.03 0.066 14.28 2.97 13.28
1/10/2023 2:00:00 PM 3.37 38.066 0.066 14.3 2.85 13.26
1/10/2023 2:15:00 PM 3.39 38.102 0.066 14.31 3 13.24
1/10/2023 2:30:00 PM 3.39 38.102 0.066 14.33 2.92 13.22
1/10/2023 2:45:00 PM 3.42 38.156 0.066 14.35 2.87 13.21
1/10/2023 3:00:00 PM 3.43 38.174 0.066 14.37 2.87 13.2
1/10/2023 3:15:00 PM 3.45 38.21 0.066 14.39 2.85 13.18
1/10/2023 3:30:00 PM 3.47 38.246 0.066 14.4 2.93 13.17
1/10/2023 3:45:00 PM 3.48 38.264 0.066 14.41 3.06 13.15
1/10/2023 4:00:00 PM 3.49 38.282 0.066 14.43 2.96 13.13
1/10/2023 4:15:00 PM 3.49 38.282 0.066 14.43 2.97 13.12
1/10/2023 4:30:00 PM 3.5 38.3 0.066 14.44 2.87 13.12
1/10/2023 4:45:00 PM 3.49 38.282 0.066 14.46 3.01 13.1
1/10/2023 5:00:00 PM 3.47 38.246 0.067 14.48 3.08 13.08
1/10/2023 5:15:00 PM 3.44 38.192 0.067 14.5 2.91 13.06
1/10/2023 5:30:00 PM 3.41 38.138 0.067 14.52 2.96 13.04
1/10/2023 5:45:00 PM 3.39 38.102 0.067 14.53 3.01 13.03
1/10/2023 6:00:00 PM 3.37 38.066 0.067 14.54 3.01 13.02
1/10/2023 6:15:00 PM 3.35 38.03 0.067 14.55 2.96 13.01
1/10/2023 6:30:00 PM 3.33 37.994 0.067 14.55 3.04 13.01
1/10/2023 6:45:00 PM 3.32 37.976 0.067 14.56 3.05 13
1/10/2023 7:00:00 PM 3.3 37.94 0.067 14.58 3.23 12.99
1/10/2023 7:15:00 PM 3.29 37.922 0.067 14.59 3.11 13
1/10/2023 7:30:00 PM 3.27 37.886 0.067 14.6 3.32 13
1/10/2023 7:45:00 PM 3.26 37.868 0.067 14.6 3.11 12.99
1/10/2023 8:00:00 PM 3.24 37.832 0.067 14.61 3.16 13
1/10/2023 8:15:00 PM 3.23 37.814 0.067 14.61 3.01 13
1/10/2023 8:30:00 PM 3.21 37.778 0.067 14.61 3.08 13.01
1/10/2023 8:45:00 PM 3.2 37.76 0.067 14.62 2.98 13.01
1/10/2023 9:00:00 PM 3.18 37.724 0.067 14.63 3.02 13.02
1/10/2023 9:15:00 PM 3.16 37.688 0.067 14.64 2.91 13.02
1/10/2023 9:30:00 PM 3.15 37.67 0.067 14.65 3 13.03
1/10/2023 9:45:00 PM 3.12 37.616 0.067 14.66 3.35 13.04
1/10/2023 10:00:00 PM 3.08 37.544 0.067 14.67 2.96 13.05
1/10/2023 10:15:00 PM 3.05 37.49 0.067 14.68 3.07 13.06
1/10/2023 10:30:00 PM 3.02 37.436 0.067 14.69 3.05 13.06
1/10/2023 10:45:00 PM 3 37.4 0.067 14.69 2.95 13.07
1/10/2023 11:00:00 PM 2.98 37.364 0.067 14.7 3.06 13.09
1/10/2023 11:15:00 PM 2.97 37.346 0.067 14.71 2.86 13.09
1/10/2023 11:30:00 PM 2.95 37.31 0.067 14.71 3.04 13.1
1/10/2023 11:45:00 PM 2.94 37.292 0.067 14.71 2.89 13.1
1/11/2023 12:00:00 AM 2.93 37.274 0.067 14.72 2.95 13.11
1/11/2023 12:15:00 AM 2.91 37.238 0.067 14.72 2.96 13.12
1/11/2023 12:30:00 AM 2.9 37.22 0.067 14.73 3.11 13.12
1/11/2023 12:45:00 AM 2.89 37.202 0.067 14.72 2.94 13.12
1/11/2023 1:00:00 AM 2.89 37.202 0.067 14.71 3.06 13.13
1/11/2023 1:15:00 AM 2.88 37.184 0.067 14.71 2.89 13.13
1/11/2023 1:30:00 AM 2.87 37.166 0.067 14.7 2.93 13.14
1/11/2023 1:45:00 AM 2.87 37.166 0.067 14.7 2.95 13.14
1/11/2023 2:00:00 AM 2.86 37.148 0.067 14.69 2.79 13.14
1/11/2023 2:15:00 AM 2.86 37.148 0.068 14.69 2.9 13.15
1/11/2023 2:30:00 AM 2.85 37.13 0.067 14.68 2.91 13.15
1/11/2023 2:45:00 AM 2.84 37.112 0.068 14.68 2.77 13.16
1/11/2023 3:00:00 AM 2.84 37.112 0.067 14.69 2.91 13.16
1/11/2023 3:15:00 AM 2.83 37.094 0.068 14.7 2.85 13.16
1/11/2023 3:30:00 AM 2.82 37.076 0.068 14.71 2.79 13.16
1/11/2023 3:45:00 AM 2.82 37.076 0.068 14.71 2.81 13.17
1/11/2023 4:00:00 AM 2.81 37.058 0.068 14.7 2.78 13.18
1/11/2023 4:15:00 AM 2.8 37.04 0.068 14.69 2.74 13.17
1/11/2023 4:30:00 AM 2.78 37.004 0.068 14.68 2.76 13.18
1/11/2023 4:45:00 AM 2.75 36.95 0.068 14.68 2.82 13.18
1/11/2023 5:00:00 AM 2.72 36.896 0.068 14.68 2.78 13.19
1/11/2023 5:15:00 AM 2.69 36.842 0.068 14.67 2.68 13.2
1/11/2023 5:30:00 AM 2.65 36.77 0.068 14.67 2.83 13.2
1/11/2023 5:45:00 AM 2.62 36.716 0.068 14.66 2.77 13.21
1/11/2023 6:00:00 AM 2.58 36.644 0.068 14.66 2.69 13.23
1/11/2023 6:15:00 AM 2.55 36.59 0.068 14.68 2.99 13.24
1/11/2023 6:30:00 AM 2.51 36.518 0.068 14.67 2.7 13.25
1/11/2023 6:45:00 AM 2.48 36.464 0.068 14.67 2.71 13.26
1/11/2023 7:00:00 AM 2.44 36.392 0.068 14.66 2.67 13.28
1/11/2023 7:15:00 AM 2.4 36.32 0.068 14.67 2.6 13.29
1/11/2023 7:30:00 AM 2.37 36.266 0.068 14.67 2.72 13.3
1/11/2023 7:45:00 AM 2.34 36.212 0.068 14.67 2.65 13.32
1/11/2023 8:00:00 AM 2.32 36.176 0.068 14.68 2.72 13.35
1/11/2023 8:15:00 AM 2.3 36.14 0.068 14.68 2.59 13.37
1/11/2023 8:30:00 AM 2.29 36.122 0.068 14.68 2.79 13.4
1/11/2023 8:45:00 AM 2.29 36.122 0.068 14.67 2.67 13.43
1/11/2023 9:00:00 AM 2.29 36.122 0.068 14.67 2.68 13.46
1/11/2023 9:15:00 AM 2.3 36.14 0.068 14.66 2.7 13.48
1/11/2023 9:30:00 AM 2.32 36.176 0.068 14.66 2.66 13.49
1/11/2023 9:45:00 AM 2.35 36.23 0.068 14.65 2.6 13.51
1/11/2023 10:00:00 AM 2.37 36.266 0.068 14.64 2.57 13.52
1/11/2023 10:15:00 AM 2.41 36.338 0.068 14.63 2.62 13.54
1/11/2023 10:30:00 AM 2.45 36.41 0.068 14.63 2.76 13.55
1/11/2023 10:45:00 AM 2.49 36.482 0.068 14.62 2.54 13.55
1/11/2023 11:00:00 AM 2.53 36.554 0.068 14.61 2.66 13.55
1/11/2023 11:15:00 AM 2.58 36.644 0.068 14.59 2.69 13.54
1/11/2023 11:30:00 AM 2.64 36.752 0.068 14.57 2.57 13.53
1/11/2023 11:45:00 AM 2.72 36.896 0.068 14.56 2.61 13.52
1/11/2023 12:00:00 PM 2.79 37.022 0.068 14.54 2.63 13.51
1/11/2023 12:15:00 PM 2.84 37.112 0.068 14.52 2.63 13.49
1/11/2023 12:30:00 PM 2.87 37.166 0.068 14.51 2.72 13.48
1/11/2023 12:45:00 PM 2.93 37.274 0.068 14.49 2.61 13.46
1/11/2023 1:00:00 PM 2.99 37.382 0.068 14.47 2.51 13.44
1/11/2023 1:15:00 PM 3.05 37.49 0.068 14.46 2.56 13.42
1/11/2023 1:30:00 PM 3.1 37.58 0.068 14.44 2.59 13.4
1/11/2023 1:45:00 PM 3.18 37.724 0.068 14.42 2.57 13.38
1/11/2023 2:00:00 PM 3.23 37.814 0.068 14.4 2.63 13.35
1/11/2023 2:15:00 PM 3.26 37.868 0.068 14.39 2.65 13.33
1/11/2023 2:30:00 PM 3.31 37.958 0.068 14.37 2.72 13.31
1/11/2023 2:45:00 PM 3.35 38.03 0.068 14.36 2.7 13.3
1/11/2023 3:00:00 PM 3.38 38.084 0.068 14.35 2.69 13.26
1/11/2023 3:15:00 PM 3.4 38.12 0.068 14.34 2.81 13.25
1/11/2023 3:30:00 PM 3.42 38.156 0.068 14.33 2.69 13.23
1/11/2023 3:45:00 PM 3.45 38.21 0.068 14.32 2.89 13.22
1/11/2023 4:00:00 PM 3.46 38.228 0.068 14.31 2.81 13.2
1/11/2023 4:15:00 PM 3.47 38.246 0.069 14.3 2.7 13.18
1/11/2023 4:30:00 PM 3.46 38.228 0.069 14.29 2.73 13.17
1/11/2023 4:45:00 PM 3.45 38.21 0.069 14.29 2.63 13.15
1/11/2023 5:00:00 PM 3.43 38.174 0.068 14.28 2.61 13.12
1/11/2023 5:15:00 PM 3.39 38.102 0.068 14.28 2.6 13.1
1/11/2023 5:30:00 PM 3.35 38.03 0.068 14.28 2.64 13.08
1/11/2023 5:45:00 PM 3.32 37.976 0.068 14.28 2.67 13.06
1/11/2023 6:00:00 PM 3.29 37.922 0.069 14.28 2.81 13.05
1/11/2023 6:15:00 PM 3.26 37.868 0.069 14.28 2.83 13.04
1/11/2023 6:30:00 PM 3.25 37.85 0.069 14.28 2.66 13.04
1/11/2023 6:45:00 PM 3.24 37.832 0.069 14.27 2.72 13.04
1/11/2023 7:00:00 PM 3.22 37.796 0.068 14.27 2.74 13.03
1/11/2023 7:15:00 PM 3.2 37.76 0.068 14.26 2.84 13.04
1/11/2023 7:30:00 PM 3.18 37.724 0.068 14.26 2.65 13.04
1/11/2023 7:45:00 PM 3.16 37.688 0.068 14.25 2.68 13.04
1/11/2023 8:00:00 PM 3.13 37.634 0.068 14.26 2.7 13.05
1/11/2023 8:15:00 PM 3.1 37.58 0.068 14.25 2.7 13.05
1/11/2023 8:30:00 PM 3.06 37.508 0.068 14.25 2.68 13.06
1/11/2023 8:45:00 PM 3.04 37.472 0.068 14.25 2.81 13.07
1/11/2023 9:00:00 PM 3.01 37.418 0.068 14.25 2.56 13.07
1/11/2023 9:15:00 PM 2.98 37.364 0.069 14.25 2.75 13.07
1/11/2023 9:30:00 PM 2.96 37.328 0.069 14.25 2.73 13.08
1/11/2023 9:45:00 PM 2.93 37.274 0.069 14.25 2.83 13.09
1/11/2023 10:00:00 PM 2.91 37.238 0.069 14.26 2.69 13.09
1/11/2023 10:15:00 PM 2.88 37.184 0.069 14.26 2.65 13.11
1/11/2023 10:30:00 PM 2.87 37.166 0.069 14.25 2.83 13.11
1/11/2023 10:45:00 PM 2.86 37.148 0.069 14.26 2.71 13.11
1/11/2023 11:00:00 PM 2.85 37.13 0.069 14.25 2.71 13.12
1/11/2023 11:15:00 PM 2.84 37.112 0.069 14.25 2.8 13.12
1/11/2023 11:30:00 PM 2.82 37.076 0.069 14.25 2.71 13.13
1/11/2023 11:45:00 PM 2.81 37.058 0.069 14.25 2.74 13.13
1/12/2023 12:00:00 AM 2.81 37.058 0.069 14.24 2.72 13.13
1/12/2023 12:15:00 AM 2.8 37.04 0.069 14.24 2.65 13.13
1/12/2023 12:30:00 AM 2.8 37.04 0.069 14.23 2.64 13.13
1/12/2023 12:45:00 AM 2.81 37.058 0.069 14.23 2.76 13.14
1/12/2023 1:00:00 AM 2.81 37.058 0.069 14.22 2.74 13.14
1/12/2023 1:15:00 AM 2.82 37.076 0.069 14.22 2.54 13.14
1/12/2023 1:30:00 AM 2.82 37.076 0.069 14.22 2.68 13.13
1/12/2023 1:45:00 AM 2.83 37.094 0.069 14.21 2.66 13.13
1/12/2023 2:00:00 AM 2.83 37.094 0.069 14.22 2.61 13.13
1/12/2023 2:15:00 AM 2.84 37.112 0.069 14.22 2.67 13.13
1/12/2023 2:30:00 AM 2.84 37.112 0.069 14.22 2.52 13.13
1/12/2023 2:45:00 AM 2.85 37.13 0.069 14.22 2.65 13.12
1/12/2023 3:00:00 AM 2.86 37.148 0.069 14.22 2.68 13.12
1/12/2023 3:15:00 AM 2.87 37.166 0.069 14.22 2.91 13.12
1/12/2023 3:30:00 AM 2.88 37.184 0.069 14.31 2.67 13.11
1/12/2023 3:45:00 AM 2.88 37.184 0.069 14.29 2.66 13.11
1/12/2023 4:00:00 AM 2.89 37.202 0.069 14.27 2.82 13.1
1/12/2023 4:15:00 AM 2.9 37.22 0.069 14.24 2.74 13.1
1/12/2023 4:30:00 AM 2.91 37.238 0.069 14.22 2.87 13.09
1/12/2023 4:45:00 AM 2.92 37.256 0.069 14.2 3.05 13.09
1/12/2023 5:00:00 AM 2.93 37.274 0.069 14.19 2.91 13.09
1/12/2023 5:15:00 AM 2.94 37.292 0.069 14.17 2.86 13.08
1/12/2023 5:30:00 AM 2.95 37.31 0.069 14.16 2.71 13.08
1/12/2023 5:45:00 AM 2.96 37.328 0.069 14.14 2.72 13.07
1/12/2023 6:00:00 AM 2.97 37.346 0.069 14.13 2.8 13.07
1/12/2023 6:15:00 AM 2.98 37.364 0.069 14.11 2.7 13.07
1/12/2023 6:30:00 AM 2.99 37.382 0.069 14.1 2.9 13.07
1/12/2023 6:45:00 AM 3 37.4 0.069 14.09 2.84 13.06
1/12/2023 7:00:00 AM 3.01 37.418 0.069 14.08 2.73 13.06
1/12/2023 7:15:00 AM 3.02 37.436 0.069 14.07 2.73 13.05
1/12/2023 7:30:00 AM 3.03 37.454 0.069 14.05 2.93 13.05
1/12/2023 7:45:00 AM 3.04 37.472 0.07 14.04 2.79 13.05
1/12/2023 8:00:00 AM 3.05 37.49 0.07 14.03 2.81 13.04
1/12/2023 8:15:00 AM 3.06 37.508 0.07 14.02 2.86 13.05
1/12/2023 8:30:00 AM 3.07 37.526 0.07 14.01 2.77 13.05
1/12/2023 8:45:00 AM 3.08 37.544 0.07 14 2.82 13.06
1/12/2023 9:00:00 AM 3.1 37.58 0.07 13.99 2.74 13.06
1/12/2023 9:15:00 AM 3.11 37.598 0.07 13.99 2.76 13.06
1/12/2023 9:30:00 AM 3.13 37.634 0.07 13.98 2.68 13.07
1/12/2023 9:45:00 AM 3.14 37.652 0.07 13.98 2.71 13.07
1/12/2023 10:00:00 AM 3.16 37.688 0.07 13.97 2.58 13.08
1/12/2023 10:15:00 AM 3.18 37.724 0.07 13.96 2.61 13.08
1/12/2023 10:30:00 AM 3.2 37.76 0.07 13.95 2.56 13.09
1/12/2023 10:45:00 AM 3.22 37.796 0.07 13.93 2.57 13.09
1/12/2023 11:00:00 AM 3.24 37.832 0.07 13.92 2.62 13.09
1/12/2023 11:15:00 AM 3.26 37.868 0.07 13.91 2.68 13.09
1/12/2023 11:30:00 AM 3.29 37.922 0.07 13.9 2.75 13.09
1/12/2023 11:45:00 AM 3.31 37.958 0.07 13.89 2.7 13.1
1/12/2023 12:00:00 PM 3.33 37.994 0.07 13.93 2.71 13.09
1/12/2023 12:15:00 PM 3.35 38.03 0.07 13.87 2.65 13.08
1/12/2023 12:30:00 PM 3.38 38.084 0.07 13.86 2.63 13.08
1/12/2023 12:45:00 PM 3.41 38.138 0.07 13.86 2.59 13.08
1/12/2023 1:00:00 PM 3.44 38.192 0.07 13.85 2.56 13.07
1/12/2023 1:15:00 PM 3.45 38.21 0.07 13.83 2.58 13.06
1/12/2023 1:30:00 PM 3.47 38.246 0.07 13.82 2.53 13.04
1/12/2023 1:45:00 PM 3.49 38.282 0.07 13.83 2.71 13.02
1/12/2023 2:00:00 PM 3.5 38.3 0.07 13.81 2.64 13.01
1/12/2023 2:15:00 PM 3.52 38.336 0.07 13.8 2.72 13
1/12/2023 2:30:00 PM 3.53 38.354 0.07 13.83 3.1 12.99
1/12/2023 2:45:00 PM 3.54 38.372 0.069 13.79 3.37 12.97
1/12/2023 3:00:00 PM 3.56 38.408 0.069 13.79 3.8 12.96
1/12/2023 3:15:00 PM 3.57 38.426 0.069 13.78 4.71 12.93
1/12/2023 3:30:00 PM 3.58 38.444 0.069 13.78 4.64 12.92
1/12/2023 3:45:00 PM 3.59 38.462 0.069 13.77 4.66 12.9
1/12/2023 4:00:00 PM 3.6 38.48 0.069 13.76 4.57 12.89
1/12/2023 4:15:00 PM 3.61 38.498 0.068 13.75 4.17 12.86
1/12/2023 4:30:00 PM 3.62 38.516 0.069 13.75 4.01 12.85
1/12/2023 4:45:00 PM 3.63 38.534 0.069 13.74 4.4 12.83
1/12/2023 5:00:00 PM 3.64 38.552 0.069 13.73 4.49 12.8
1/12/2023 5:15:00 PM 3.65 38.57 0.069 13.73 5.21 12.78
1/12/2023 5:30:00 PM 3.66 38.588 0.07 13.72 5.42 12.76
1/12/2023 5:45:00 PM 3.67 38.606 0.07 13.72 5.71 12.74
1/12/2023 6:00:00 PM 3.68 38.624 0.07 13.71 6.29 12.72
1/12/2023 6:15:00 PM 3.69 38.642 0.07 13.71 6.17 12.72
1/12/2023 6:30:00 PM 3.7 38.66 0.07 13.71 5.97 12.71
1/12/2023 6:45:00 PM 3.71 38.678 0.07 13.71 6.16 12.69
1/12/2023 7:00:00 PM 3.72 38.696 0.07 13.72 6.01 12.7
1/12/2023 7:15:00 PM 3.73 38.714 0.07 13.72 5.75 12.68
1/12/2023 7:30:00 PM 3.74 38.732 0.07 13.72 5.84 12.68
1/12/2023 7:45:00 PM 3.75 38.75 0.07 13.71 5.31 12.67
1/12/2023 8:00:00 PM 3.76 38.768 0.07 13.71 5.48 12.66
1/12/2023 8:15:00 PM 3.77 38.786 0.07 13.71 5.17 12.65
1/12/2023 8:30:00 PM 3.78 38.804 0.07 13.71 5.21 12.64
1/12/2023 8:45:00 PM 3.79 38.822 0.07 13.71 4.78 12.64
1/12/2023 9:00:00 PM 3.81 38.858 0.071 13.71 4.65 12.63
1/12/2023 9:15:00 PM 3.82 38.876 0.071 13.7 4.88 12.62
1/12/2023 9:30:00 PM 3.83 38.894 0.071 13.7 5.27 12.61
1/12/2023 9:45:00 PM 3.85 38.93 0.071 13.7 5.74 12.6
1/12/2023 10:00:00 PM 3.86 38.948 0.072 13.69 5.15 12.6
1/12/2023 10:15:00 PM 3.87 38.966 0.072 13.68 5.68 12.59
1/12/2023 10:30:00 PM 3.88 38.984 0.073 13.68 5.88 12.57
1/12/2023 10:45:00 PM 3.9 39.02 0.073 13.67 6.06 12.56
1/12/2023 11:00:00 PM 3.91 39.038 0.074 13.66 6.63 12.54
1/12/2023 11:15:00 PM 3.93 39.074 0.074 13.66 6.86 12.54
1/12/2023 11:30:00 PM 3.94 39.092 0.074 13.65 7.19 12.53
1/12/2023 11:45:00 PM 3.95 39.11 0.074 13.65 7.17 12.53
1/13/2023 12:00:00 AM 3.97 39.146 0.074 13.65 7.08 12.53
1/13/2023 12:15:00 AM 3.98 39.164 0.074 13.64 7.62 12.52
1/13/2023 12:30:00 AM 4 39.2 0.074 13.64 7.49 12.52
1/13/2023 12:45:00 AM 4.01 39.218 0.074 13.64 7.17 12.52
1/13/2023 1:00:00 AM 4.02 39.236 0.074 13.64 7.17 12.51
1/13/2023 1:15:00 AM 4.03 39.254 0.074 13.64 7.19 12.51
1/13/2023 1:30:00 AM 4.04 39.272 0.074 13.65 7.38 12.5
1/13/2023 1:45:00 AM 4.04 39.272 0.074 13.65 7.79 12.5
1/13/2023 2:00:00 AM 4.05 39.29 0.074 13.65 7.29 12.5
1/13/2023 2:15:00 AM 4.06 39.308 0.074 13.65 7.55 12.5
1/13/2023 2:30:00 AM 4.07 39.326 0.075 13.65 7.66 12.49
1/13/2023 2:45:00 AM 4.08 39.344 0.075 13.65 7.71 12.49
1/13/2023 3:00:00 AM 4.08 39.344 0.075 13.65 7.65 12.48
1/13/2023 3:15:00 AM 4.09 39.362 0.076 13.66 7.63 12.48
1/13/2023 3:30:00 AM 4.1 39.38 0.076 13.66 8.38 12.48
1/13/2023 3:45:00 AM 4.11 39.398 0.077 13.66 7.93 12.47
1/13/2023 4:00:00 AM 4.11 39.398 0.077 13.66 7.92 12.48
1/13/2023 4:15:00 AM 4.11 39.398 0.078 13.67 8.57 12.47
1/13/2023 4:30:00 AM 4.11 39.398 0.078 13.68 8.29 12.48
1/13/2023 4:45:00 AM 4.11 39.398 0.079 13.7 8.61 12.48
1/13/2023 5:00:00 AM 4.1 39.38 0.08 13.73 9.1 12.48
1/13/2023 5:15:00 AM 4.09 39.362 0.08 13.75 10.72 12.48
1/13/2023 5:30:00 AM 4.08 39.344 0.081 13.77 13.02 12.49
1/13/2023 5:45:00 AM 4.07 39.326 0.081 13.78 13.43 12.5
1/13/2023 6:00:00 AM 4.06 39.308 0.082 13.8 14.13 12.5
1/13/2023 6:15:00 AM 4.04 39.272 0.082 13.81 14.37 12.51
1/13/2023 6:30:00 AM 4.03 39.254 0.082 13.82 15.44 12.51
1/13/2023 6:45:00 AM 4.01 39.218 0.083 13.84 15.32 12.52
1/13/2023 7:00:00 AM 3.99 39.182 0.083 13.86 14.35 12.53
1/13/2023 7:15:00 AM 3.98 39.164 0.083 13.87 16.81 12.54
1/13/2023 7:30:00 AM 3.96 39.128 0.084 13.89 16.09 12.54
1/13/2023 7:45:00 AM 3.94 39.092 0.084 13.9 16.91 12.55
1/13/2023 8:00:00 AM 3.93 39.074 0.085 13.92 17.25 12.56
1/13/2023 8:15:00 AM 3.91 39.038 0.085 13.93 17.48 12.58
1/13/2023 8:30:00 AM 3.89 39.002 0.085 13.94 17.33 12.59
1/13/2023 8:45:00 AM 3.88 38.984 0.086 13.95 17.82 12.61
1/13/2023 9:00:00 AM 3.87 38.966 0.086 13.97 18.38 12.62
1/13/2023 9:15:00 AM 3.85 38.93 0.086 13.98 16.97 12.64
1/13/2023 9:30:00 AM 3.85 38.93 0.086 13.99 15.61 12.67
1/13/2023 9:45:00 AM 3.85 38.93 0.086 14 15.69 12.69
1/13/2023 10:00:00 AM 3.84 38.912 0.086 14 14.35 12.7
1/13/2023 10:15:00 AM 3.82 38.876 0.086 14.01 14.51 12.7
1/13/2023 10:30:00 AM 3.81 38.858 0.086 14.02 13.72 12.72
1/13/2023 10:45:00 AM 3.8 38.84 0.086 14.02 13.12 12.73
1/13/2023 11:00:00 AM 3.79 38.822 0.086 14.03 13.84 12.75
1/13/2023 11:15:00 AM 3.79 38.822 0.086 14.04 12.51 12.76
1/13/2023 11:30:00 AM 3.77 38.786 0.086 14.04 12.55 12.78
1/13/2023 11:45:00 AM 3.76 38.768 0.086 14.05 11.76 12.78
1/13/2023 12:00:00 PM 3.76 38.768 0.087 14.05 11.96 12.8
1/13/2023 12:15:00 PM 3.77 38.786 0.087 14.06 11.45 12.81
1/13/2023 12:30:00 PM 3.76 38.768 0.087 14.06 11.69 12.82
1/13/2023 12:45:00 PM 3.74 38.732 0.088 14.07 11.02 12.82
1/13/2023 1:00:00 PM 3.72 38.696 0.088 14.08 11.89 12.82
1/13/2023 1:15:00 PM 3.7 38.66 0.088 14.08 11.52 12.83
1/13/2023 1:30:00 PM 3.69 38.642 0.088 14.09 11.54 12.84
1/13/2023 1:45:00 PM 3.68 38.624 0.088 14.1 12.17 12.84
1/13/2023 2:00:00 PM 3.67 38.606 0.088 14.11 12.68 12.84
1/13/2023 2:15:00 PM 3.65 38.57 0.088 14.12 12.77 12.85
1/13/2023 2:30:00 PM 3.65 38.57 0.088 14.12 12.45 12.87
1/13/2023 2:45:00 PM 3.64 38.552 0.088 14.13 13.38 12.87
1/13/2023 3:00:00 PM 3.62 38.516 0.088 14.14 13.56 12.87
1/13/2023 3:15:00 PM 3.61 38.498 0.087 14.15 13.81 12.88
1/13/2023 3:30:00 PM 3.6 38.48 0.087 14.16 13.66 12.88
1/13/2023 3:45:00 PM 3.58 38.444 0.087 14.17 13.11 12.88
1/13/2023 4:00:00 PM 3.55 38.39 0.087 14.18 13.77 12.88
1/13/2023 4:15:00 PM 3.51 38.318 0.087 14.19 12.52 12.88
1/13/2023 4:30:00 PM 3.47 38.246 0.087 14.21 13.65 12.88
1/13/2023 4:45:00 PM 3.43 38.174 0.087 14.22 11.99 12.88
1/13/2023 5:00:00 PM 3.41 38.138 0.087 14.23 12.47 12.88
1/13/2023 5:15:00 PM 3.38 38.084 0.087 14.24 11.76 12.88
1/13/2023 5:30:00 PM 3.36 38.048 0.086 14.25 10.79 12.88
1/13/2023 5:45:00 PM 3.33 37.994 0.086 14.26 11.12 12.89
1/13/2023 6:00:00 PM 3.3 37.94 0.086 14.28 10.93 12.89
1/13/2023 6:15:00 PM 3.28 37.904 0.086 14.29 10.39 12.9
1/13/2023 6:30:00 PM 3.25 37.85 0.086 14.3 10.19 12.9
1/13/2023 6:45:00 PM 3.23 37.814 0.086 14.31 10.2 12.91
1/13/2023 7:00:00 PM 3.19 37.742 0.085 14.32 9.24 12.92
1/13/2023 7:15:00 PM 3.15 37.67 0.085 14.34 8.92 12.93
1/13/2023 7:30:00 PM 3.13 37.634 0.085 14.35 9.11 12.93
1/13/2023 7:45:00 PM 3.1 37.58 0.085 14.36 8.89 12.94
1/13/2023 8:00:00 PM 3.07 37.526 0.084 14.37 8.48 12.95
1/13/2023 8:15:00 PM 3.03 37.454 0.084 14.38 8.44 12.96
1/13/2023 8:30:00 PM 3 37.4 0.084 14.4 7.79 12.98
1/13/2023 8:45:00 PM 2.98 37.364 0.084 14.41 7.82 12.98
1/13/2023 9:00:00 PM 2.95 37.31 0.084 14.42 7.89 13
1/13/2023 9:15:00 PM 2.92 37.256 0.083 14.43 7.56 13.01
1/13/2023 9:30:00 PM 2.89 37.202 0.083 14.44 7.23 13.02
1/13/2023 9:45:00 PM 2.85 37.13 0.083 14.46 7.45 13.04
1/13/2023 10:00:00 PM 2.83 37.094 0.083 14.46 6.79 13.05
1/13/2023 10:15:00 PM 2.81 37.058 0.082 14.47 6.78 13.06
1/13/2023 10:30:00 PM 2.78 37.004 0.082 14.48 6.82 13.07
1/13/2023 10:45:00 PM 2.74 36.932 0.082 14.5 6.53 13.08
1/13/2023 11:00:00 PM 2.72 36.896 0.081 14.51 6.48 13.09
1/13/2023 11:15:00 PM 2.68 36.824 0.081 14.51 6.39 13.1
1/13/2023 11:30:00 PM 2.65 36.77 0.081 14.51 6.28 13.11
1/13/2023 11:45:00 PM 2.62 36.716 0.081 14.51 6.08 13.12
1/14/2023 12:00:00 AM 2.6 36.68 0.08 14.52 6.13 13.13
1/14/2023 12:15:00 AM 2.57 36.626 0.08 14.52 5.86 13.14
1/14/2023 12:30:00 AM 2.54 36.572 0.08 14.53 6.11 13.15
1/14/2023 12:45:00 AM 2.52 36.536 0.079 14.53 5.97 13.16
1/14/2023 1:00:00 AM 2.5 36.5 0.079 14.54 5.84 13.16
1/14/2023 1:15:00 AM 2.48 36.464 0.079 14.55 5.66 13.17
1/14/2023 1:30:00 AM 2.46 36.428 0.079 14.55 5.41 13.19
1/14/2023 1:45:00 AM 2.43 36.374 0.078 14.56 5.53 13.2
1/14/2023 2:00:00 AM 2.4 36.32 0.078 14.57 5.45 13.21
1/14/2023 2:15:00 AM 2.37 36.266 0.078 14.58 5.6 13.22
1/14/2023 2:30:00 AM 2.35 36.23 0.078 14.59 5.65 13.23
1/14/2023 2:45:00 AM 2.32 36.176 0.077 14.6 5.1 13.24
1/14/2023 3:00:00 AM 2.29 36.122 0.077 14.61 5.17 13.26
1/14/2023 3:15:00 AM 2.27 36.086 0.077 14.62 5.11 13.26
1/14/2023 3:30:00 AM 2.25 36.05 0.077 14.65 5.06 13.27
1/14/2023 3:45:00 AM 2.22 35.996 0.076 14.64 4.97 13.28
1/14/2023 4:00:00 AM 2.2 35.96 0.076 14.65 5.27 13.29
1/14/2023 4:15:00 AM 2.17 35.906 0.076 14.67 5.23 13.3
1/14/2023 4:30:00 AM 2.16 35.888 0.076 14.67 4.98 13.31
1/14/2023 4:45:00 AM 2.13 35.834 0.075 14.68 4.95 13.32
1/14/2023 5:00:00 AM 2.11 35.798 0.075 14.68 4.88 13.33
1/14/2023 5:15:00 AM 2.08 35.744 0.075 14.69 4.77 13.35
1/14/2023 5:30:00 AM 2.06 35.708 0.075 14.72 4.74 13.36
1/14/2023 5:45:00 AM 2.03 35.654 0.075 14.72 4.8 13.37
1/14/2023 6:00:00 AM 2.02 35.636 0.075 14.72 4.63 13.37
1/14/2023 6:15:00 AM 2.01 35.618 0.074 14.72 4.53 13.38
1/14/2023 6:30:00 AM 1.99 35.582 0.074 14.71 4.64 13.39
1/14/2023 6:45:00 AM 1.97 35.546 0.074 14.71 4.71 13.4
1/14/2023 7:00:00 AM 1.95 35.51 0.074 14.7 4.54 13.41
1/14/2023 7:15:00 AM 1.93 35.474 0.073 14.7 4.34 13.43
1/14/2023 7:30:00 AM 1.91 35.438 0.073 14.7 4.4 13.43
1/14/2023 7:45:00 AM 1.88 35.384 0.073 14.7 4.24 13.45
1/14/2023 8:00:00 AM 1.84 35.312 0.073 14.69 4.48 13.45
1/14/2023 8:15:00 AM 1.82 35.276 0.073 14.69 4.35 13.47
1/14/2023 8:30:00 AM 1.8 35.24 0.073 14.69 4.17 13.49
1/14/2023 8:45:00 AM 1.79 35.222 0.073 14.68 4.09 13.51
1/14/2023 9:00:00 AM 1.78 35.204 0.072 14.67 4.19 13.53
1/14/2023 9:15:00 AM 1.77 35.186 0.072 14.65 4.34 13.56
1/14/2023 9:30:00 AM 1.76 35.168 0.072 14.64 3.93 13.58
1/14/2023 9:45:00 AM 1.76 35.168 0.072 14.63 3.83 13.6
1/14/2023 10:00:00 AM 1.77 35.186 0.072 14.62 3.9 13.62
1/14/2023 10:15:00 AM 1.79 35.222 0.072 14.6 3.88 13.63
1/14/2023 10:30:00 AM 1.8 35.24 0.072 14.59 4.48 13.65
1/14/2023 10:45:00 AM 1.81 35.258 0.071 14.58 3.93 13.67
1/14/2023 11:00:00 AM 1.84 35.312 0.071 14.57 3.75 13.68
1/14/2023 11:15:00 AM 1.85 35.33 0.071 14.55 3.77 13.7
1/14/2023 11:30:00 AM 1.88 35.384 0.071 14.54 3.9 13.7
1/14/2023 11:45:00 AM 1.9 35.42 0.07 14.53 3.55 13.71
1/14/2023 12:00:00 PM 1.91 35.438 0.07 14.52 4.01 13.71
1/14/2023 12:15:00 PM -99999.99 -179968 -99999.99 -99999.99 -99999.99 -99999.99
1/14/2023 12:30:00 PM 1.96 35.528 0.07 14.52 3.5 13.71
1/14/2023 12:45:00 PM 1.99 35.582 0.07 14.51 3.65 13.7
1/14/2023 1:00:00 PM 2.02 35.636 0.07 14.5 3.61 13.69
1/14/2023 1:15:00 PM 2.05 35.69 0.07 14.5 3.71 13.7
1/14/2023 1:30:00 PM 2.08 35.744 0.07 14.5 3.63 13.69
1/14/2023 1:45:00 PM 2.1 35.78 0.069 14.49 3.61 13.69
1/14/2023 2:00:00 PM 2.11 35.798 0.069 14.48 3.57 13.69
1/14/2023 2:15:00 PM 2.12 35.816 0.069 14.47 3.42 13.67
1/14/2023 2:30:00 PM 2.13 35.834 0.069 14.46 3.59 13.67
1/14/2023 2:45:00 PM 2.12 35.816 0.069 14.45 3.5 13.67
1/14/2023 3:00:00 PM 2.12 35.816 0.069 14.45 3.55 13.66
1/14/2023 3:15:00 PM 2.11 35.798 0.068 14.44 3.31 13.65
1/14/2023 3:30:00 PM 2.1 35.78 0.068 14.43 3.38 13.65
1/14/2023 3:45:00 PM 2.08 35.744 0.068 14.43 3.51 13.65
1/14/2023 4:00:00 PM 2.07 35.726 0.068 14.42 3.43 13.64
1/14/2023 4:15:00 PM 2.06 35.708 0.068 14.42 3.37 13.63
1/14/2023 4:30:00 PM 2.03 35.654 0.068 14.42 3.4 13.62
1/14/2023 4:45:00 PM 2.02 35.636 0.068 14.42 3.38 13.61
1/14/2023 5:00:00 PM 2 35.6 0.068 14.41 3.16 13.6
1/14/2023 5:15:00 PM 1.98 35.564 0.068 14.4 3.36 13.59
1/14/2023 5:30:00 PM 1.95 35.51 0.068 14.4 3.54 13.58
1/14/2023 5:45:00 PM 1.93 35.474 0.067 14.4 3.21 13.58
1/14/2023 6:00:00 PM 1.89 35.402 0.067 14.4 3.33 13.58
1/14/2023 6:15:00 PM 1.87 35.366 0.067 14.39 3.23 13.58
1/14/2023 6:30:00 PM 1.85 35.33 0.067 14.41 3.59 13.58
1/14/2023 6:45:00 PM 1.82 35.276 0.067 14.41 3.36 13.59
1/14/2023 7:00:00 PM 1.79 35.222 0.067 14.41 3.28 13.58
1/14/2023 7:15:00 PM 1.77 35.186 0.067 14.41 3.31 13.59
1/14/2023 7:30:00 PM 1.75 35.15 0.067 14.41 3.34 13.6
1/14/2023 7:45:00 PM 1.73 35.114 0.067 14.4 3.42 13.6
1/14/2023 8:00:00 PM 1.7 35.06 0.067 14.4 3.16 13.61
1/14/2023 8:15:00 PM 1.68 35.024 0.067 14.39 3.34 13.61
1/14/2023 8:30:00 PM 1.67 35.006 0.066 14.38 3.35 13.62
1/14/2023 8:45:00 PM 1.64 34.952 0.066 14.38 3.34 13.62
1/14/2023 9:00:00 PM 1.63 34.934 0.066 14.37 3.27 13.63
1/14/2023 9:15:00 PM 1.61 34.898 0.066 14.36 3.29 13.64
1/14/2023 9:30:00 PM 1.6 34.88 0.066 14.35 3.42 13.64
1/14/2023 9:45:00 PM 1.56 34.808 0.066 14.35 3.34 13.66
1/14/2023 10:00:00 PM 1.54 34.772 0.066 14.34 3.4 13.66
1/14/2023 10:15:00 PM 1.52 34.736 0.066 14.34 3.4 13.67
1/14/2023 10:30:00 PM 1.51 34.718 0.066 14.33 3.27 13.68
1/14/2023 10:45:00 PM 1.5 34.7 0.066 14.33 3.32 13.68
1/14/2023 11:00:00 PM 1.49 34.682 0.066 14.32 3.37 13.69
1/14/2023 11:15:00 PM 1.47 34.646 0.066 14.32 3.34 13.69
1/14/2023 11:30:00 PM 1.45 34.61 0.065 14.32 3.26 13.7
1/14/2023 11:45:00 PM 1.43 34.574 0.065 14.32 3.2 13.7
1/15/2023 12:00:00 AM 1.42 34.556 0.065 14.32 3.22 13.71
1/15/2023 12:15:00 AM 1.4 34.52 0.065 14.32 3.21 13.72
1/15/2023 12:30:00 AM 1.4 34.52 0.065 14.32 3.28 13.72
1/15/2023 12:45:00 AM 1.38 34.484 0.065 14.33 3.24 13.73
1/15/2023 1:00:00 AM 1.37 34.466 0.065 14.33 3.18 13.73
1/15/2023 1:15:00 AM 1.36 34.448 0.065 14.33 3.19 13.73
1/15/2023 1:30:00 AM 1.35 34.43 0.065 14.34 3.15 13.75
1/15/2023 1:45:00 AM 1.34 34.412 0.065 14.34 3.17 13.75
1/15/2023 2:00:00 AM 1.33 34.394 0.065 14.34 3.12 13.76
1/15/2023 2:15:00 AM 1.32 34.376 0.065 14.34 3.12 13.76
1/15/2023 2:30:00 AM 1.31 34.358 0.065 14.35 3.08 13.77
1/15/2023 2:45:00 AM 1.29 34.322 0.065 14.35 3.32 13.77
1/15/2023 3:00:00 AM 1.28 34.304 0.065 14.36 3.18 13.78
1/15/2023 3:15:00 AM 1.26 34.268 0.065 14.5 3.13 13.79
1/15/2023 3:30:00 AM 1.25 34.25 0.064 15.33 3.11 13.8
1/15/2023 3:45:00 AM 1.24 34.232 0.064 15.7 3.01 13.8
1/15/2023 4:00:00 AM 1.23 34.214 0.064 15.87 3.1 13.81
1/15/2023 4:15:00 AM 1.21 34.178 0.064 15.95 3.11 13.82
1/15/2023 4:30:00 AM 1.2 34.16 0.064 15.98 3.15 13.82
1/15/2023 4:45:00 AM 1.2 34.16 0.064 15.97 2.94 13.83
1/15/2023 5:00:00 AM 1.19 34.142 0.064 15.94 3.18 13.83
1/15/2023 5:15:00 AM 1.18 34.124 0.064 15.9 3.05 13.83
1/15/2023 5:30:00 AM 1.17 34.106 0.064 15.86 3.09 13.84
1/15/2023 5:45:00 AM 1.14 34.052 0.064 15.77 3.17 13.85
1/15/2023 6:00:00 AM 1.13 34.034 0.064 15.7 3.06 13.86
1/15/2023 6:15:00 AM 1.12 34.016 0.064 15.64 3.03 13.87
1/15/2023 6:30:00 AM 1.11 33.998 0.064 15.57 3.09 13.87
1/15/2023 6:45:00 AM 1.09 33.962 0.064 15.51 2.99 13.88
1/15/2023 7:00:00 AM 1.07 33.926 0.064 15.45 2.92 13.88
1/15/2023 7:15:00 AM 1.05 33.89 0.064 15.4 2.94 13.89
1/15/2023 7:30:00 AM 1.04 33.872 0.064 15.34 3.01 13.9
1/15/2023 7:45:00 AM 1.02 33.836 0.064 15.29 3.03 13.91
1/15/2023 8:00:00 AM 1 33.8 0.064 15.24 2.85 13.93
1/15/2023 8:15:00 AM 0.99 33.782 0.064 15.2 2.86 13.94
1/15/2023 8:30:00 AM 1 33.8 0.064 15.16 2.94 13.97
1/15/2023 8:45:00 AM 1 33.8 0.063 15.12 2.89 13.99
1/15/2023 9:00:00 AM 1 33.8 0.063 15.11 2.87 14.01
1/15/2023 9:15:00 AM 1.01 33.818 0.063 15.04 2.84 14.03
1/15/2023 9:30:00 AM 1.01 33.818 0.063 15 2.95 14.05
1/15/2023 9:45:00 AM 1.04 33.872 0.063 14.97 2.9 14.06
1/15/2023 10:00:00 AM 1.07 33.926 0.063 14.93 2.74 14.07
1/15/2023 10:15:00 AM 1.11 33.998 0.063 14.9 2.83 14.08
1/15/2023 10:30:00 AM 1.08 33.944 0.063 14.88 2.82 14.09
1/15/2023 10:45:00 AM 1.06 33.908 0.063 14.86 2.75 14.11
1/15/2023 11:00:00 AM 1.12 34.016 0.063 14.83 2.75 14.1
1/15/2023 11:15:00 AM 1.16 34.088 0.063 14.8 2.89 14.1
1/15/2023 11:30:00 AM 1.18 34.124 0.063 14.78 2.71 14.1
1/15/2023 11:45:00 AM 1.21 34.178 0.063 14.76 2.76 14.1
1/15/2023 12:00:00 PM 1.25 34.25 0.062 14.74 2.89 14.09
1/15/2023 12:15:00 PM 1.29 34.322 0.062 14.72 2.79 14.08
1/15/2023 12:30:00 PM 1.34 34.412 0.062 14.7 2.78 14.06
1/15/2023 12:45:00 PM 1.39 34.502 0.062 14.68 2.76 14.05
1/15/2023 1:00:00 PM 1.45 34.61 0.062 14.66 2.81 14.03
1/15/2023 1:15:00 PM 1.5 34.7 0.062 14.64 2.74 14.01
1/15/2023 1:30:00 PM 1.57 34.826 0.062 14.62 2.73 13.99
1/15/2023 1:45:00 PM 1.63 34.934 0.062 14.6 2.87 13.96
1/15/2023 2:00:00 PM 1.69 35.042 0.062 14.58 2.9 13.93
1/15/2023 2:15:00 PM 1.73 35.114 0.062 14.56 2.82 13.91
1/15/2023 2:30:00 PM 1.77 35.186 0.062 14.55 2.72 13.89
1/15/2023 2:45:00 PM 1.8 35.24 0.062 14.53 2.83 13.86
1/15/2023 3:00:00 PM 1.85 35.33 0.062 14.52 2.71 13.83
1/15/2023 3:15:00 PM 1.89 35.402 0.062 14.51 2.8 13.82
1/15/2023 3:30:00 PM 1.92 35.456 0.062 14.5 2.76 13.79
1/15/2023 3:45:00 PM 1.95 35.51 0.062 14.49 2.98 13.77
1/15/2023 4:00:00 PM 1.96 35.528 0.062 14.49 2.8 13.74
1/15/2023 4:15:00 PM 1.97 35.546 0.062 14.48 2.87 13.73
1/15/2023 4:30:00 PM 1.98 35.564 0.061 14.47 2.75 13.71
1/15/2023 4:45:00 PM 1.98 35.564 0.062 14.46 2.8 13.7
1/15/2023 5:00:00 PM 1.97 35.546 0.062 14.46 2.78 13.68
1/15/2023 5:15:00 PM 1.94 35.492 0.062 14.46 2.85 13.67
1/15/2023 5:30:00 PM 1.9 35.42 0.062 14.47 3.04 13.67
1/15/2023 5:45:00 PM 1.86 35.348 0.062 14.47 2.88 13.66
1/15/2023 6:00:00 PM 1.81 35.258 0.062 14.47 2.79 13.67
1/15/2023 6:15:00 PM 1.77 35.186 0.062 14.47 2.94 13.67
1/15/2023 6:30:00 PM 1.72 35.096 0.062 14.47 2.77 13.67
1/15/2023 6:45:00 PM 1.68 35.024 0.062 14.48 2.75 13.68
1/15/2023 7:00:00 PM 1.64 34.952 0.062 14.48 2.77 13.68
1/15/2023 7:15:00 PM 1.6 34.88 0.062 14.49 2.97 13.69
1/15/2023 7:30:00 PM 1.56 34.808 0.062 14.49 2.9 13.7
1/15/2023 7:45:00 PM 1.53 34.754 0.062 14.51 2.97 13.71
1/15/2023 8:00:00 PM 1.49 34.682 0.062 14.52 3.04 13.71
1/15/2023 8:15:00 PM 1.46 34.628 0.062 14.52 2.82 13.72
1/15/2023 8:30:00 PM 1.42 34.556 0.062 14.52 2.95 13.73
1/15/2023 8:45:00 PM 1.39 34.502 0.062 14.53 2.76 13.74
1/15/2023 9:00:00 PM 1.36 34.448 0.062 14.53 2.86 13.75
1/15/2023 9:15:00 PM 1.33 34.394 0.061 14.54 2.83 13.76
1/15/2023 9:30:00 PM 1.31 34.358 0.061 14.53 2.88 13.77
1/15/2023 9:45:00 PM 1.28 34.304 0.061 14.54 2.87 13.78
1/15/2023 10:00:00 PM 1.25 34.25 0.061 14.54 2.86 13.78
1/15/2023 10:15:00 PM 1.22 34.196 0.061 14.54 2.82 13.8
1/15/2023 10:30:00 PM 1.19 34.142 0.061 14.54 2.79 13.81
1/15/2023 10:45:00 PM 1.16 34.088 0.061 14.55 2.9 13.81
1/15/2023 11:00:00 PM 1.13 34.034 0.061 14.55 2.87 13.83
1/15/2023 11:15:00 PM 1.09 33.962 0.061 14.56 3.29 13.84
1/15/2023 11:30:00 PM 1.06 33.908 0.061 14.56 2.99 13.85
1/15/2023 11:45:00 PM 1.02 33.836 0.061 14.56 2.77 13.86
1/16/2023 12:00:00 AM 0.99 33.782 0.061 14.57 2.9 13.88
1/16/2023 12:15:00 AM 0.96 33.728 0.061 14.59 2.79 13.89
1/16/2023 12:30:00 AM 0.93 33.674 0.061 14.59 2.81 13.9
1/16/2023 12:45:00 AM 0.9 33.62 0.061 14.6 2.99 13.91
1/16/2023 1:00:00 AM 0.87 33.566 0.061 14.6 2.92 13.92
1/16/2023 1:15:00 AM 0.84 33.512 0.061 14.61 2.82 13.93
1/16/2023 1:30:00 AM 0.81 33.458 0.061 14.61 2.76 13.93
1/16/2023 1:45:00 AM 0.79 33.422 0.061 14.61 2.84 13.94
1/16/2023 2:00:00 AM 0.76 33.368 0.061 14.61 2.79 13.95
1/16/2023 2:15:00 AM 0.74 33.332 0.061 14.61 2.86 13.96
1/16/2023 2:30:00 AM 0.71 33.278 0.061 14.62 2.81 13.97
1/16/2023 2:45:00 AM 0.69 33.242 0.061 14.62 2.87 13.98
1/16/2023 3:00:00 AM 0.67 33.206 0.061 14.62 2.68 13.99
1/16/2023 3:15:00 AM 0.64 33.152 0.061 14.62 2.82 14
1/16/2023 3:30:00 AM 0.62 33.116 0.061 14.63 2.75 14.01
1/16/2023 3:45:00 AM 0.59 33.062 0.061 14.63 2.99 14.02
1/16/2023 4:00:00 AM 0.56 33.008 0.061 14.64 2.85 14.03
1/16/2023 4:15:00 AM 0.54 32.972 0.061 14.64 2.81 14.04
1/16/2023 4:30:00 AM 0.51 32.918 0.061 14.64 2.86 14.05
1/16/2023 4:45:00 AM 0.48 32.864 0.061 14.65 2.96 14.07
1/16/2023 5:00:00 AM 0.45 32.81 0.061 14.65 2.94 14.08
1/16/2023 5:15:00 AM 0.42 32.756 0.061 14.66 2.99 14.09
1/16/2023 5:30:00 AM 0.39 32.702 0.061 14.66 2.77 14.1
1/16/2023 5:45:00 AM 0.36 32.648 0.061 14.67 2.78 14.12
1/16/2023 6:00:00 AM 0.34 32.612 0.061 14.67 2.73 14.12
1/16/2023 6:15:00 AM 0.31 32.558 0.061 14.68 2.7 14.14
1/16/2023 6:30:00 AM 0.28 32.504 0.061 14.69 2.71 14.15
1/16/2023 6:45:00 AM 0.25 32.45 0.061 14.69 2.79 14.16
1/16/2023 7:00:00 AM 0.22 32.396 0.061 14.7 2.89 14.17
1/16/2023 7:15:00 AM 0.2 32.36 0.061 14.71 2.82 14.18
1/16/2023 7:30:00 AM 0.17 32.306 0.061 14.71 2.81 14.19
1/16/2023 7:45:00 AM